Provisional Data: Sing Sing Creek near Big Flats, NY


Please select a monitoring station.
Please select start date.
Please select start date.

Toggle Unit: C/F Toggle Unit: C/F
Sample Time Temperature (C) Temperature (F) Specific Conductivity (mS/cm) pH   Turbidity (NTU+) DO (mg/L)
3/7/2021 12:00:00 AM 1.33 34.394 0.405 7.56 4.08 13.26
3/7/2021 12:15:00 AM 1.29 34.322 0.405 7.55 4.36 13.25
3/7/2021 12:30:00 AM 1.25 34.25 0.404 7.54 4.1 13.25
3/7/2021 12:45:00 AM 1.21 34.178 0.404 7.53 3.98 13.25
3/7/2021 1:00:00 AM 1.16 34.088 0.405 7.53 4.02 13.25
3/7/2021 1:15:00 AM 1.13 34.034 0.405 7.53 4.14 13.25
3/7/2021 1:30:00 AM 1.1 33.98 0.406 7.52 4.06 13.25
3/7/2021 1:45:00 AM 1.06 33.908 0.406 7.52 3.99 13.25
3/7/2021 2:00:00 AM 1.04 33.872 0.407 7.52 3.94 13.25
3/7/2021 2:15:00 AM 1.01 33.818 0.408 7.51 4.13 13.24
3/7/2021 2:30:00 AM 0.99 33.782 0.409 7.51 4.29 13.24
3/7/2021 2:45:00 AM 0.97 33.746 0.41 7.51 3.85 13.24
3/7/2021 3:00:00 AM 0.95 33.71 0.411 7.51 4.19 13.24
3/7/2021 3:15:00 AM 0.93 33.674 0.411 7.51 4.12 13.24
3/7/2021 3:30:00 AM 0.91 33.638 0.412 7.48 4.42 13.23
3/7/2021 3:45:00 AM 0.89 33.602 0.413 7.51 4.11 13.23
3/7/2021 4:00:00 AM 0.88 33.584 0.413 7.5 4.52 13.23
3/7/2021 4:15:00 AM 0.87 33.566 0.414 7.5 4.46 13.22
3/7/2021 4:30:00 AM 0.85 33.53 0.414 7.48 4.38 13.22
3/7/2021 4:45:00 AM 0.84 33.512 0.415 7.48 4.3 13.21
3/7/2021 5:00:00 AM 0.82 33.476 0.416 7.5 4.46 13.21
3/7/2021 5:15:00 AM 0.8 33.44 0.416 7.49 4.34 13.2
3/7/2021 5:30:00 AM 0.78 33.404 0.417 7.49 4.39 13.2
3/7/2021 5:45:00 AM 0.75 33.35 0.418 7.48 4.39 13.2
3/7/2021 6:00:00 AM 0.72 33.296 0.418 7.49 4.49 13.21
3/7/2021 6:15:00 AM 0.69 33.242 0.418 7.49 4.72 13.21
3/7/2021 6:30:00 AM 0.66 33.188 0.419 7.47 4.53 13.21
3/7/2021 6:45:00 AM 0.64 33.152 0.419 7.47 4.76 13.22
3/7/2021 7:00:00 AM 0.61 33.098 0.42 7.47 4.44 13.24
3/7/2021 7:15:00 AM 0.58 33.044 0.42 7.49 4.42 13.26
3/7/2021 7:30:00 AM 0.56 33.008 0.421 7.49 4.26 13.3
3/7/2021 7:45:00 AM 0.54 32.972 0.422 7.47 4.48 13.33
3/7/2021 8:00:00 AM 0.52 32.936 0.423 7.49 4.25 13.36
3/7/2021 8:15:00 AM 0.5 32.9 0.423 7.5 4.1 13.39
3/7/2021 8:30:00 AM 0.48 32.864 0.424 7.5 4.1 13.44
3/7/2021 8:45:00 AM 0.48 32.864 0.425 7.51 4.66 13.47
3/7/2021 9:00:00 AM 0.5 32.9 0.426 7.51 4.13 13.54
3/7/2021 9:15:00 AM 0.55 32.99 0.426 7.5 3.89 13.6
3/7/2021 9:30:00 AM 0.6 33.08 0.427 7.52 4.29 13.66
3/7/2021 9:45:00 AM 0.66 33.188 0.427 7.52 3.94 13.73
3/7/2021 10:00:00 AM 0.73 33.314 0.427 7.53 3.92 13.79
3/7/2021 10:15:00 AM 0.86 33.548 0.428 7.54 3.78 13.86
3/7/2021 10:30:00 AM 0.91 33.638 0.428 7.55 4.11 13.92
3/7/2021 10:45:00 AM 1 33.8 0.428 7.56 3.86 13.99
3/7/2021 11:00:00 AM 1.07 33.926 0.428 7.57 3.68 14.05
3/7/2021 11:15:00 AM 1.17 34.106 0.428 7.59 3.91 14.1
3/7/2021 11:30:00 AM 1.22 34.196 0.429 7.61 3.74 14.15
3/7/2021 11:45:00 AM 1.39 34.502 0.429 7.62 3.72 14.22
3/7/2021 12:00:00 PM 1.47 34.646 0.429 7.63 3.81 14.27
3/7/2021 12:15:00 PM 1.56 34.808 0.429 7.65 3.91 14.32
3/7/2021 12:30:00 PM 1.78 35.204 0.43 7.66 3.67 14.36
3/7/2021 12:45:00 PM 1.84 35.312 0.43 7.67 4.24 14.4
3/7/2021 1:00:00 PM 1.93 35.474 0.43 7.69 3.73 14.42
3/7/2021 1:15:00 PM 2.26 36.068 0.43 7.73 3.71 14.47
3/7/2021 1:30:00 PM 2.48 36.464 0.43 7.75 3.53 14.49
3/7/2021 1:45:00 PM 2.75 36.95 0.43 7.78 3.77 14.51
3/7/2021 2:00:00 PM 3.04 37.472 0.43 7.81 3.59 14.53
3/7/2021 2:15:00 PM 3.29 37.922 0.43 7.84 3.41 14.52
3/7/2021 2:30:00 PM 3.47 38.246 0.43 7.86 3.64 14.53
3/7/2021 2:45:00 PM 3.65 38.57 0.431 7.88 3.47 14.52
3/7/2021 3:00:00 PM 3.77 38.786 0.431 7.91 3.59 14.5
3/7/2021 3:15:00 PM 3.85 38.93 0.432 7.93 3.4 14.47
3/7/2021 3:30:00 PM 3.91 39.038 0.433 7.96 3.23 14.45
3/7/2021 3:45:00 PM 3.95 39.11 0.434 7.98 3.35 14.42
3/7/2021 4:00:00 PM 3.94 39.092 0.436 7.98 3.22 14.38
3/7/2021 4:15:00 PM 3.93 39.074 0.438 8 3.3 14.34
3/7/2021 4:30:00 PM 3.88 38.984 0.44 8.03 3.33 14.27
3/7/2021 4:45:00 PM 3.82 38.876 0.442 8.03 3.21 14.21
3/7/2021 5:00:00 PM 3.76 38.768 0.445 8.05 3.19 14.15
3/7/2021 5:15:00 PM 3.71 38.678 0.448 8.05 3.31 14.08
3/7/2021 5:30:00 PM 3.67 38.606 0.45 8.05 3.39 14
3/7/2021 5:45:00 PM 3.62 38.516 0.451 8.05 3.27 13.93
3/7/2021 6:00:00 PM 3.57 38.426 0.451 8.05 3.38 13.85
3/7/2021 6:15:00 PM 3.49 38.282 0.449 8.03 3.38 13.78
3/7/2021 6:30:00 PM 3.38 38.084 0.446 8.02 3.37 13.71
3/7/2021 6:45:00 PM 3.26 37.868 0.442 7.99 3.28 13.65
3/7/2021 7:00:00 PM 3.15 37.67 0.436 7.98 3.43 13.61
3/7/2021 7:15:00 PM 3.06 37.508 0.431 7.95 4.13 13.56
3/7/2021 7:30:00 PM 2.99 37.382 0.426 7.95 3.77 13.51
3/7/2021 7:45:00 PM 2.94 37.292 0.423 7.92 3.84 13.46
3/7/2021 8:00:00 PM 2.91 37.238 0.422 7.92 3.96 13.39
3/7/2021 8:15:00 PM 2.89 37.202 0.422 7.91 3.96 13.32
3/7/2021 8:30:00 PM 2.88 37.184 0.424 7.9 3.97 13.24
3/7/2021 8:45:00 PM 2.88 37.184 0.427 7.9 3.91 13.16
3/7/2021 9:00:00 PM 2.88 37.184 0.43 7.91 3.83 13.09
3/7/2021 9:15:00 PM 2.88 37.184 0.433 7.9 3.77 13.02
3/7/2021 9:30:00 PM 2.88 37.184 0.434 7.9 3.59 12.96
3/7/2021 9:45:00 PM 2.86 37.148 0.434 7.88 3.64 12.91
3/7/2021 10:00:00 PM 2.82 37.076 0.433 7.89 3.75 12.87
3/7/2021 10:15:00 PM 2.78 37.004 0.431 7.88 4.11 12.85
3/7/2021 10:30:00 PM 2.72 36.896 0.428 7.86 4.23 12.83
3/7/2021 10:45:00 PM 2.64 36.752 0.424 7.85 3.78 12.82
3/7/2021 11:00:00 PM 2.56 36.608 0.421 7.82 3.84 12.81
3/7/2021 11:15:00 PM 2.46 36.428 0.417 7.81 4.36 12.83
3/7/2021 11:30:00 PM 2.36 36.248 0.414 7.79 4.25 12.85
3/7/2021 11:45:00 PM 2.26 36.068 0.411 7.75 3.83 12.87
3/8/2021 12:00:00 AM 2.16 35.888 0.408 7.72 3.9 12.89
3/8/2021 12:15:00 AM 2.06 35.708 0.406 7.69 3.88 12.91
3/8/2021 12:30:00 AM 1.96 35.528 0.403 7.68 4 12.92
3/8/2021 12:45:00 AM 1.86 35.348 0.403 7.65 3.99 12.93
3/8/2021 1:00:00 AM 1.77 35.186 0.402 7.64 5.13 12.96
3/8/2021 1:15:00 AM 1.68 35.024 0.401 7.63 3.83 12.97
3/8/2021 1:30:00 AM 1.6 34.88 0.401 7.6 3.86 12.99
3/8/2021 1:45:00 AM 1.52 34.736 0.402 7.6 3.9 13
3/8/2021 2:00:00 AM 1.46 34.628 0.403 7.58 3.78 13.01
3/8/2021 2:15:00 AM 1.39 34.502 0.404 7.57 3.66 13.02
3/8/2021 2:30:00 AM 1.32 34.376 0.405 7.56 3.63 13.03
3/8/2021 2:45:00 AM 1.26 34.268 0.406 7.56 3.89 13.03
3/8/2021 3:00:00 AM 1.21 34.178 0.408 7.54 4.01 13.04
3/8/2021 3:15:00 AM 1.15 34.07 0.409 7.55 3.81 13.05
3/8/2021 3:30:00 AM 1.1 33.98 0.411 7.53 3.76 13.05
3/8/2021 3:45:00 AM 1.06 33.908 0.413 7.54 3.85 13.06
3/8/2021 4:00:00 AM 1.01 33.818 0.414 7.52 3.77 13.06
3/8/2021 4:15:00 AM 0.96 33.728 0.416 7.53 4.03 13.06
3/8/2021 4:30:00 AM 0.91 33.638 0.418 7.52 3.96 13.06
3/8/2021 4:45:00 AM 0.87 33.566 0.419 7.52 4.02 13.06
3/8/2021 5:00:00 AM 0.82 33.476 0.421 7.52 4.11 13.07
3/8/2021 5:15:00 AM 0.78 33.404 0.422 7.52 3.9 13.07
3/8/2021 5:30:00 AM 0.74 33.332 0.424 7.51 4.13 13.06
3/8/2021 5:45:00 AM 0.7 33.26 0.425 7.49 4.38 13.06
3/8/2021 6:00:00 AM 0.65 33.17 0.426 7.5 4.2 13.06
3/8/2021 6:15:00 AM 0.61 33.098 0.427 7.5 4.05 13.06
3/8/2021 6:30:00 AM 0.56 33.008 0.428 7.48 4.18 13.08
3/8/2021 6:45:00 AM 0.52 32.936 0.429 7.5 6.95 13.09
3/8/2021 7:00:00 AM 0.48 32.864 0.43 7.49 4.32 13.1
3/8/2021 7:15:00 AM 0.45 32.81 0.431 7.49 4.36 13.12
3/8/2021 7:30:00 AM 0.43 32.774 0.431 7.49 4.3 13.17
3/8/2021 7:45:00 AM 0.4 32.72 0.432 7.48 3.94 13.19
3/8/2021 8:00:00 AM 0.37 32.666 0.433 7.49 3.93 13.24
3/8/2021 8:15:00 AM 0.35 32.63 0.434 7.49 3.82 13.29
3/8/2021 8:30:00 AM 0.34 32.612 0.435 7.5 3.72 13.35
3/8/2021 8:45:00 AM 0.33 32.594 0.437 7.48 3.73 13.36
3/8/2021 9:00:00 AM 0.33 32.594 0.437 7.5 3.81 13.42
3/8/2021 9:15:00 AM 0.35 32.63 0.439 7.5 3.8 13.47
3/8/2021 9:30:00 AM 0.39 32.702 0.44 7.5 3.66 13.52
3/8/2021 9:45:00 AM 0.48 32.864 0.44 7.51 3.72 13.54
3/8/2021 10:00:00 AM 0.57 33.026 0.441 7.5 3.3 13.62
3/8/2021 10:15:00 AM 0.68 33.224 0.442 7.52 3.4 13.68
3/8/2021 10:30:00 AM 0.78 33.404 0.443 7.54 3.59 13.73
3/8/2021 10:45:00 AM 0.9 33.62 0.443 7.53 3.24 13.79
3/8/2021 11:00:00 AM 1.03 33.854 0.443 7.55 3.4 13.86
3/8/2021 11:15:00 AM 1.21 34.178 0.444 7.56 3.35 13.87
3/8/2021 11:30:00 AM 1.27 34.286 0.444 7.58 3.54 13.95
3/8/2021 11:45:00 AM 1.3 34.34 0.445 7.59 3.29 14.01
3/8/2021 12:00:00 PM 1.36 34.448 0.445 7.61 3.39 14.09
3/8/2021 12:15:00 PM 1.36 34.448 0.446 7.62 3.62 14.15
3/8/2021 12:30:00 PM 1.43 34.574 0.447 7.63 3.5 14.2
3/8/2021 12:45:00 PM 1.49 34.682 0.448 7.63 3.66 14.26
3/8/2021 1:00:00 PM 1.59 34.862 0.45 7.66 3.54 14.32
3/8/2021 1:15:00 PM 1.73 35.114 0.45 7.68 3.61 14.38
3/8/2021 1:30:00 PM 1.88 35.384 0.452 7.7 4.06 14.43
3/8/2021 1:45:00 PM 2.04 35.672 0.452 7.71 4.16 14.48
3/8/2021 2:00:00 PM 2.18 35.924 0.453 7.75 3.99 14.52
3/8/2021 2:15:00 PM 2.3 36.14 0.454 7.78 3.78 14.56
3/8/2021 2:30:00 PM 2.41 36.338 0.454 7.81 4.03 14.59
3/8/2021 2:45:00 PM 2.61 36.698 0.455 7.84 3.77 14.61
3/8/2021 3:00:00 PM 2.78 37.004 0.456 7.86 3.89 14.65
3/8/2021 3:15:00 PM 2.94 37.292 0.458 7.88 3.8 14.66
3/8/2021 3:30:00 PM 3.08 37.544 0.46 7.91 3.66 14.65
3/8/2021 3:45:00 PM 3.2 37.76 0.462 7.93 3.66 14.63
3/8/2021 4:00:00 PM 3.3 37.94 0.464 7.95 3.63 14.61
3/8/2021 4:15:00 PM 3.39 38.102 0.467 7.98 3.6 14.58
3/8/2021 4:30:00 PM 3.44 38.192 0.47 8 3.6 14.53
3/8/2021 4:45:00 PM 3.49 38.282 0.473 8.02 3.74 14.5
3/8/2021 5:00:00 PM 3.54 38.372 0.476 8.04 3.44 14.43
3/8/2021 5:15:00 PM 3.57 38.426 0.48 8.08 3.43 14.37
3/8/2021 5:30:00 PM 3.61 38.498 0.485 8.09 3.4 14.27
3/8/2021 5:45:00 PM 3.66 38.588 0.491 8.12 3.74 14.18
3/8/2021 6:00:00 PM 3.69 38.642 0.496 8.13 3.68 14.05
3/8/2021 6:15:00 PM 3.72 38.696 0.502 8.15 3.99 13.91
3/8/2021 6:30:00 PM 3.74 38.732 0.505 8.15 3.92 13.78
3/8/2021 6:45:00 PM 3.73 38.714 0.506 8.15 3.98 13.69
3/8/2021 7:00:00 PM 3.69 38.642 0.504 8.14 4.34 13.61
3/8/2021 7:15:00 PM 3.6 38.48 0.501 8.11 4.61 13.56
3/8/2021 7:30:00 PM 3.47 38.246 0.495 8.09 4.8 13.52
3/8/2021 7:45:00 PM 3.35 38.03 0.491 8.07 5.19 13.48
3/8/2021 8:00:00 PM 3.26 37.868 0.486 8.05 7.46 13.41
3/8/2021 8:15:00 PM 3.19 37.742 0.481 8.04 5.19 13.34
3/8/2021 8:30:00 PM 3.16 37.688 0.476 8.03 5.65 13.27
3/8/2021 8:45:00 PM 3.13 37.634 0.471 8.01 5.68 13.2
3/8/2021 9:00:00 PM 3.09 37.562 0.467 8 5.87 13.14
3/8/2021 9:15:00 PM 3.07 37.526 0.463 7.99 5.48 13.09
3/8/2021 9:30:00 PM 3.05 37.49 0.46 7.98 4.9 13.03
3/8/2021 9:45:00 PM 3.03 37.454 0.457 7.97 4.46 12.98
3/8/2021 10:00:00 PM 3.02 37.436 0.454 7.96 4.82 12.94
3/8/2021 10:15:00 PM 3.03 37.454 0.45 7.94 5.35 12.89
3/8/2021 10:30:00 PM 3.03 37.454 0.445 7.94 4.76 12.86
3/8/2021 10:45:00 PM 3.02 37.436 0.438 7.92 5.18 12.84
3/8/2021 11:00:00 PM 2.98 37.364 0.43 7.88 4.59 12.83
3/8/2021 11:15:00 PM 2.93 37.274 0.423 7.87 4.37 12.84
3/8/2021 11:30:00 PM 2.86 37.148 0.415 7.85 4.65 12.85
3/8/2021 11:45:00 PM 2.8 37.04 0.409 7.83 5.01 12.86
3/9/2021 12:00:00 AM 2.73 36.914 0.403 7.8 4.79 12.87
3/9/2021 12:15:00 AM 2.64 36.752 0.398 7.78 4.24 12.89
3/9/2021 12:30:00 AM 2.57 36.626 0.396 7.75 4.44 12.9
3/9/2021 12:45:00 AM 2.5 36.5 0.393 7.74 4.5 12.91
3/9/2021 1:00:00 AM 2.44 36.392 0.392 7.73 4.22 12.92
3/9/2021 1:15:00 AM 2.38 36.284 0.392 7.73 3.74 12.93
3/9/2021 1:30:00 AM 2.32 36.176 0.393 7.71 3.89 12.92
3/9/2021 1:45:00 AM 2.26 36.068 0.394 7.69 4.5 12.93
3/9/2021 2:00:00 AM 2.22 35.996 0.395 7.66 4.42 12.92
3/9/2021 2:15:00 AM 2.19 35.942 0.397 7.65 4.34 12.92
3/9/2021 2:30:00 AM 2.17 35.906 0.398 7.64 4.42 12.91
3/9/2021 2:45:00 AM 2.16 35.888 0.399 7.64 4.3 12.89
3/9/2021 3:00:00 AM 2.16 35.888 0.401 7.63 4.4 12.88
3/9/2021 3:15:00 AM 2.15 35.87 0.402 7.63 4.34 12.86
3/9/2021 3:30:00 AM 2.13 35.834 0.403 7.62 3.83 12.83
3/9/2021 3:45:00 AM 2.12 35.816 0.404 7.6 4.4 12.82
3/9/2021 4:00:00 AM 2.11 35.798 0.405 7.62 4.02 12.81
3/9/2021 4:15:00 AM 2.11 35.798 0.406 7.62 4.86 12.79
3/9/2021 4:30:00 AM 2.11 35.798 0.407 7.62 4.31 12.76
3/9/2021 4:45:00 AM 2.11 35.798 0.408 7.62 4.3 12.75
3/9/2021 5:00:00 AM 2.11 35.798 0.409 7.61 3.71 12.73
3/9/2021 5:15:00 AM 2.11 35.798 0.41 7.62 3.96 12.71
3/9/2021 5:30:00 AM 2.11 35.798 0.411 7.62 4.68 12.69
3/9/2021 5:45:00 AM 2.1 35.78 0.412 7.62 4.38 12.68
3/9/2021 6:00:00 AM 2.1 35.78 0.413 7.63 4.69 12.67
3/9/2021 6:15:00 AM 2.08 35.744 0.414 7.63 4.59 12.66
3/9/2021 6:30:00 AM 2.07 35.726 0.415 7.63 6.58 12.65
3/9/2021 6:45:00 AM 2.06 35.708 0.417 7.61 5.57 12.66
3/9/2021 7:00:00 AM 2.04 35.672 0.418 7.63 5.06 12.67
3/9/2021 7:15:00 AM 2.04 35.672 0.419 7.64 4.96 12.7
3/9/2021 7:30:00 AM 2.03 35.654 0.42 7.64 5.36 12.74
3/9/2021 7:45:00 AM 2.02 35.636 0.421 7.63 4.45 12.78
3/9/2021 8:00:00 AM 2.02 35.636 0.422 7.66 4.44 12.85
3/9/2021 8:15:00 AM 2.02 35.636 0.423 7.65 4.59 12.88
3/9/2021 8:30:00 AM 2.05 35.69 0.424 7.66 4.23 12.95
3/9/2021 8:45:00 AM 2.07 35.726 0.424 7.67 4.64 13
3/9/2021 9:00:00 AM 2.1 35.78 0.425 7.68 4.08 13.06
3/9/2021 9:15:00 AM 2.15 35.87 0.426 7.69 4.08 13.13
3/9/2021 9:30:00 AM 2.23 36.014 0.427 7.7 4.09 13.18
3/9/2021 9:45:00 AM 2.32 36.176 0.427 7.71 3.95 13.26
3/9/2021 10:00:00 AM 2.42 36.356 0.427 7.73 4.06 13.32
3/9/2021 10:15:00 AM 2.52 36.536 0.428 7.74 3.88 13.37
3/9/2021 10:30:00 AM 2.62 36.716 0.428 7.76 4.01 13.43
3/9/2021 10:45:00 AM 2.78 37.004 0.428 7.78 4.17 13.51
3/9/2021 11:00:00 AM 2.94 37.292 0.428 7.8 3.96 13.58
3/9/2021 11:15:00 AM 3.08 37.544 0.428 7.81 3.97 13.64
3/9/2021 11:30:00 AM 3.25 37.85 0.429 7.84 4.11 13.68
3/9/2021 11:45:00 AM 3.45 38.21 0.429 7.87 4.17 13.76
3/9/2021 12:00:00 PM 3.67 38.606 0.429 7.88 4.24 13.81
3/9/2021 12:15:00 PM 3.91 39.038 0.429 7.93 3.97 13.86
3/9/2021 12:30:00 PM 4.15 39.47 0.429 7.97 3.82 13.93
3/9/2021 12:45:00 PM 4.39 39.902 0.429 8 3.87 13.96
3/9/2021 1:00:00 PM 4.65 40.37 0.429 8.03 3.88 13.99
3/9/2021 1:15:00 PM 4.89 40.802 0.429 8.06 4.04 14.05
3/9/2021 1:30:00 PM 5.14 41.252 0.428 8.09 4.07 14.05
3/9/2021 1:45:00 PM 5.36 41.648 0.428 8.13 4.14 14.09
3/9/2021 2:00:00 PM 5.59 42.062 0.428 8.15 3.73 14.09
3/9/2021 2:15:00 PM 5.79 42.422 0.428 8.24 4.08 14.09
3/9/2021 2:30:00 PM 5.97 42.746 0.428 8.29 4 14.08
3/9/2021 2:45:00 PM 6.14 43.052 0.428 8.33 4.19 14.09
3/9/2021 3:00:00 PM 6.28 43.304 0.428 8.38 3.93 14.07
3/9/2021 3:15:00 PM 6.41 43.538 0.427 8.4 3.56 14.01
3/9/2021 3:30:00 PM 6.52 43.736 0.428 8.43 3.66 13.99
3/9/2021 3:45:00 PM 6.62 43.916 0.428 8.45 3.72 13.95
3/9/2021 4:00:00 PM 6.68 44.024 0.428 8.47 3.59 13.92
3/9/2021 4:15:00 PM 6.74 44.132 0.428 8.49 3.81 13.85
3/9/2021 4:30:00 PM 6.77 44.186 0.428 8.5 3.78 13.79
3/9/2021 4:45:00 PM 6.78 44.204 0.428 8.49 4.13 13.72
3/9/2021 5:00:00 PM 6.76 44.168 0.428 8.5 3.79 13.65
3/9/2021 5:15:00 PM 6.73 44.114 0.428 8.51 3.98 13.56
3/9/2021 5:30:00 PM 6.69 44.042 0.428 8.51 3.86 13.48
3/9/2021 5:45:00 PM 6.65 43.97 0.428 8.5 4.11 13.38
3/9/2021 6:00:00 PM 6.6 43.88 0.428 8.5 4.06 13.28
3/9/2021 6:15:00 PM 6.54 43.772 0.428 8.49 4.04 13.15
3/9/2021 6:30:00 PM 6.49 43.682 0.428 8.48 4.24 13.04
3/9/2021 6:45:00 PM 6.43 43.574 0.429 8.46 3.8 12.92
3/9/2021 7:00:00 PM 6.38 43.484 0.429 8.45 13.15 12.8
3/9/2021 7:15:00 PM 6.32 43.376 0.429 8.45 4.36 12.7
3/9/2021 7:30:00 PM 6.26 43.268 0.43 8.43 4.06 12.6
3/9/2021 7:45:00 PM 6.2 43.16 0.43 8.42 4.55 12.51
3/9/2021 8:00:00 PM 6.14 43.052 0.43 8.4 3.89 12.42
3/9/2021 8:15:00 PM 6.07 42.926 0.43 8.39 4.49 12.35
3/9/2021 8:30:00 PM 6 42.8 0.429 8.38 5.89 12.27
3/9/2021 8:45:00 PM 5.93 42.674 0.429 8.38 5.1 12.21
3/9/2021 9:00:00 PM 5.86 42.548 0.429 8.36 4.89 12.14
3/9/2021 9:15:00 PM 5.78 42.404 0.428 8.36 4.87 12.08
3/9/2021 9:30:00 PM 5.71 42.278 0.427 8.35 5.17 12.05
3/9/2021 9:45:00 PM 5.63 42.134 0.427 8.32 4.43 12.01
3/9/2021 10:00:00 PM 5.56 42.008 0.426 8.32 4.52 11.99
3/9/2021 10:15:00 PM 5.48 41.864 0.425 8.31 4.62 11.96
3/9/2021 10:30:00 PM 5.4 41.72 0.424 8.3 4.95 11.94
3/9/2021 10:45:00 PM 5.33 41.594 0.423 8.29 4.9 11.93
3/9/2021 11:00:00 PM 5.26 41.468 0.422 8.28 5.39 11.92
3/9/2021 11:15:00 PM 5.18 41.324 0.421 8.28 5.53 11.91
3/9/2021 11:30:00 PM 5.1 41.18 0.419 8.27 5.5 11.92
3/9/2021 11:45:00 PM 5.02 41.036 0.419 8.26 6.49 11.94
3/10/2021 12:00:00 AM 4.94 40.892 0.418 8.25 6.56 11.95
3/10/2021 12:15:00 AM 4.84 40.712 0.417 8.25 7 11.98
3/10/2021 12:30:00 AM 4.75 40.55 0.416 8.24 7.85 11.99
3/10/2021 12:45:00 AM 4.66 40.388 0.415 8.23 8.62 12.02
3/10/2021 1:00:00 AM 4.57 40.226 0.414 8.21 8.6 12.04
3/10/2021 1:15:00 AM 4.48 40.064 0.412 8.21 9.35 12.06
3/10/2021 1:30:00 AM 4.4 39.92 0.41 8.19 9.93 12.08
3/10/2021 1:45:00 AM 4.32 39.776 0.407 8.18 10.59 12.1
3/10/2021 2:00:00 AM 4.25 39.65 0.404 8.16 11.09 12.13
3/10/2021 2:15:00 AM 4.17 39.506 0.4 8.15 11.2 12.15
3/10/2021 2:30:00 AM 4.09 39.362 0.394 8.12 11.01 12.17
3/10/2021 2:45:00 AM 4 39.2 0.388 8.1 10.42 12.2
3/10/2021 3:00:00 AM 3.91 39.038 0.381 8.08 11.5 12.23
3/10/2021 3:15:00 AM 3.83 38.894 0.375 8.06 10.96 12.26
3/10/2021 3:30:00 AM 3.74 38.732 0.369 8.03 10.92 12.29
3/10/2021 3:45:00 AM 3.66 38.588 0.363 8 11.41 12.32
3/10/2021 4:00:00 AM 3.58 38.444 0.359 8 11.89 12.35
3/10/2021 4:15:00 AM 3.51 38.318 0.354 7.99 12.02 12.39
3/10/2021 4:30:00 AM 3.44 38.192 0.351 7.98 11.75 12.41
3/10/2021 4:45:00 AM 3.36 38.048 0.348 7.97 14.11 12.44
3/10/2021 5:00:00 AM 3.28 37.904 0.346 7.94 13.11 12.48
3/10/2021 5:15:00 AM 3.2 37.76 0.344 7.95 13.41 12.51
3/10/2021 5:30:00 AM 3.11 37.598 0.342 7.95 14.33 12.55
3/10/2021 5:45:00 AM 3.01 37.418 0.341 7.94 16.03 12.6
3/10/2021 6:00:00 AM 2.9 37.22 0.34 7.93 15.73 12.65
3/10/2021 6:15:00 AM 2.79 37.022 0.339 7.91 16.29 12.69
3/10/2021 6:30:00 AM 2.68 36.824 0.339 7.92 18.89 12.74
3/10/2021 6:45:00 AM 2.57 36.626 0.339 7.92 18.3 12.78
3/10/2021 7:00:00 AM 2.47 36.446 0.339 7.91 19.99 12.84
3/10/2021 7:15:00 AM 2.36 36.248 0.339 7.9 16.82 12.9
3/10/2021 7:30:00 AM 2.26 36.068 0.34 7.9 18.47 12.95
3/10/2021 7:45:00 AM 2.16 35.888 0.34 7.89 18.35 13.02
3/10/2021 8:00:00 AM 2.07 35.726 0.34 7.88 17.52 13.08
3/10/2021 8:15:00 AM 1.99 35.582 0.341 7.86 18.71 13.13
3/10/2021 8:30:00 AM 1.92 35.456 0.341 7.84 14.61 13.19
3/10/2021 8:45:00 AM 1.86 35.348 0.342 7.83 15.52 13.25
3/10/2021 9:00:00 AM 1.8 35.24 0.342 7.82 14.8 13.31
3/10/2021 9:15:00 AM 1.78 35.204 0.342 7.78 13.12 13.38
3/10/2021 9:30:00 AM 1.78 35.204 0.342 7.77 13.14 13.44
3/10/2021 9:45:00 AM 1.78 35.204 0.342 7.77 12.23 13.51
3/10/2021 10:00:00 AM 1.78 35.204 0.342 7.7 12.3 13.57
3/10/2021 10:15:00 AM 1.82 35.276 0.343 7.69 11.81 13.63
3/10/2021 10:30:00 AM 1.88 35.384 0.343 7.69 11.03 13.69
3/10/2021 10:45:00 AM 1.97 35.546 0.343 7.7 10.47 13.76
3/10/2021 11:00:00 AM 2.11 35.798 0.343 7.71 10.88 13.83
3/10/2021 11:15:00 AM 2.28 36.104 0.344 7.73 10.19 13.89
3/10/2021 11:30:00 AM 2.46 36.428 0.344 7.75 10.67 13.95
3/10/2021 11:45:00 AM 2.68 36.824 0.344 7.77 9.25 13.99
3/10/2021 12:00:00 PM 2.91 37.238 0.345 7.81 8.51 14.05
3/10/2021 12:15:00 PM 3.16 37.688 0.345 7.84 8.43 14.08
3/10/2021 12:30:00 PM 3.41 38.138 0.345 7.92 8.24 14.12
3/10/2021 12:45:00 PM 3.67 38.606 0.345 7.98 8.51 14.14
3/10/2021 1:00:00 PM 3.92 39.056 0.346 8.03 7.67 14.14
3/10/2021 1:15:00 PM 4.15 39.47 0.346 8.08 8.1 14.15
3/10/2021 1:30:00 PM 4.38 39.884 0.346 8.12 6.75 14.17
3/10/2021 1:45:00 PM 4.6 40.28 0.346 8.16 7.17 14.16
3/10/2021 2:00:00 PM 4.8 40.64 0.347 8.2 6.89 14.16
3/10/2021 2:15:00 PM 4.98 40.964 0.347 8.23 6.73 14.14
3/10/2021 2:30:00 PM 5.18 41.324 0.347 8.25 6.72 14.12
3/10/2021 2:45:00 PM 5.35 41.63 0.348 8.29 6.92 14.12
3/10/2021 3:00:00 PM 5.49 41.882 0.348 8.31 6.84 14.09
3/10/2021 3:15:00 PM 5.61 42.098 0.349 8.34 6.65 14.04
3/10/2021 3:30:00 PM 5.72 42.296 0.349 8.36 6.78 14
3/10/2021 3:45:00 PM 5.81 42.458 0.35 8.38 6.42 13.97
3/10/2021 4:00:00 PM 5.89 42.602 0.35 8.39 6.22 13.91
3/10/2021 4:15:00 PM 5.95 42.71 0.35 8.4 6.64 13.85
3/10/2021 4:30:00 PM 6 42.8 0.35 8.41 6.38 13.79
3/10/2021 4:45:00 PM 6.04 42.872 0.351 8.42 6.69 13.72
3/10/2021 5:00:00 PM 6.06 42.908 0.351 8.43 6.52 13.64
3/10/2021 5:15:00 PM 6.09 42.962 0.351 8.43 6.99 13.54
3/10/2021 5:30:00 PM 6.11 42.998 0.351 8.42 6.45 13.44
3/10/2021 5:45:00 PM 6.12 43.016 0.351 8.43 7.4 13.33
3/10/2021 6:00:00 PM 6.13 43.034 0.351 8.41 6.82 13.22
3/10/2021 6:15:00 PM 6.13 43.034 0.351 8.4 6.49 13.11
3/10/2021 6:30:00 PM 6.13 43.034 0.351 8.4 7.55 12.99
3/10/2021 6:45:00 PM 6.13 43.034 0.351 8.4 7.79 12.88
3/10/2021 7:00:00 PM 6.12 43.016 0.351 8.38 7.85 12.76
3/10/2021 7:15:00 PM 6.11 42.998 0.352 8.38 9.59 12.66
3/10/2021 7:30:00 PM 6.09 42.962 0.358 8.37 12.74 12.56
3/10/2021 7:45:00 PM 6.06 42.908 0.367 8.35 18.7 12.48
3/10/2021 8:00:00 PM 6.02 42.836 0.37 8.34 23.14 12.4
3/10/2021 8:15:00 PM 5.98 42.764 0.364 8.32 80.12 12.34
3/10/2021 8:30:00 PM 5.94 42.692 0.353 8.27 68.45 12.28
3/10/2021 8:45:00 PM 5.89 42.602 0.342 8.23 91.13 12.23
3/10/2021 9:00:00 PM 5.81 42.458 0.331 8.21 147.77 12.21
3/10/2021 9:15:00 PM 5.67 42.206 0.32 8.16 115.98 12.21
3/10/2021 9:30:00 PM 5.5 41.9 0.307 8.12 276.33 12.25
3/10/2021 9:45:00 PM 5.36 41.648 0.294 8.06 169.1 12.26
3/10/2021 10:00:00 PM 5.27 41.486 0.284 8.02 197.98 12.28
3/10/2021 10:15:00 PM 5.13 41.234 0.277 7.99 168.17 12.31
3/10/2021 10:30:00 PM 4.85 40.73 0.269 7.92 282.52 12.4
3/10/2021 10:45:00 PM 4.5 40.1 0.261 7.92 276.04 12.51
3/10/2021 11:00:00 PM 4.12 39.416 0.254 7.88 251.16 12.68
3/10/2021 11:15:00 PM 3.75 38.75 0.248 7.81 207.55 12.82
3/10/2021 11:30:00 PM 3.41 38.138 0.244 7.8 179.88 12.96
3/10/2021 11:45:00 PM 3.12 37.616 0.241 7.77 169.34 13.07
3/11/2021 12:00:00 AM 2.88 37.184 0.238 7.74 255.3 13.17
3/11/2021 12:15:00 AM 2.68 36.824 0.237 7.72 157.39 13.25
3/11/2021 12:30:00 AM 2.53 36.554 0.236 7.7 164.31 13.3
3/11/2021 12:45:00 AM 2.4 36.32 0.235 7.69 205.18 13.35
3/11/2021 1:00:00 AM 2.29 36.122 0.235 7.67 138.13 13.39
3/11/2021 1:15:00 AM 2.21 35.978 0.235 7.64 180.56 13.42
3/11/2021 1:30:00 AM 2.14 35.852 0.235 7.62 147 13.44
3/11/2021 1:45:00 AM 2.08 35.744 0.235 7.62 142.43 13.46
3/11/2021 2:00:00 AM 2.04 35.672 0.236 7.63 102.72 13.48
3/11/2021 2:15:00 AM 2 35.6 0.236 7.6 160.39 13.48
3/11/2021 2:30:00 AM 1.98 35.564 0.236 7.59 100.52 13.49
3/11/2021 2:45:00 AM 1.96 35.528 0.236 7.58 135.77 13.49
3/11/2021 3:00:00 AM 1.94 35.492 0.236 7.57 85.61 13.49
3/11/2021 3:15:00 AM 1.94 35.492 0.236 7.56 76.58 13.49
3/11/2021 3:30:00 AM 1.93 35.474 0.237 7.55 87.24 13.48
3/11/2021 3:45:00 AM 1.93 35.474 0.237 7.55 84.58 13.49
3/11/2021 4:00:00 AM 1.93 35.474 0.237 7.51 77.21 13.48
3/11/2021 4:15:00 AM 1.92 35.456 0.237 7.54 100.38 13.48
3/11/2021 4:30:00 AM 1.92 35.456 0.237 7.5 65.21 13.48
3/11/2021 4:45:00 AM 1.92 35.456 0.237 7.54 52.29 13.47
3/11/2021 5:00:00 AM 1.93 35.474 0.237 7.49 59.21 13.47
3/11/2021 5:15:00 AM 1.93 35.474 0.237 7.54 63.64 13.46
3/11/2021 5:30:00 AM 1.93 35.474 0.237 7.53 45.97 13.46
3/11/2021 5:45:00 AM 1.94 35.492 0.237 7.49 50.33 13.45
3/11/2021 6:00:00 AM 1.95 35.51 0.237 7.51 63.86 13.45
3/11/2021 6:15:00 AM 1.95 35.51 0.237 7.54 66.63 13.44
3/11/2021 6:30:00 AM 1.96 35.528 0.237 7.54 89.37 13.43
3/11/2021 6:45:00 AM 1.96 35.528 0.237 7.53 53.55 13.43
3/11/2021 7:00:00 AM 1.97 35.546 0.238 7.54 54.64 13.42
3/11/2021 7:15:00 AM 1.98 35.564 0.238 7.52 60.95 13.41
3/11/2021 7:30:00 AM 2 35.6 0.238 7.52 41.29 13.41
3/11/2021 7:45:00 AM 2.02 35.636 0.238 7.54 49.34 13.4
3/11/2021 8:00:00 AM 2.04 35.672 0.238 7.55 47.53 13.4
3/11/2021 8:15:00 AM 2.05 35.69 0.238 7.52 42.25 13.4
3/11/2021 8:30:00 AM 2.06 35.708 0.238 7.53 41.53 13.4
3/11/2021 8:45:00 AM 2.08 35.744 0.238 7.56 37.64 13.39
3/11/2021 9:00:00 AM 2.1 35.78 0.238 7.55 47.99 13.39
3/11/2021 9:15:00 AM 2.15 35.87 0.239 7.53 39.38 13.39
3/11/2021 9:30:00 AM 2.21 35.978 0.239 7.58 30.33 13.39
3/11/2021 9:45:00 AM 2.28 36.104 0.239 7.56 42.49 13.39
3/11/2021 10:00:00 AM 2.38 36.284 0.239 7.59 33.97 13.38
3/11/2021 10:15:00 AM 2.5 36.5 0.239 7.59 30.15 13.38
3/11/2021 10:30:00 AM 2.63 36.734 0.239 7.61 38.22 13.37
3/11/2021 10:45:00 AM 2.82 37.076 0.239 7.62 28.99 13.38
3/11/2021 11:00:00 AM 2.98 37.364 0.239 7.64 31.03 13.38
3/11/2021 11:15:00 AM 3.15 37.67 0.238 7.66 30.32 13.37
3/11/2021 11:30:00 AM 3.33 37.994 0.238 7.68 30.28 13.37
3/11/2021 11:45:00 AM 3.5 38.3 0.238 7.66 29.83 13.36
3/11/2021 12:00:00 PM 3.68 38.624 0.238 7.73 24.32 13.36
3/11/2021 12:15:00 PM 3.85 38.93 0.238 7.74 27.02 13.34
3/11/2021 12:30:00 PM 4.02 39.236 0.237 7.79 28.13 13.33
3/11/2021 12:45:00 PM 4.15 39.47 0.237 7.82 29.61 13.32
3/11/2021 1:00:00 PM 4.32 39.776 0.237 7.84 31.02 13.3
3/11/2021 1:15:00 PM 4.54 40.172 0.237 7.83 27.47 13.28
3/11/2021 1:30:00 PM 4.69 40.442 0.236 7.91 29.14 13.25
3/11/2021 1:45:00 PM 4.81 40.658 0.236 7.91 29.17 13.22
3/11/2021 2:00:00 PM 4.92 40.856 0.236 7.92 32.16 13.17
3/11/2021 2:15:00 PM 5.02 41.036 0.237 7.95 27.86 13.11
3/11/2021 2:30:00 PM 5.13 41.234 0.237 7.93 26.84 13.06
3/11/2021 2:45:00 PM 5.22 41.396 0.238 7.95 32.22 13
3/11/2021 3:00:00 PM 5.31 41.558 0.238 7.97 35.25 12.94
3/11/2021 3:15:00 PM 5.42 41.756 0.237 8 38.31 12.86
3/11/2021 3:30:00 PM 5.53 41.954 0.236 8 48.25 12.8
3/11/2021 3:45:00 PM 5.64 42.152 0.234 8.01 44.85 12.73
3/11/2021 4:00:00 PM 5.71 42.278 0.231 8 47.95 12.66
3/11/2021 4:15:00 PM 5.81 42.458 0.226 8 80.19 12.57
3/11/2021 4:30:00 PM 5.88 42.584 0.222 7.97 126.82 12.49
3/11/2021 4:45:00 PM 5.92 42.656 0.218 7.96 173.87 12.42
3/11/2021 5:00:00 PM 5.93 42.674 0.215 7.93 205.75 12.37
3/11/2021 5:15:00 PM 5.93 42.674 0.21 7.88 292.54 12.33
3/11/2021 5:30:00 PM 5.91 42.638 0.204 7.89 242.68 12.3
3/11/2021 5:45:00 PM 5.85 42.53 0.197 7.86 284.34 12.26
3/11/2021 6:00:00 PM 5.76 42.368 0.191 7.84 311.72 12.26
3/11/2021 6:15:00 PM 5.66 42.188 0.186 7.83 283.69 12.29
3/11/2021 6:30:00 PM 5.53 41.954 0.181 7.8 342.88 12.33
3/11/2021 6:45:00 PM 5.38 41.684 0.177 7.73 319.68 12.36
3/11/2021 7:00:00 PM 5.23 41.414 0.173 7.76 400.33 12.4
3/11/2021 7:15:00 PM 5.08 41.144 0.17 7.71 375.05 12.46
3/11/2021 7:30:00 PM 4.96 40.928 0.168 7.72 419.13 12.5
3/11/2021 7:45:00 PM 4.86 40.748 0.171 7.73 374.65 12.53
3/11/2021 8:00:00 PM 4.72 40.496 0.172 7.78 361.25 12.55
3/11/2021 8:15:00 PM 4.61 40.298 0.169 7.79 337.35 12.56
3/11/2021 8:30:00 PM 4.53 40.154 0.166 7.76 328.37 12.58
3/11/2021 8:45:00 PM 4.47 40.046 0.163 7.74 428.91 12.6
3/11/2021 9:00:00 PM 4.41 39.938 0.161 7.71 256.88 12.61
3/11/2021 9:15:00 PM 4.37 39.866 0.159 7.7 300.17 12.63
3/11/2021 9:30:00 PM 4.34 39.812 0.158 7.69 267.78 12.65
3/11/2021 9:45:00 PM 4.3 39.74 0.156 7.68 268.08 12.66
3/11/2021 10:00:00 PM 4.28 39.704 0.155 7.67 293.67 12.69
3/11/2021 10:15:00 PM 4.26 39.668 0.154 7.67 188.11 12.69
3/11/2021 10:30:00 PM 4.24 39.632 0.153 7.66 308.49 12.71
3/11/2021 10:45:00 PM 4.21 39.578 0.152 7.65 231.15 12.7
3/11/2021 11:00:00 PM 4.19 39.542 0.151 7.65 175.13 12.71
3/11/2021 11:15:00 PM 4.17 39.506 0.151 7.64 267.13 12.71
3/11/2021 11:30:00 PM 4.16 39.488 0.15 7.64 182.37 12.72
3/11/2021 11:45:00 PM 4.14 39.452 0.149 7.64 221.51 12.72
3/12/2021 12:00:00 AM 4.13 39.434 0.149 7.63 178.24 12.72
3/12/2021 12:15:00 AM 4.1 39.38 0.148 7.63 222.26 12.72
3/12/2021 12:30:00 AM 4.08 39.344 0.148 7.63 170.56 12.74
3/12/2021 12:45:00 AM 4.07 39.326 0.147 7.63 176.03 12.74
3/12/2021 1:00:00 AM 4.05 39.29 0.147 7.63 253.19 12.74
3/12/2021 1:15:00 AM 4.04 39.272 0.147 7.63 143.45 12.74
3/12/2021 1:30:00 AM 4.03 39.254 0.146 7.62 159.86 12.74
3/12/2021 1:45:00 AM 4.01 39.218 0.146 7.62 173.36 12.75
3/12/2021 2:00:00 AM 3.98 39.164 0.146 7.62 109.77 12.75
3/12/2021 2:15:00 AM 3.96 39.128 0.145 7.62 210.78 12.77
3/12/2021 2:30:00 AM 3.93 39.074 0.145 7.62 174.34 12.76
3/12/2021 2:45:00 AM 3.91 39.038 0.145 7.62 156.78 12.78
3/12/2021 3:00:00 AM 3.88 38.984 0.145 7.62 95.23 12.78
3/12/2021 3:15:00 AM 3.85 38.93 0.144 7.61 192.34 12.79
3/12/2021 3:30:00 AM 3.82 38.876 0.144 7.61 105.6 12.8
3/12/2021 3:45:00 AM 3.8 38.84 0.144 7.6 119.06 12.81
3/12/2021 4:00:00 AM 3.78 38.804 0.145 7.61 144.18 12.82
3/12/2021 4:15:00 AM 3.75 38.75 0.144 7.61 92.01 12.83
3/12/2021 4:30:00 AM 3.73 38.714 0.144 7.61 106.35 12.84
3/12/2021 4:45:00 AM 3.7 38.66 0.143 7.6 96.38 12.85
3/12/2021 5:00:00 AM 3.67 38.606 0.143 7.6 101.33 12.85
3/12/2021 5:15:00 AM 3.64 38.552 0.143 7.61 84.28 12.87
3/12/2021 5:30:00 AM 3.61 38.498 0.143 7.6 82.63 12.87
3/12/2021 5:45:00 AM 3.57 38.426 0.143 7.6 101.46 12.88
3/12/2021 6:00:00 AM 3.54 38.372 0.143 7.61 105.93 12.89
3/12/2021 6:15:00 AM 3.5 38.3 0.143 7.6 100.83 12.9
3/12/2021 6:30:00 AM 3.46 38.228 0.143 7.6 116.66 12.91
3/12/2021 6:45:00 AM 3.42 38.156 0.143 7.6 78.82 12.92
3/12/2021 7:00:00 AM 3.38 38.084 0.143 7.6 108.32 12.94
3/12/2021 7:15:00 AM 3.33 37.994 0.143 7.59 86.87 12.95
3/12/2021 7:30:00 AM 3.28 37.904 0.144 7.59 86.37 12.96
3/12/2021 7:45:00 AM 3.23 37.814 0.144 7.59 86.42 12.97
3/12/2021 8:00:00 AM 3.18 37.724 0.144 7.59 86.51 12.99
3/12/2021 8:15:00 AM 3.14 37.652 0.144 7.58 107.44 13
3/12/2021 8:30:00 AM 3.09 37.562 0.144 7.58 81.94 13.02
3/12/2021 8:45:00 AM 3.05 37.49 0.144 7.6 59.93 13.04
3/12/2021 9:00:00 AM 3.02 37.436 0.145 7.59 60.73 13.05
3/12/2021 9:15:00 AM 3.01 37.418 0.145 7.57 67.47 13.07
3/12/2021 9:30:00 AM 3.03 37.454 0.145 7.56 51.35 13.09
3/12/2021 9:45:00 AM 3.06 37.508 0.145 7.56 80.65 13.1
3/12/2021 10:00:00 AM 3.11 37.598 0.146 7.56 84.34 13.1
3/12/2021 10:15:00 AM 3.18 37.724 0.146 7.57 76.23 13.11
3/12/2021 10:30:00 AM 3.25 37.85 0.146 7.58 62.02 13.11
3/12/2021 10:45:00 AM 3.34 38.012 0.146 7.59 59.03 13.12
3/12/2021 11:00:00 AM 3.44 38.192 0.147 7.59 53.35 13.12
3/12/2021 11:15:00 AM 3.55 38.39 0.147 7.59 52.74 13.12
3/12/2021 11:30:00 AM 3.66 38.588 0.147 7.61 70.72 13.12
3/12/2021 11:45:00 AM 3.79 38.822 0.148 7.62 58.08 13.11
3/12/2021 12:00:00 PM 3.92 39.056 0.148 7.63 63.64 13.08
3/12/2021 12:15:00 PM 4.07 39.326 0.148 7.64 54.99 13.09
3/12/2021 12:30:00 PM 4.22 39.596 0.149 7.66 83.48 13.06
3/12/2021 12:45:00 PM 4.37 39.866 0.149 7.68 70.7 13.04
3/12/2021 1:00:00 PM 4.52 40.136 0.149 7.71 54.42 13.01
3/12/2021 1:15:00 PM 4.68 40.424 0.15 7.73 68.71 12.99
3/12/2021 1:30:00 PM 4.84 40.712 0.15 7.73 64.16 12.96
3/12/2021 1:45:00 PM 4.99 40.982 0.151 7.76 58.48 12.93
3/12/2021 2:00:00 PM 5.15 41.27 0.151 7.77 68.59 12.89
3/12/2021 2:15:00 PM 5.3 41.54 0.151 7.79 56.56 12.84
3/12/2021 2:30:00 PM 5.45 41.81 0.152 7.8 41.99 12.8
3/12/2021 2:45:00 PM 5.59 42.062 0.152 7.82 59.49 12.74
3/12/2021 3:00:00 PM 5.73 42.314 0.152 7.83 55.95 12.69
3/12/2021 3:15:00 PM 5.85 42.53 0.153 7.85 38.97 12.63
3/12/2021 3:30:00 PM 5.98 42.764 0.153 7.86 41.12 12.59
3/12/2021 3:45:00 PM 6.09 42.962 0.153 7.88 55.08 12.54
3/12/2021 4:00:00 PM 6.19 43.142 0.153 7.87 50.03 12.47
3/12/2021 4:15:00 PM 6.28 43.304 0.154 7.91 33.15 12.42
3/12/2021 4:30:00 PM 6.36 43.448 0.154 7.92 51.79 12.36
3/12/2021 4:45:00 PM 6.43 43.574 0.154 7.89 35.88 12.31
3/12/2021 5:00:00 PM 6.48 43.664 0.154 7.92 38.7 12.28
3/12/2021 5:15:00 PM 6.52 43.736 0.154 7.9 42.93 12.24
3/12/2021 5:30:00 PM 6.53 43.754 0.153 7.92 34.38 12.19
3/12/2021 5:45:00 PM 6.53 43.754 0.153 7.91 30.53 12.15
3/12/2021 6:00:00 PM 6.51 43.718 0.153 7.92 41.03 12.13
3/12/2021 6:15:00 PM 6.49 43.682 0.153 7.93 45.48 12.1
3/12/2021 6:30:00 PM 6.45 43.61 0.153 7.92 42.81 12.07
3/12/2021 6:45:00 PM 6.4 43.52 0.152 7.91 50.23 12.04
3/12/2021 7:00:00 PM 6.34 43.412 0.152 7.91 42.11 12.05
3/12/2021 7:15:00 PM 6.27 43.286 0.151 7.91 48.1 12.04
3/12/2021 7:30:00 PM 6.19 43.142 0.151 7.92 37.82 12.05
3/12/2021 7:45:00 PM 6.1 42.98 0.151 7.89 40.29 12.07
3/12/2021 8:00:00 PM 6 42.8 0.15 7.9 55.15 12.07
3/12/2021 8:15:00 PM 5.89 42.602 0.15 7.87 50.75 12.09
3/12/2021 8:30:00 PM 5.79 42.422 0.15 7.87 55.69 12.1
3/12/2021 8:45:00 PM 5.67 42.206 0.15 7.87 41.62 12.13
3/12/2021 9:00:00 PM 5.55 41.99 0.15 7.89 40.82 12.16
3/12/2021 9:15:00 PM 5.42 41.756 0.15 7.85 42.63 12.19
3/12/2021 9:30:00 PM 5.29 41.522 0.15 7.86 40.32 12.22
3/12/2021 9:45:00 PM 5.15 41.27 0.15 7.85 37.89 12.26
3/12/2021 10:00:00 PM 5.02 41.036 0.151 7.85 38.47 12.3
3/12/2021 10:15:00 PM 4.88 40.784 0.151 7.86 59.94 12.34
3/12/2021 10:30:00 PM 4.76 40.568 0.152 7.86 46.98 12.38
3/12/2021 10:45:00 PM 4.62 40.316 0.152 7.85 38.24 12.42
3/12/2021 11:00:00 PM 4.5 40.1 0.153 7.86 40.43 12.45
3/12/2021 11:15:00 PM 4.38 39.884 0.154 7.85 46.38 12.49
3/12/2021 11:30:00 PM 4.26 39.668 0.154 7.83 55.69 12.53
3/12/2021 11:45:00 PM 4.14 39.452 0.155 7.85 67.71 12.56
3/13/2021 12:00:00 AM 4.02 39.236 0.156 7.85 36.99 12.6
3/13/2021 12:15:00 AM 3.92 39.056 0.156 7.84 34.32 12.63
3/13/2021 12:30:00 AM 3.81 38.858 0.157 7.83 39.51 12.66
3/13/2021 12:45:00 AM 3.71 38.678 0.158 7.82 33.12 12.69
3/13/2021 1:00:00 AM 3.62 38.516 0.158 7.82 39.62 12.73
3/13/2021 1:15:00 AM 3.52 38.336 0.159 7.82 40.48 12.76
3/13/2021 1:30:00 AM 3.42 38.156 0.16 7.78 33.88 12.79
3/13/2021 1:45:00 AM 3.34 38.012 0.16 7.79 50.2 12.83
3/13/2021 2:00:00 AM 3.26 37.868 0.161 7.79 38.82 12.84
3/13/2021 2:15:00 AM 3.17 37.706 0.161 7.8 40.24 12.88
3/13/2021 2:30:00 AM 3.08 37.544 0.162 7.78 43.31 12.9
3/13/2021 2:45:00 AM 3 37.4 0.163 7.76 51.75 12.94
3/13/2021 3:00:00 AM 2.93 37.274 0.163 7.77 44.28 12.97
3/13/2021 3:15:00 AM 2.85 37.13 0.164 7.76 33.89 12.99
3/13/2021 3:30:00 AM 2.78 37.004 0.165 7.74 41.1 13.02
3/13/2021 3:45:00 AM 2.7 36.86 0.166 7.76 36.44 13.05
3/13/2021 4:00:00 AM 2.62 36.716 0.166 7.75 37.45 13.08
3/13/2021 4:15:00 AM 2.55 36.59 0.167 7.76 29.15 13.11
3/13/2021 4:30:00 AM 2.47 36.446 0.167 7.73 35.11 13.13
3/13/2021 4:45:00 AM 2.4 36.32 0.168 7.73 35.46 13.17
3/13/2021 5:00:00 AM 2.33 36.194 0.168 7.73 45.24 13.2
3/13/2021 5:15:00 AM 2.26 36.068 0.169 7.73 29.94 13.22
3/13/2021 5:30:00 AM 2.19 35.942 0.17 7.73 32.52 13.25
3/13/2021 5:45:00 AM 2.12 35.816 0.17 7.74 33.39 13.27
3/13/2021 6:00:00 AM 2.05 35.69 0.171 7.71 35.78 13.3
3/13/2021 6:15:00 AM 1.98 35.564 0.171 7.72 35.29 13.32
3/13/2021 6:30:00 AM 1.92 35.456 0.172 7.7 39.52 13.34
3/13/2021 6:45:00 AM 1.86 35.348 0.173 7.69 28.73 13.37
3/13/2021 7:00:00 AM 1.8 35.24 0.173 7.7 32.58 13.4
3/13/2021 7:15:00 AM 1.74 35.132 0.174 7.67 34.22 13.42
3/13/2021 7:30:00 AM 1.69 35.042 0.175 7.68 47.5 13.44
3/13/2021 7:45:00 AM 1.64 34.952 0.175 7.65 35.47 13.47
3/13/2021 8:00:00 AM 1.59 34.862 0.176 7.64 33.14 13.49
3/13/2021 8:15:00 AM 1.55 34.79 0.176 7.64 33.43 13.51
3/13/2021 8:30:00 AM 1.51 34.718 0.177 7.63 33.83 13.54
3/13/2021 8:45:00 AM 1.48 34.664 0.177 7.59 30.58 13.56
3/13/2021 9:00:00 AM 1.46 34.628 0.178 7.6 33.01 13.59
3/13/2021 9:15:00 AM 1.45 34.61 0.178 7.59 29.03 13.62
3/13/2021 9:30:00 AM 1.44 34.592 0.179 7.58 31.58 13.65
3/13/2021 9:45:00 AM 1.46 34.628 0.179 7.6 29.52 13.66
3/13/2021 10:00:00 AM 1.52 34.736 0.18 7.58 31.22 13.69
3/13/2021 10:15:00 AM 1.59 34.862 0.18 7.6 28.48 13.71
3/13/2021 10:30:00 AM 1.69 35.042 0.181 7.6 33.07 13.72
3/13/2021 10:45:00 AM 1.8 35.24 0.181 7.63 29.6 13.73
3/13/2021 11:00:00 AM 1.91 35.438 0.182 7.64 34.25 13.74
3/13/2021 11:15:00 AM 2.04 35.672 0.182 7.63 26.57 13.75
3/13/2021 11:30:00 AM 2.16 35.888 0.182 7.65 28.39 13.74
3/13/2021 11:45:00 AM 2.3 36.14 0.183 7.65 29.87 13.76
3/13/2021 12:00:00 PM 2.46 36.428 0.183 7.69 28.83 13.75
3/13/2021 12:15:00 PM 2.64 36.752 0.184 7.7 26.97 13.74
3/13/2021 12:30:00 PM 2.82 37.076 0.185 7.69 26.83 13.72
3/13/2021 12:45:00 PM 3 37.4 0.185 7.72 22.99 13.7
3/13/2021 1:00:00 PM 3.17 37.706 0.185 7.74 22.33 13.67
3/13/2021 1:15:00 PM 3.34 38.012 0.186 7.78 25.17 13.65
3/13/2021 1:30:00 PM 3.5 38.3 0.186 7.81 23.95 13.62
3/13/2021 1:45:00 PM 3.65 38.57 0.187 7.84 26.45 13.58
3/13/2021 2:00:00 PM 3.79 38.822 0.188 7.85 28.98 13.54
3/13/2021 2:15:00 PM 3.94 39.092 0.188 7.88 21.84 13.51
3/13/2021 2:30:00 PM 4.08 39.344 0.188 7.9 24.97 13.46
3/13/2021 2:45:00 PM 4.21 39.578 0.189 7.92 21.89 13.41
3/13/2021 3:00:00 PM 4.34 39.812 0.189 7.93 33.13 13.36
3/13/2021 3:15:00 PM 4.45 40.01 0.19 7.96 25.28 13.32
3/13/2021 3:30:00 PM 4.55 40.19 0.19 7.97 21.2 13.27
3/13/2021 3:45:00 PM 4.63 40.334 0.19 7.99 23.89 13.22
3/13/2021 4:00:00 PM 4.7 40.46 0.19 7.99 24.16 13.17
3/13/2021 4:15:00 PM 4.76 40.568 0.19 8 23.36 13.11
3/13/2021 4:30:00 PM 4.81 40.658 0.191 8 21.24 13.05
3/13/2021 4:45:00 PM 4.85 40.73 0.191 8.03 22.26 13.01
3/13/2021 5:00:00 PM 4.88 40.784 0.191 8.02 23.89 12.95
3/13/2021 5:15:00 PM 4.92 40.856 0.192 8.03 24.05 12.9
3/13/2021 5:30:00 PM 4.93 40.874 0.192 8.03 20.81 12.83
3/13/2021 5:45:00 PM 4.95 40.91 0.192 8.04 23.56 12.78
3/13/2021 6:00:00 PM 4.95 40.91 0.192 8.03 25.06 12.73
3/13/2021 6:15:00 PM 4.96 40.928 0.193 8.02 27.45 12.67
3/13/2021 6:30:00 PM 4.96 40.928 0.193 8.03 31.85 12.62
3/13/2021 6:45:00 PM 4.95 40.91 0.194 8.03 25.35 12.57
3/13/2021 7:00:00 PM 4.95 40.91 0.194 8.03 26.01 12.53
3/13/2021 7:15:00 PM 4.94 40.892 0.194 7.99 25.28 12.49
3/13/2021 7:30:00 PM 4.93 40.874 0.195 8.02 23.99 12.45
3/13/2021 7:45:00 PM 4.91 40.838 0.195 7.99 21.59 12.41
3/13/2021 8:00:00 PM 4.88 40.784 0.195 8.02 23.28 12.4
3/13/2021 8:15:00 PM 4.85 40.73 0.196 7.98 25.41 12.37
3/13/2021 8:30:00 PM 4.81 40.658 0.195 8 22.83 12.35
3/13/2021 8:45:00 PM 4.76 40.568 0.196 7.99 55.13 12.33
3/13/2021 9:00:00 PM 4.72 40.496 0.196 8 37.87 12.32
3/13/2021 9:15:00 PM 4.67 40.406 0.197 7.97 23.94 12.31
3/13/2021 9:30:00 PM 4.61 40.298 0.198 7.98 24.07 12.31
3/13/2021 9:45:00 PM 4.55 40.19 0.198 7.97 23.91 12.31
3/13/2021 10:00:00 PM 4.49 40.082 0.198 7.99 24.15 12.31
3/13/2021 10:15:00 PM 4.42 39.956 0.199 7.97 24.94 12.32
3/13/2021 10:30:00 PM 4.35 39.83 0.199 7.97 24.27 12.34
3/13/2021 10:45:00 PM 4.27 39.686 0.2 7.96 24.67 12.36
3/13/2021 11:00:00 PM 4.18 39.524 0.2 7.96 23.81 12.38
3/13/2021 11:15:00 PM 4.09 39.362 0.2 7.97 21.65 12.41
3/13/2021 11:30:00 PM 4 39.2 0.201 7.97 24.32 12.43
3/13/2021 11:45:00 PM 3.91 39.038 0.202 7.96 21.31 12.46
3/14/2021 12:00:00 AM 3.81 38.858 0.203 7.96 25.51 12.49
3/14/2021 12:15:00 AM 3.71 38.678 0.203 7.95 26.09 12.52
3/14/2021 12:30:00 AM 3.61 38.498 0.203 7.93 24.5 12.56
3/14/2021 12:45:00 AM 3.51 38.318 0.204 7.93 30.57 12.59
3/14/2021 1:00:00 AM 3.41 38.138 0.204 7.94 21.87 12.62
3/14/2021 1:15:00 AM 3.32 37.976 0.205 7.93 25.26 12.65
3/14/2021 1:30:00 AM 3.23 37.814 0.205 7.94 25.16 12.69
3/14/2021 1:45:00 AM 3.14 37.652 0.205 7.91 24.1 12.72
3/14/2021 3:00:00 AM 2.74 36.932 0.208 7.91 24.33 12.89
3/14/2021 3:15:00 AM 2.68 36.824 0.208 7.9 24.81 12.91
3/14/2021 3:30:00 AM 2.62 36.716 0.209 7.91 22.16 12.92
3/14/2021 3:45:00 AM 2.56 36.608 0.209 7.91 23.3 12.95
3/14/2021 4:00:00 AM 2.51 36.518 0.21 7.9 25.3 12.97
3/14/2021 4:15:00 AM 2.46 36.428 0.211 7.89 23.89 12.99
3/14/2021 4:30:00 AM 2.42 36.356 0.211 7.9 25.8 13.01
3/14/2021 4:45:00 AM 2.38 36.284 0.211 7.91 24.86 13.03
3/14/2021 5:00:00 AM 2.34 36.212 0.211 7.9 23.9 13.04
3/14/2021 5:15:00 AM 2.3 36.14 0.212 7.9 22.22 13.05
3/14/2021 5:30:00 AM 2.26 36.068 0.212 7.9 25.72 13.06
3/14/2021 5:45:00 AM 2.23 36.014 0.213 7.89 25.54 13.07
3/14/2021 6:00:00 AM 2.19 35.942 0.213 7.86 22.36 13.08
3/14/2021 6:15:00 AM 2.16 35.888 0.214 7.86 23.12 13.08
3/14/2021 6:30:00 AM 2.13 35.834 0.215 7.86 21.61 13.1
3/14/2021 6:45:00 AM 2.1 35.78 0.215 7.86 20.81 13.1
3/14/2021 7:00:00 AM 2.07 35.726 0.215 7.87 21.17 13.11
3/14/2021 7:15:00 AM 2.05 35.69 0.216 7.85 19.14 13.12
3/14/2021 7:30:00 AM 2.03 35.654 0.217 7.86 21.73 13.12
3/14/2021 7:45:00 AM 2.01 35.618 0.217 7.84 21.12 13.14
3/14/2021 8:00:00 AM 2 35.6 0.218 7.85 19.84 13.15
3/14/2021 8:15:00 AM 1.99 35.582 0.218 7.84 22.47 13.16
3/14/2021 8:30:00 AM 1.98 35.564 0.219 7.85 20.51 13.16
3/14/2021 8:45:00 AM 1.97 35.546 0.22 7.82 20.72 13.18
3/14/2021 9:00:00 AM 1.99 35.582 0.22 7.85 20.77 13.2
3/14/2021 9:15:00 AM 2.02 35.636 0.22 7.85 19.65 13.23
3/14/2021 9:30:00 AM 2.06 35.708 0.22 7.83 20.14 13.25
3/14/2021 9:45:00 AM 2.07 35.726 0.221 7.86 18.18 13.27
3/14/2021 10:00:00 AM 2.13 35.834 0.221 7.86 18.5 13.29
3/14/2021 11:15:00 AM 2.25 36.05 0.221 7.83 18.82 13.31
3/14/2021 11:30:00 AM 2.42 36.356 0.221 7.87 17.76 13.33
3/14/2021 11:45:00 AM 2.54 36.572 0.221 7.89 18.04 13.34
3/14/2021 12:00:00 PM 2.65 36.77 0.221 7.88 18.34 13.35
3/14/2021 12:15:00 PM 2.82 37.076 0.223 7.91 18.55 13.36
3/14/2021 12:30:00 PM 3.01 37.418 0.222 7.93 18.45 13.36
3/14/2021 12:45:00 PM 3.15 37.67 0.223 7.95 16.31 13.35
3/14/2021 1:00:00 PM 3.27 37.886 0.223 7.93 18.75 13.34
3/14/2021 1:15:00 PM 3.38 38.084 0.224 7.98 17.52 13.33
3/14/2021 1:30:00 PM 3.42 38.156 0.225 7.98 18.23 13.31
3/14/2021 1:45:00 PM 3.53 38.354 0.225 7.99 16.41 13.3
3/14/2021 2:00:00 PM 3.55 38.39 0.225 8 17.15 13.3
3/14/2021 2:15:00 PM 3.63 38.534 0.225 8.02 17.26 13.29
3/14/2021 2:30:00 PM 3.64 38.552 0.225 7.99 1996.45 13.28
3/14/2021 2:45:00 PM 3.7 38.66 0.225 8.04 657.17 13.27
3/14/2021 3:00:00 PM 3.8 38.84 0.225 8.01 17.72 13.26
3/14/2021 3:15:00 PM 3.85 38.93 0.226 8.06 17.29 13.23
3/14/2021 3:30:00 PM 3.89 39.002 0.226 8.04 17.67 13.22
3/14/2021 3:45:00 PM 3.96 39.128 0.227 8.07 17.2 13.2
3/14/2021 4:00:00 PM 4.05 39.29 0.227 8.09 16.13 13.2
3/14/2021 4:15:00 PM 4.07 39.326 0.227 8.06 16.41 13.16
3/14/2021 4:30:00 PM 4.11 39.398 0.227 8.1 16.02 13.14
3/14/2021 4:45:00 PM 4.16 39.488 0.228 8.1 16.35 13.11
3/14/2021 5:00:00 PM 4.23 39.614 0.228 8.12 17.12 13.09
3/14/2021 5:15:00 PM 4.26 39.668 0.228 8.12 16.77 13.06
3/14/2021 5:30:00 PM 4.3 39.74 0.229 8.13 16.28 13.03
3/14/2021 5:45:00 PM 4.35 39.83 0.229 8.14 17.1 13
3/14/2021 6:00:00 PM 4.38 39.884 0.229 8.11 16.21 12.96
3/14/2021 6:15:00 PM 4.39 39.902 0.23 8.15 16.12 12.92
3/14/2021 6:30:00 PM 4.38 39.884 0.23 8.14 16.54 12.87
3/14/2021 6:45:00 PM 4.34 39.812 0.23 8.15 16.46 12.84
3/14/2021 7:00:00 PM 4.29 39.722 0.23 8.14 16.32 12.82
3/14/2021 7:15:00 PM 4.25 39.65 0.231 8.13 16.67 12.79
3/14/2021 7:30:00 PM 4.21 39.578 0.232 8.11 15.96 12.75
3/14/2021 7:45:00 PM 4.15 39.47 0.231 8.13 16.22 12.73
3/14/2021 8:00:00 PM 4.09 39.362 0.232 8.13 17.13 12.71
3/14/2021 8:15:00 PM 4.04 39.272 0.232 8.12 17.15 12.68
3/14/2021 8:30:00 PM 3.99 39.182 0.233 8.12 17 12.65
3/14/2021 8:45:00 PM 3.94 39.092 0.233 8.12 16.85 12.63
3/14/2021 9:00:00 PM 3.89 39.002 0.234 8.11 16.75 12.6
3/14/2021 9:15:00 PM 3.82 38.876 0.234 8.11 16.57 12.59
3/14/2021 9:30:00 PM 3.75 38.75 0.234 8.1 16.75 12.59
3/14/2021 9:45:00 PM 3.68 38.624 0.234 8.1 16.64 12.59
3/14/2021 10:00:00 PM 3.61 38.498 0.235 8.09 16.28 12.58
3/14/2021 10:15:00 PM 3.52 38.336 0.235 8.08 16.95 12.59
3/14/2021 10:30:00 PM 3.45 38.21 0.236 8.05 16.41 12.59
3/14/2021 10:45:00 PM 3.37 38.066 0.236 8.05 16.6 12.6
3/14/2021 11:00:00 PM 3.29 37.922 0.237 8.05 17.63 12.61
3/14/2021 11:15:00 PM 3.22 37.796 0.237 8.06 17.12 12.61
3/14/2021 11:30:00 PM 3.14 37.652 0.237 8.03 17.79 12.62
3/14/2021 11:45:00 PM 3.07 37.526 0.238 8.04 17.78 12.65
3/15/2021 12:00:00 AM 3.01 37.418 0.239 8.05 17.94 12.67
3/15/2021 12:15:00 AM 2.94 37.292 0.239 8.05 17.64 12.69
3/15/2021 12:30:00 AM 2.87 37.166 0.239 8.02 17.31 12.71
3/15/2021 12:45:00 AM 2.79 37.022 0.239 8.03 16.79 12.74
3/15/2021 1:00:00 AM 2.71 36.878 0.24 8.02 17.46 12.76
3/15/2021 1:15:00 AM 2.63 36.734 0.24 8.01 17.64 12.79
3/15/2021 1:30:00 AM 2.54 36.572 0.241 8.01 18.99 12.81
3/15/2021 1:45:00 AM 2.44 36.392 0.241 8.02 17.12 12.85
3/15/2021 2:00:00 AM 2.33 36.194 0.241 8.01 17.48 12.9
3/15/2021 2:15:00 AM 2.24 36.032 0.242 8.01 17.44 12.93
3/15/2021 2:30:00 AM 2.13 35.834 0.242 8 17.86 12.97
3/15/2021 2:45:00 AM 2.02 35.636 0.243 7.99 17.6 13
3/15/2021 3:00:00 AM 1.93 35.474 0.244 7.98 17.51 13.04
3/15/2021 3:15:00 AM 1.84 35.312 0.244 7.97 17.93 13.07
3/15/2021 3:30:00 AM 1.74 35.132 0.245 7.95 16.58 13.12
3/15/2021 3:45:00 AM 1.64 34.952 0.245 7.95 17.19 13.16
3/15/2021 4:00:00 AM 1.54 34.772 0.246 7.93 17.14 13.19
3/15/2021 4:15:00 AM 1.46 34.628 0.247 7.91 17.15 13.22
3/15/2021 4:30:00 AM 1.36 34.448 0.247 7.89 16.81 13.26
3/15/2021 4:45:00 AM 1.28 34.304 0.248 7.87 16.44 13.29
3/15/2021 5:00:00 AM 1.19 34.142 0.248 7.8 16.4 13.33
3/15/2021 5:15:00 AM 1.09 33.962 0.249 7.83 16.94 13.37
3/15/2021 5:30:00 AM 1.01 33.818 0.25 7.8 17.52 13.41
3/15/2021 5:45:00 AM 0.92 33.656 0.251 7.78 17.32 13.45
3/15/2021 6:00:00 AM 0.84 33.512 0.251 7.77 17.29 13.48
3/15/2021 6:15:00 AM 0.76 33.368 0.252 7.74 17.21 13.51
3/15/2021 6:30:00 AM 0.68 33.224 0.252 7.63 16.3 13.54
3/15/2021 6:45:00 AM 0.6 33.08 0.253 7.59 16.81 13.57
3/15/2021 7:00:00 AM 0.51 32.918 0.253 7.57 17.41 13.61
3/15/2021 7:15:00 AM 0.44 32.792 0.255 7.5 17.46 13.64
3/15/2021 7:30:00 AM 0.37 32.666 0.255 7.5 16.86 13.66
3/15/2021 7:45:00 AM 0.32 32.576 0.256 7.48 16.62 13.69
3/15/2021 8:00:00 AM 0.26 32.468 0.258 7.46 15.74 13.72
3/15/2021 8:15:00 AM 0.21 32.378 0.258 7.4 16.51 13.74
3/15/2021 8:30:00 AM 0.17 32.306 0.26 7.43 16.79 13.77
3/15/2021 8:45:00 AM 0.12 32.216 0.262 7.38 16.63 13.78
3/15/2021 9:00:00 AM 0.09 32.162 0.263 7.41 16.19 13.8
3/15/2021 9:15:00 AM 0.04 32.072 0.264 7.4 17 13.82
3/15/2021 9:30:00 AM 0.01 32.018 0.265 7.4 17.17 13.85
3/15/2021 9:45:00 AM -0.03 31.946 0.265 7.37 17.18 13.88
3/15/2021 10:00:00 AM -0.04 31.928 0.266 7.4 17.8 13.91
3/15/2021 10:15:00 AM -0.02 31.964 0.268 7.4 17.09 13.94
3/15/2021 10:30:00 AM 0.01 32.018 0.268 7.37 17.09 13.97
3/15/2021 10:45:00 AM 0.04 32.072 0.269 7.39 17.37 13.99
3/15/2021 11:00:00 AM 0.08 32.144 0.272 7.41 16.58 14.01
3/15/2021 11:15:00 AM 0.17 32.306 0.273 7.42 16.71 14.05
3/15/2021 11:30:00 AM 0.27 32.486 0.275 7.43 16.69 14.08
3/15/2021 11:45:00 AM 0.4 32.72 0.278 7.45 15.74 14.08
3/15/2021 12:00:00 PM 0.57 33.026 0.281 7.46 15.45 14.1
3/15/2021 12:15:00 PM 0.77 33.386 0.283 7.48 15.42 14.12
3/15/2021 12:30:00 PM 0.99 33.782 0.285 7.51 15.59 14.12
3/15/2021 12:45:00 PM 1.23 34.214 0.288 7.5 15.7 14.11
3/15/2021 1:00:00 PM 1.49 34.682 0.291 7.57 15.86 14.1
3/15/2021 1:15:00 PM 1.77 35.186 0.294 7.61 15.14 14.08
3/15/2021 1:30:00 PM 2.04 35.672 0.297 7.61 15.66 14.05
3/15/2021 1:45:00 PM 2.31 36.158 0.298 7.7 16.37 14.02
3/15/2021 2:00:00 PM 2.56 36.608 0.3 7.76 15.53 13.98
3/15/2021 2:15:00 PM 2.79 37.022 0.3 7.78 15.71 13.96
3/15/2021 2:30:00 PM 2.98 37.364 0.298 7.85 15.53 13.94
3/15/2021 2:45:00 PM 3.15 37.67 0.297 7.88 15.35 13.91
3/15/2021 3:00:00 PM 3.3 37.94 0.296 7.93 15.97 13.88
3/15/2021 3:15:00 PM 3.43 38.174 0.294 7.95 16.03 13.84
3/15/2021 3:30:00 PM 3.54 38.372 0.293 7.99 15.65 13.82
3/15/2021 3:45:00 PM 3.64 38.552 0.292 8.04 15.2 13.79
3/15/2021 4:00:00 PM 3.71 38.678 0.29 8.06 15.11 13.76
3/15/2021 4:15:00 PM 3.75 38.75 0.287 8.08 15.21 13.73
3/15/2021 4:30:00 PM 3.75 38.75 0.281 8.05 15.17 13.71
3/15/2021 4:45:00 PM 3.73 38.714 0.274 8.07 15.26 13.71
3/15/2021 5:00:00 PM 3.7 38.66 0.267 8.04 15.06 13.7
3/15/2021 5:15:00 PM 3.64 38.552 0.261 8.05 15.2 13.69
3/15/2021 5:30:00 PM 3.57 38.426 0.256 8.05 15.13 13.67
3/15/2021 5:45:00 PM 3.53 38.354 0.252 8.03 55.22 13.64
3/15/2021 6:00:00 PM 3.49 38.282 0.251 8.03 15.05 13.61
3/15/2021 6:15:00 PM 3.45 38.21 0.249 8.02 15.64 13.57
3/15/2021 6:30:00 PM 3.43 38.174 0.25 8.02 15.27 13.52
3/15/2021 6:45:00 PM 3.4 38.12 0.253 8 15.04 13.46
3/15/2021 7:00:00 PM 3.38 38.084 0.258 8.04 14.75 13.4
3/15/2021 7:15:00 PM 3.36 38.048 0.263 8.05 15.14 13.33
3/15/2021 7:30:00 PM 3.34 38.012 0.269 8.04 14.46 13.27
3/15/2021 7:45:00 PM 3.32 37.976 0.272 8.07 14.61 13.22
3/15/2021 8:00:00 PM 3.28 37.904 0.275 8.08 14.9 13.17
3/15/2021 8:15:00 PM 3.22 37.796 0.275 8.07 14.75 13.13
3/15/2021 8:30:00 PM 3.16 37.688 0.274 8.07 15.13 13.11
3/15/2021 8:45:00 PM 3.08 37.544 0.272 8.06 17.74 13.11
3/15/2021 9:00:00 PM 3.01 37.418 0.27 8.04 14 13.1
3/15/2021 9:15:00 PM 2.93 37.274 0.268 8.02 14.56 13.09
3/15/2021 9:30:00 PM 2.86 37.148 0.266 8.02 14.5 13.08
3/15/2021 9:45:00 PM 2.79 37.022 0.265 7.98 14.21 13.06
3/15/2021 10:00:00 PM 2.73 36.914 0.265 8 14.7 13.05
3/15/2021 10:15:00 PM 2.69 36.842 0.265 7.98 14.28 13.02
3/15/2021 10:30:00 PM 2.65 36.77 0.265 7.99 14.26 13
3/15/2021 10:45:00 PM 2.62 36.716 0.267 7.96 16.09 12.98
3/15/2021 11:00:00 PM 2.6 36.68 0.268 7.97 14.58 12.96
3/15/2021 11:15:00 PM 2.58 36.644 0.269 7.96 14.67 12.93
3/15/2021 11:30:00 PM 2.57 36.626 0.27 7.98 14.39 12.9
3/15/2021 11:45:00 PM 2.57 36.626 0.272 7.97 14.25 12.88
3/16/2021 12:00:00 AM 2.57 36.626 0.273 7.98 14.55 12.86
3/16/2021 12:15:00 AM 2.57 36.626 0.273 7.98 14.19 12.84
3/16/2021 12:30:00 AM 2.57 36.626 0.275 7.96 14.54 12.83
3/16/2021 12:45:00 AM 2.57 36.626 0.277 7.99 14.71 12.81
3/16/2021 1:00:00 AM 2.56 36.608 0.277 7.98 15.01 12.8
3/16/2021 1:15:00 AM 2.56 36.608 0.278 7.99 14.96 12.79
3/16/2021 1:30:00 AM 2.55 36.59 0.278 7.98 14.88 12.79
3/16/2021 1:45:00 AM 2.52 36.536 0.278 7.99 15.06 12.79
3/16/2021 2:00:00 AM 2.5 36.5 0.279 7.96 15.11 12.79
3/16/2021 2:15:00 AM 2.48 36.464 0.279 7.99 14.73 12.8
3/16/2021 2:30:00 AM 2.46 36.428 0.281 7.99 14.95 12.81
3/16/2021 2:45:00 AM 2.43 36.374 0.28 7.96 14.84 12.81
3/16/2021 3:00:00 AM 2.39 36.302 0.28 7.95 14.26 12.83
3/16/2021 3:15:00 AM 2.35 36.23 0.28 7.97 14.87 12.83
3/16/2021 3:30:00 AM 2.31 36.158 0.28 7.95 14.5 12.85
3/16/2021 3:45:00 AM 2.27 36.086 0.281 7.95 14.52 12.87
3/16/2021 4:00:00 AM 2.23 36.014 0.281 7.94 15.63 12.87
3/16/2021 4:15:00 AM 2.19 35.942 0.281 7.94 14.96 12.89
3/16/2021 4:30:00 AM 2.14 35.852 0.281 7.94 14.79 12.91
3/16/2021 4:45:00 AM 2.1 35.78 0.282 7.93 15.07 12.92
3/16/2021 5:00:00 AM 2.05 35.69 0.282 7.92 14.6 12.93
3/16/2021 5:15:00 AM 2.01 35.618 0.284 7.9 16.03 12.95
3/16/2021 5:30:00 AM 1.96 35.528 0.285 7.86 14.97 12.96
3/16/2021 5:45:00 AM 1.91 35.438 0.285 7.86 14.46 12.99
3/16/2021 6:00:00 AM 1.86 35.348 0.286 7.83 15.24 13
3/16/2021 6:15:00 AM 1.81 35.258 0.286 7.78 15.46 13.02
3/16/2021 6:30:00 AM 1.76 35.168 0.287 7.78 14.79 13.04
3/16/2021 6:45:00 AM 1.72 35.096 0.288 7.76 15.34 13.05
3/16/2021 7:00:00 AM 1.67 35.006 0.288 7.72 14.4 13.09
3/16/2021 7:15:00 AM 1.63 34.934 0.289 7.69 14.82 13.1
3/16/2021 7:30:00 AM 1.58 34.844 0.29 7.65 15.31 13.12
3/16/2021 7:45:00 AM 1.54 34.772 0.291 7.67 14.79 13.14
3/16/2021 8:00:00 AM 1.5 34.7 0.291 7.66 14.73 13.16
3/16/2021 8:15:00 AM 1.47 34.646 0.292 7.62 14.18 13.18
3/16/2021 8:30:00 AM 1.43 34.574 0.293 7.66 14.37 13.21
3/16/2021 8:45:00 AM 1.4 34.52 0.294 7.64 14.18 13.22
3/16/2021 9:00:00 AM 1.37 34.466 0.296 7.65 14.43 13.24
3/16/2021 9:15:00 AM 1.35 34.43 0.296 7.65 14.33 13.27
3/16/2021 9:30:00 AM 1.33 34.394 0.298 7.65 14.17 13.3
3/16/2021 9:45:00 AM 1.32 34.376 0.3 7.64 13.84 13.33
3/16/2021 10:00:00 AM 1.31 34.358 0.299 7.65 14.05 13.37
3/16/2021 10:15:00 AM 1.3 34.34 0.3 7.61 14.24 13.41
3/16/2021 10:30:00 AM 1.3 34.34 0.302 7.63 14.33 13.44
3/16/2021 10:45:00 AM 1.31 34.358 0.302 7.65 14.08 13.48
3/16/2021 11:00:00 AM 1.31 34.358 0.302 7.65 13.85 13.51
3/16/2021 11:15:00 AM 1.31 34.358 0.303 7.67 90.79 13.54
3/16/2021 11:30:00 AM 1.31 34.358 0.304 7.67 13.51 13.56
3/16/2021 11:45:00 AM 1.32 34.376 0.305 7.63 13.48 13.58
3/16/2021 12:00:00 PM 1.33 34.394 0.305 7.67 13.57 13.61
3/16/2021 12:15:00 PM 1.35 34.43 0.305 7.67 12.9 13.64
3/16/2021 12:30:00 PM 1.4 34.52 0.305 7.67 13.47 13.66
3/16/2021 12:45:00 PM 1.43 34.574 0.306 7.69 12.74 13.68
3/16/2021 1:00:00 PM 1.45 34.61 0.305 7.69 12.87 13.72
3/16/2021 1:15:00 PM 1.48 34.664 0.306 7.69 12.77 13.73
3/16/2021 1:30:00 PM 1.5 34.7 0.306 7.66 12.76 13.75
3/16/2021 1:45:00 PM 1.54 34.772 0.307 7.69 13.83 13.76
3/16/2021 2:00:00 PM 1.62 34.916 0.307 7.71 13.23 13.78
3/16/2021 2:15:00 PM 1.68 35.024 0.307 7.73 13.25 13.78
3/16/2021 2:30:00 PM 1.69 35.042 0.307 7.73 12.66 13.79
3/16/2021 2:45:00 PM 1.71 35.078 0.307 7.74 12.85 13.79
3/16/2021 3:00:00 PM 1.73 35.114 0.307 7.72 12.99 13.78
3/16/2021 3:15:00 PM 1.74 35.132 0.307 7.75 13.27 13.79
3/16/2021 3:30:00 PM 1.76 35.168 0.308 7.75 12.67 13.78
3/16/2021 3:45:00 PM 1.78 35.204 0.308 7.74 13.13 13.76
3/16/2021 4:00:00 PM 1.81 35.258 0.308 7.76 13.01 13.77
3/16/2021 4:15:00 PM 1.81 35.258 0.309 7.76 12.71 13.74
3/16/2021 4:30:00 PM 1.83 35.294 0.308 7.74 12.07 13.72
3/16/2021 4:45:00 PM 1.84 35.312 0.308 7.74 12.81 13.71
3/16/2021 5:00:00 PM 1.86 35.348 0.309 7.77 12.12 13.68
3/16/2021 5:15:00 PM 1.88 35.384 0.31 7.77 12.83 13.65
3/16/2021 5:30:00 PM 1.91 35.438 0.309 7.78 12.65 13.65
3/16/2021 5:45:00 PM 1.94 35.492 0.31 7.78 12.26 13.63
3/16/2021 6:00:00 PM 1.95 35.51 0.31 7.77 11.97 13.61
3/16/2021 6:15:00 PM 1.97 35.546 0.31 7.79 12 13.58
3/16/2021 6:30:00 PM 1.98 35.564 0.311 7.76 12.19 13.54
3/16/2021 6:45:00 PM 1.99 35.582 0.311 7.79 11.95 13.51
3/16/2021 7:00:00 PM 2 35.6 0.311 7.78 12.25 13.47
3/16/2021 7:15:00 PM 2 35.6 0.31 7.78 12.36 13.44
3/16/2021 7:30:00 PM 2.01 35.618 0.31 7.78 12.26 13.41
3/16/2021 7:45:00 PM 2.01 35.618 0.309 7.77 12.42 13.38
3/16/2021 8:00:00 PM 2.01 35.618 0.309 7.74 12.46 13.36
3/16/2021 8:15:00 PM 2.02 35.636 0.309 7.75 12.42 13.33
3/16/2021 8:30:00 PM 2.02 35.636 0.308 7.76 11.87 13.3
3/16/2021 8:45:00 PM 2.03 35.654 0.309 7.75 12.08 13.27
3/16/2021 9:00:00 PM 2.03 35.654 0.308 7.75 12.47 13.25
3/16/2021 9:15:00 PM 2.04 35.672 0.307 7.74 12.17 13.23
3/16/2021 9:30:00 PM 2.04 35.672 0.306 7.74 12.04 13.21
3/16/2021 9:45:00 PM 2.05 35.69 0.305 7.75 12.24 13.19
3/16/2021 10:00:00 PM 2.05 35.69 0.305 7.74 12.62 13.17
3/16/2021 10:15:00 PM 2.05 35.69 0.306 7.69 12.26 13.15
3/16/2021 10:30:00 PM 2.06 35.708 0.304 7.71 12.15 13.12
3/16/2021 10:45:00 PM 2.06 35.708 0.305 7.72 11.98 13.12
3/16/2021 11:00:00 PM 2.07 35.726 0.304 7.72 12.05 13.1
3/16/2021 11:15:00 PM 2.07 35.726 0.304 7.72 12.47 13.08
3/16/2021 11:30:00 PM 2.07 35.726 0.303 7.72 12.47 13.09
3/16/2021 11:45:00 PM 2.08 35.744 0.304 7.72 12.22 13.06
3/17/2021 12:00:00 AM 2.09 35.762 0.304 7.68 12.21 13.04
3/17/2021 12:15:00 AM 2.1 35.78 0.304 7.71 12.53 13.03
3/17/2021 12:30:00 AM 2.11 35.798 0.304 7.72 12.28 13.01
3/17/2021 12:45:00 AM 2.11 35.798 0.305 7.72 12.55 13
3/17/2021 1:00:00 AM 2.13 35.834 0.305 7.73 12.39 13
3/17/2021 1:15:00 AM 2.14 35.852 0.306 7.73 12.41 12.98
3/17/2021 1:30:00 AM 2.15 35.87 0.306 7.69 12.27 12.96
3/17/2021 1:45:00 AM 2.16 35.888 0.307 7.72 12.6 12.95
3/17/2021 2:00:00 AM 2.18 35.924 0.308 7.73 12.55 12.95
3/17/2021 2:15:00 AM 2.19 35.942 0.308 7.73 12.21 12.92
3/17/2021 2:30:00 AM 2.2 35.96 0.308 7.73 12.14 12.92
3/17/2021 2:45:00 AM 2.21 35.978 0.308 7.73 12.15 12.91
3/17/2021 3:00:00 AM 2.22 35.996 0.309 7.73 12.19 12.9
3/17/2021 3:15:00 AM 2.22 35.996 0.309 7.73 12.25 12.9
3/17/2021 3:30:00 AM 2.23 36.014 0.309 7.7 12.83 12.89
3/17/2021 3:45:00 AM 2.23 36.014 0.309 7.74 12.16 12.89
3/17/2021 4:00:00 AM 2.23 36.014 0.309 7.74 13.68 12.89
3/17/2021 4:15:00 AM 2.24 36.032 0.309 7.71 11.86 12.88
3/17/2021 4:30:00 AM 2.24 36.032 0.309 7.72 11.92 12.87
3/17/2021 4:45:00 AM 2.24 36.032 0.31 7.74 11.79 12.87
3/17/2021 5:00:00 AM 2.24 36.032 0.31 7.74 11.52 12.86
3/17/2021 5:15:00 AM 2.24 36.032 0.309 7.74 11.83 12.87
3/17/2021 5:30:00 AM 2.24 36.032 0.31 7.73 11.9 12.86
3/17/2021 5:45:00 AM 2.24 36.032 0.31 7.74 11.62 12.86
3/17/2021 6:00:00 AM 2.24 36.032 0.31 7.7 11.49 12.87
3/17/2021 6:15:00 AM 2.24 36.032 0.311 7.74 11.69 12.86
3/17/2021 6:30:00 AM 2.24 36.032 0.311 7.74 12.52 12.86
3/17/2021 6:45:00 AM 2.24 36.032 0.311 7.74 12.19 12.85
3/17/2021 7:00:00 AM 2.24 36.032 0.311 7.74 12.43 12.86
3/17/2021 7:15:00 AM 2.24 36.032 0.312 7.74 12.46 12.85
3/17/2021 7:30:00 AM 2.23 36.014 0.312 7.74 12.26 12.86
3/17/2021 7:45:00 AM 2.24 36.032 0.313 7.72 12.43 12.86
3/17/2021 8:00:00 AM 2.24 36.032 0.312 7.75 11.96 12.86
3/17/2021 8:15:00 AM 2.25 36.05 0.313 7.74 12.8 12.88
3/17/2021 8:30:00 AM 2.26 36.068 0.313 7.74 11.84 12.9
3/17/2021 8:45:00 AM 2.28 36.104 0.313 7.72 12.05 12.92
3/17/2021 9:00:00 AM 2.3 36.14 0.313 7.76 12.03 12.95
3/17/2021 9:15:00 AM 2.33 36.194 0.314 7.76 12.12 12.97
3/17/2021 9:30:00 AM 2.36 36.248 0.314 7.77 11.99 13.01
3/17/2021 9:45:00 AM 2.41 36.338 0.314 7.78 12.05 13.04
3/17/2021 10:00:00 AM 2.46 36.428 0.314 7.79 12.37 13.07
3/17/2021 10:15:00 AM 2.51 36.518 0.315 7.81 12.07 13.1
3/17/2021 10:30:00 AM 2.58 36.644 0.315 7.82 11.76 13.13
3/17/2021 10:45:00 AM 2.67 36.806 0.314 7.85 11.95 13.17
3/17/2021 11:00:00 AM 2.75 36.95 0.314 7.89 11.56 13.21
3/17/2021 11:15:00 AM 2.86 37.148 0.315 7.92 11.64 13.23
3/17/2021 11:30:00 AM 2.98 37.364 0.315 7.97 11.75 13.26
3/17/2021 11:45:00 AM 3.08 37.544 0.315 7.99 12.14 13.29
3/17/2021 12:00:00 PM 3.19 37.742 0.315 7.98 12.18 13.29
3/17/2021 12:15:00 PM 3.34 38.012 0.315 8.04 11.64 13.32
3/17/2021 12:30:00 PM 3.53 38.354 0.315 8.07 11.9 13.34
3/17/2021 12:45:00 PM 3.74 38.732 0.315 8.06 11.48 13.37
3/17/2021 1:00:00 PM 3.91 39.038 0.315 8.13 11.63 13.37
3/17/2021 1:15:00 PM 4.06 39.308 0.315 8.15 12.15 13.38
3/17/2021 1:30:00 PM 4.25 39.65 0.315 8.18 11.79 13.38
3/17/2021 1:45:00 PM 4.46 40.028 0.315 8.21 11.48 13.38
3/17/2021 2:00:00 PM 4.67 40.406 0.315 8.23 11.97 13.38
3/17/2021 2:15:00 PM 4.89 40.802 0.316 8.26 11.69 13.36
3/17/2021 2:30:00 PM 5.12 41.216 0.315 8.28 11.58 13.33
3/17/2021 2:45:00 PM 5.31 41.558 0.315 8.31 11.81 13.31
3/17/2021 3:00:00 PM 5.51 41.918 0.315 8.34 11.82 13.3
3/17/2021 3:15:00 PM 5.7 42.26 0.316 8.32 11.58 13.25
3/17/2021 3:30:00 PM 5.85 42.53 0.316 8.37 11.45 13.21
3/17/2021 3:45:00 PM 6.01 42.818 0.315 8.39 12.21 13.2
3/17/2021 4:00:00 PM 6.17 43.106 0.316 8.39 11.39 13.14
3/17/2021 4:15:00 PM 6.3 43.34 0.316 8.42 11.4 13.09
3/17/2021 4:30:00 PM 6.43 43.574 0.316 8.43 11.37 13.06
3/17/2021 4:45:00 PM 6.54 43.772 0.315 8.45 11.56 13.02
3/17/2021 5:00:00 PM 6.62 43.916 0.316 8.46 11.43 12.96
3/17/2021 5:15:00 PM 6.68 44.024 0.316 8.44 11.26 12.91
3/17/2021 5:30:00 PM 6.72 44.096 0.316 8.48 11.61 12.86
3/17/2021 5:45:00 PM 6.75 44.15 0.316 8.49 11.17 12.8
3/17/2021 6:00:00 PM 6.77 44.186 0.316 8.5 11.48 12.73
3/17/2021 6:15:00 PM 6.78 44.204 0.316 8.49 11.44 12.67
3/17/2021 6:30:00 PM 6.78 44.204 0.317 8.49 11.17 12.6
3/17/2021 6:45:00 PM 6.77 44.186 0.316 8.5 11.25 12.53
3/17/2021 7:00:00 PM 6.76 44.168 0.317 8.48 11.25 12.46
3/17/2021 7:15:00 PM 6.74 44.132 0.317 8.49 11.25 12.37
3/17/2021 7:30:00 PM 6.71 44.078 0.317 8.49 11.5 12.29
3/17/2021 7:45:00 PM 6.68 44.024 0.316 8.47 11.66 12.24
3/17/2021 8:00:00 PM 6.64 43.952 0.316 8.48 11.51 12.17
3/17/2021 8:15:00 PM 6.61 43.898 0.317 8.48 11.25 12.1
3/17/2021 8:30:00 PM 6.57 43.826 0.316 8.47 11.28 12.04
3/17/2021 8:45:00 PM 6.53 43.754 0.317 8.47 11.43 11.96
3/17/2021 9:00:00 PM 6.49 43.682 0.317 8.46 11.52 11.9
3/17/2021 9:15:00 PM 6.44 43.592 0.318 8.46 11.67 11.85
3/17/2021 9:30:00 PM 6.39 43.502 0.317 8.45 11.52 11.81
3/17/2021 9:45:00 PM 6.34 43.412 0.317 8.42 12 11.77
3/17/2021 10:00:00 PM 6.3 43.34 0.317 8.43 11.59 11.74
3/17/2021 10:15:00 PM 6.25 43.25 0.316 8.44 11.58 11.71
3/17/2021 10:30:00 PM 6.21 43.178 0.316 8.43 11.75 11.68
3/17/2021 10:45:00 PM 6.16 43.088 0.315 8.43 11.78 11.67
3/17/2021 11:00:00 PM 6.12 43.016 0.315 8.42 11.96 11.64
3/17/2021 11:15:00 PM 6.07 42.926 0.315 8.41 11.84 11.61
3/17/2021 11:30:00 PM 6.03 42.854 0.316 8.41 11.83 11.59
3/17/2021 11:45:00 PM 5.99 42.782 0.314 8.41 11.89 11.58
3/18/2021 12:00:00 AM 5.94 42.692 0.314 8.4 11.61 11.56
3/18/2021 12:15:00 AM 5.9 42.62 0.314 8.39 11.47 11.55
3/18/2021 12:30:00 AM 5.85 42.53 0.313 8.38 11.95 11.54
3/18/2021 12:45:00 AM 5.8 42.44 0.313 8.39 11.76 11.54
3/18/2021 1:00:00 AM 5.76 42.368 0.312 8.38 11.77 11.54
3/18/2021 1:15:00 AM 5.71 42.278 0.312 8.38 11.81 11.53
3/18/2021 1:30:00 AM 5.68 42.224 0.312 8.37 11.92 11.53
3/18/2021 1:45:00 AM 5.64 42.152 0.312 8.37 12.15 11.52
3/18/2021 2:00:00 AM 5.61 42.098 0.312 8.33 12.16 11.53
3/18/2021 2:15:00 AM 5.57 42.026 0.311 8.35 12.23 11.54
3/18/2021 2:30:00 AM 5.54 41.972 0.31 8.36 12.34 11.53
3/18/2021 2:45:00 AM 5.5 41.9 0.311 8.35 12.42 11.53
3/18/2021 3:00:00 AM 5.47 41.846 0.311 8.32 12.38 11.54
3/18/2021 3:15:00 AM 5.44 41.792 0.31 8.33 12.29 11.55
3/18/2021 3:30:00 AM 5.41 41.738 0.309 8.34 12.82 11.54
3/18/2021 3:45:00 AM 5.37 41.666 0.308 8.34 12.68 11.56
3/18/2021 4:00:00 AM 5.34 41.612 0.308 8.31 12.52 11.57
3/18/2021 4:15:00 AM 5.31 41.558 0.308 8.33 12.87 11.58
3/18/2021 4:30:00 AM 5.27 41.486 0.307 8.33 12.58 11.58
3/18/2021 4:45:00 AM 5.24 41.432 0.307 8.29 12.94 11.58
3/18/2021 5:00:00 AM 5.21 41.378 0.307 8.33 13.28 11.59
3/18/2021 5:15:00 AM 5.19 41.342 0.306 8.33 13.2 11.63
3/18/2021 5:30:00 AM 5.16 41.288 0.307 8.31 13.41 11.61
3/18/2021 5:45:00 AM 5.13 41.234 0.307 8.3 13.36 11.62
3/18/2021 6:00:00 AM 5.1 41.18 0.306 8.3 13.58 11.62
3/18/2021 6:15:00 AM 5.07 41.126 0.307 8.31 13.63 11.64
3/18/2021 6:30:00 AM 5.04 41.072 0.307 8.31 13.98 11.66
3/18/2021 6:45:00 AM 5.01 41.018 0.306 8.3 14 11.68
3/18/2021 7:00:00 AM 4.98 40.964 0.307 8.31 14.34 11.68
3/18/2021 7:15:00 AM 4.94 40.892 0.308 8.31 14.22 11.69
3/18/2021 7:30:00 AM 4.9 40.82 0.307 8.31 17.77 11.73
3/18/2021 7:45:00 AM 4.86 40.748 0.306 8.29 15.39 11.77
3/18/2021 8:00:00 AM 4.82 40.676 0.307 8.31 17.37 11.78
3/18/2021 8:15:00 AM 4.78 40.604 0.307 8.31 15.4 11.8
3/18/2021 8:30:00 AM 4.74 40.532 0.307 8.29 15.42 11.82
3/18/2021 8:45:00 AM 4.7 40.46 0.306 8.31 15.66 11.85
3/18/2021 9:00:00 AM 4.66 40.388 0.307 8.29 15.08 11.87
3/18/2021 9:15:00 AM 4.62 40.316 0.306 8.31 14.65 11.91
3/18/2021 9:30:00 AM 4.58 40.244 0.307 8.31 13.75 11.95
3/18/2021 9:45:00 AM 4.55 40.19 0.308 8.31 14.55 11.96
3/18/2021 10:00:00 AM 4.51 40.118 0.307 8.32 14.28 12.02
3/18/2021 10:15:00 AM 4.48 40.064 0.306 8.32 14.16 12.06
3/18/2021 10:30:00 AM 4.44 39.992 0.306 8.31 13.81 12.08
3/18/2021 10:45:00 AM 4.41 39.938 0.308 8.32 15.67 12.14
3/18/2021 11:00:00 AM 4.39 39.902 0.307 8.31 13.55 12.18
3/18/2021 11:15:00 AM 4.36 39.848 0.306 8.32 13.8 12.22
3/18/2021 11:30:00 AM 4.34 39.812 0.306 8.32 13.98 12.25
3/18/2021 11:45:00 AM 4.31 39.758 0.305 8.33 13.49 12.29
3/18/2021 12:00:00 PM 4.28 39.704 0.305 8.32 14.45 12.31
3/18/2021 12:15:00 PM 4.26 39.668 0.305 8.33 15.51 12.35
3/18/2021 12:30:00 PM 4.24 39.632 0.305 8.32 18.08 12.39
3/18/2021 12:45:00 PM 4.23 39.614 0.305 8.34 12.73 12.43
3/18/2021 1:00:00 PM 4.23 39.614 0.304 8.34 16.93 12.46
3/18/2021 1:15:00 PM 4.22 39.596 0.304 8.34 12.46 12.52
3/18/2021 1:30:00 PM 4.22 39.596 0.307 8.35 12.58 12.54
3/18/2021 1:45:00 PM 4.22 39.596 0.306 8.36 12.71 12.6
3/18/2021 2:00:00 PM 4.22 39.596 0.307 8.36 12.9 12.62
3/18/2021 2:15:00 PM 4.21 39.578 0.308 8.36 14.03 12.64
3/18/2021 2:30:00 PM 4.22 39.596 0.307 8.37 13.63 12.67
3/18/2021 2:45:00 PM 4.23 39.614 0.307 8.37 15.14 12.69
3/18/2021 3:00:00 PM 4.23 39.614 0.305 8.36 15.18 12.71
3/18/2021 3:15:00 PM 4.25 39.65 0.303 8.36 15.84 12.73
3/18/2021 3:30:00 PM 4.26 39.668 0.303 8.38 16.29 12.74
3/18/2021 3:45:00 PM 4.27 39.686 0.305 8.38 16.04 12.74
3/18/2021 4:00:00 PM 4.27 39.686 0.31 8.38 16.92 12.73
3/18/2021 4:15:00 PM 4.28 39.704 0.315 8.38 23.53 12.7
3/18/2021 4:30:00 PM 4.27 39.686 0.32 8.38 20.7 12.68
3/18/2021 4:45:00 PM 4.26 39.668 0.321 8.38 23.05 12.7
3/18/2021 5:00:00 PM 4.24 39.632 0.318 8.37 24.17 12.69
3/18/2021 5:15:00 PM 4.2 39.56 0.312 8.35 21.99 12.71
3/18/2021 5:30:00 PM 4.16 39.488 0.308 8.34 23.58 12.69
3/18/2021 5:45:00 PM 4.12 39.416 0.311 8.35 24.53 12.67
3/18/2021 6:00:00 PM 4.06 39.308 0.333 8.37 29.53 12.65
3/18/2021 6:15:00 PM 4.02 39.236 0.364 8.36 38.4 12.62
3/18/2021 6:30:00 PM 3.97 39.146 0.386 8.33 37.89 12.6
3/18/2021 6:45:00 PM 3.92 39.056 0.39 8.28 48.77 12.59
3/18/2021 7:00:00 PM 3.86 38.948 0.377 8.25 49 12.6
3/18/2021 7:15:00 PM 3.8 38.84 0.355 8.23 68.37 12.62
3/18/2021 7:30:00 PM 3.74 38.732 0.335 8.21 89 12.65
3/18/2021 7:45:00 PM 3.71 38.678 0.322 8.19 91.6 12.65
3/18/2021 8:00:00 PM 3.68 38.624 0.311 8.17 73.23 12.67
3/18/2021 8:15:00 PM 3.65 38.57 0.299 8.15 73.33 12.69
3/18/2021 8:30:00 PM 3.61 38.498 0.282 8.12 93.62 12.73
3/18/2021 8:45:00 PM 3.54 38.372 0.264 8.08 136.64 12.76
3/18/2021 9:00:00 PM 3.47 38.246 0.252 8.02 99.51 12.8
3/18/2021 9:15:00 PM 3.4 38.12 0.249 8 123.57 12.83
3/18/2021 9:30:00 PM 3.33 37.994 0.25 8.01 124.52 12.86
3/18/2021 9:45:00 PM 3.26 37.868 0.251 7.98 150.82 12.88
3/18/2021 10:00:00 PM 3.19 37.742 0.251 7.96 100.88 12.91
3/18/2021 10:15:00 PM 3.13 37.634 0.252 7.91 132.9 12.95
3/18/2021 10:30:00 PM 3.06 37.508 0.251 7.94 172.76 12.98
3/18/2021 10:45:00 PM 3 37.4 0.25 7.92 115.18 13
3/18/2021 11:00:00 PM 2.93 37.274 0.249 7.91 111.64 13.02
3/18/2021 11:15:00 PM 2.87 37.166 0.248 7.88 100.27 13.05
3/18/2021 11:30:00 PM 2.81 37.058 0.247 7.87 119.44 13.07
3/18/2021 11:45:00 PM 2.75 36.95 0.248 7.86 106.13 13.08
3/19/2021 12:00:00 AM 2.7 36.86 0.249 7.85 103.16 13.1
3/19/2021 12:15:00 AM 2.65 36.77 0.251 7.83 128.73 13.11
3/19/2021 12:30:00 AM 2.6 36.68 0.254 7.85 95.73 13.11
3/19/2021 12:45:00 AM 2.55 36.59 0.256 7.84 74.25 13.12
3/19/2021 1:00:00 AM 2.5 36.5 0.257 7.87 81.04 13.14
3/19/2021 1:15:00 AM 2.46 36.428 0.233 7.84 89.39 13.15
3/19/2021 1:30:00 AM 2.42 36.356 0.259 7.85 63.8 13.16
3/19/2021 1:45:00 AM 2.38 36.284 0.259 7.85 72.28 13.17
3/19/2021 2:00:00 AM 2.33 36.194 0.259 7.85 69.69 13.19
3/19/2021 2:15:00 AM 2.29 36.122 0.258 7.84 85.94 13.2
3/19/2021 2:30:00 AM 2.23 36.014 0.258 7.83 68.24 13.21
3/19/2021 2:45:00 AM 2.17 35.906 0.257 7.82 65.29 13.23
3/19/2021 3:00:00 AM 2.12 35.816 0.256 7.81 83.95 13.24
3/19/2021 3:15:00 AM 2.06 35.708 0.256 7.8 48.12 13.26
3/19/2021 3:30:00 AM 2.01 35.618 0.256 7.82 52.2 13.28
3/19/2021 3:45:00 AM 1.95 35.51 0.256 7.79 69.48 13.29
3/19/2021 4:00:00 AM 1.89 35.402 0.256 7.79 55.58 13.3
3/19/2021 4:15:00 AM 1.84 35.312 0.255 7.78 63.72 13.32
3/19/2021 4:30:00 AM 1.78 35.204 0.255 7.79 50.74 13.34
3/19/2021 4:45:00 AM 1.72 35.096 0.255 7.76 51.86 13.35
3/19/2021 5:00:00 AM 1.66 34.988 0.256 7.76 38.67 13.38
3/19/2021 5:15:00 AM 1.6 34.88 0.256 7.76 41.6 13.39
3/19/2021 5:30:00 AM 1.55 34.79 0.256 7.76 39.64 13.41
3/19/2021 5:45:00 AM 1.49 34.682 0.256 7.75 41.84 13.43
3/19/2021 6:00:00 AM 1.42 34.556 0.256 7.74 48.89 13.45
3/19/2021 6:15:00 AM 1.36 34.448 0.257 7.74 47.29 13.47
3/19/2021 6:30:00 AM 1.3 34.34 0.257 7.69 36.07 13.48
3/19/2021 6:45:00 AM 1.24 34.232 0.257 7.7 37.39 13.51
3/19/2021 7:00:00 AM 1.19 34.142 0.257 7.69 46.37 13.53
3/19/2021 7:15:00 AM 1.13 34.034 0.258 7.65 38.54 13.55
3/19/2021 7:30:00 AM 1.08 33.944 0.259 7.65 41.07 13.57
3/19/2021 7:45:00 AM 1.03 33.854 0.259 7.64 35.45 13.59
3/19/2021 8:00:00 AM 0.97 33.746 0.259 7.63 32.59 13.61
3/19/2021 8:15:00 AM 0.92 33.656 0.26 7.62 35.05 13.63
3/19/2021 8:30:00 AM 0.87 33.566 0.26 7.62 38.07 13.66
3/19/2021 8:45:00 AM 0.82 33.476 0.261 7.51 37.29 13.68
3/19/2021 9:00:00 AM 0.78 33.404 0.261 7.49 35.03 13.69
3/19/2021 9:15:00 AM 0.74 33.332 0.263 7.48 31.06 13.71
3/19/2021 9:30:00 AM 0.7 33.26 0.264 7.46 32.82 13.73
3/19/2021 9:45:00 AM 0.67 33.206 0.264 7.43 40.88 13.76
3/19/2021 10:00:00 AM 0.65 33.17 0.265 7.45 32.21 13.78
3/19/2021 10:15:00 AM 0.64 33.152 0.266 7.44 31.48 13.8
3/19/2021 10:30:00 AM 0.64 33.152 0.267 7.45 30.26 13.84
3/19/2021 10:45:00 AM 0.69 33.242 0.268 7.43 31.62 13.87
3/19/2021 11:00:00 AM 0.77 33.386 0.269 7.47 31.46 13.9
3/19/2021 11:15:00 AM 0.88 33.584 0.269 7.45 30 13.93
3/19/2021 11:30:00 AM 1 33.8 0.269 7.49 29.32 13.96
3/19/2021 11:45:00 AM 1.13 34.034 0.27 7.5 29.02 13.97
3/19/2021 12:00:00 PM 1.28 34.304 0.271 7.52 28.98 13.98
3/19/2021 12:15:00 PM 1.44 34.592 0.271 7.53 26.31 13.99
3/19/2021 12:30:00 PM 1.61 34.898 0.272 7.56 27.55 14
3/19/2021 12:45:00 PM 1.78 35.204 0.273 7.57 28.52 14
3/19/2021 1:00:00 PM 1.96 35.528 0.273 7.62 25.68 13.99
3/19/2021 1:15:00 PM 2.15 35.87 0.273 7.64 25.82 14
3/19/2021 1:30:00 PM 2.34 36.212 0.274 7.67 26.42 13.99
3/19/2021 1:45:00 PM 2.52 36.536 0.275 7.71 25.75 13.97
3/19/2021 2:00:00 PM 2.7 36.86 0.275 7.8 26.77 13.96
3/19/2021 2:15:00 PM 2.88 37.184 0.276 7.88 24.05 13.94
3/19/2021 2:30:00 PM 3.05 37.49 0.276 7.92 24.59 13.92
3/19/2021 2:45:00 PM 3.2 37.76 0.276 7.97 25 13.9
3/19/2021 3:00:00 PM 3.35 38.03 0.277 8.01 25.04 13.87
3/19/2021 3:15:00 PM 3.5 38.3 0.277 8.04 24.07 13.84
3/19/2021 3:30:00 PM 3.64 38.552 0.278 8.07 24.03 13.8
3/19/2021 3:45:00 PM 3.77 38.786 0.278 8.09 24.61 13.75
3/19/2021 4:00:00 PM 3.89 39.002 0.278 8.12 24.99 13.71
3/19/2021 4:15:00 PM 4 39.2 0.279 8.14 24.15 13.68
3/19/2021 4:30:00 PM 4.09 39.362 0.28 8.17 24.21 13.64
3/19/2021 4:45:00 PM 4.17 39.506 0.279 8.15 23.98 13.59
3/19/2021 5:00:00 PM 4.24 39.632 0.279 8.19 24.3 13.54
3/19/2021 5:15:00 PM 4.3 39.74 0.279 8.2 23.68 13.49
3/19/2021 5:30:00 PM 4.35 39.83 0.279 8.21 23.87 13.44
3/19/2021 5:45:00 PM 4.38 39.884 0.279 8.22 23.04 13.39
3/19/2021 6:00:00 PM 4.4 39.92 0.278 8.22 21.49 13.34
3/19/2021 6:15:00 PM 4.4 39.92 0.278 8.2 22.42 13.28
3/19/2021 6:30:00 PM 4.4 39.92 0.278 8.22 22.67 13.24
3/19/2021 6:45:00 PM 4.38 39.884 0.277 8.22 22.67 13.19
3/19/2021 7:00:00 PM 4.36 39.848 0.276 8.22 22.38 13.14
3/19/2021 7:15:00 PM 4.33 39.794 0.276 8.21 21.84 13.09
3/19/2021 7:30:00 PM 4.3 39.74 0.275 8.21 22.27 13.05
3/19/2021 7:45:00 PM 4.27 39.686 0.275 8.19 21.82 12.99
3/19/2021 8:00:00 PM 4.24 39.632 0.274 8.2 21.69 12.95
3/19/2021 8:15:00 PM 4.21 39.578 0.273 8.18 21.08 12.91
3/19/2021 8:30:00 PM 4.19 39.542 0.273 8.19 21.34 12.87
3/19/2021 8:45:00 PM 4.16 39.488 0.274 8.18 21.89 12.82
3/19/2021 9:00:00 PM 4.14 39.452 0.274 8.18 22.12 12.78
3/19/2021 9:15:00 PM 4.11 39.398 0.274 8.18 22.63 12.75
3/19/2021 9:30:00 PM 4.08 39.344 0.276 8.14 22.1 12.71
3/19/2021 9:45:00 PM 4.05 39.29 0.276 8.15 22.65 12.69
3/19/2021 10:00:00 PM 4.01 39.218 0.276 8.16 22.5 12.66
3/19/2021 10:15:00 PM 3.97 39.146 0.276 8.17 20.48 12.65
3/19/2021 10:30:00 PM 3.93 39.074 0.276 8.16 21.83 12.64
3/19/2021 10:45:00 PM 3.89 39.002 0.276 8.14 21.77 12.61
3/19/2021 11:00:00 PM 3.83 38.894 0.276 8.16 22.53 12.61
3/19/2021 11:15:00 PM 3.78 38.804 0.276 8.15 22.57 12.62
3/19/2021 11:30:00 PM 3.72 38.696 0.276 8.12 20.35 12.62
3/19/2021 11:45:00 PM 3.67 38.606 0.276 8.13 22.85 12.63
3/20/2021 12:00:00 AM 3.6 38.48 0.276 8.14 23.1 12.63
3/20/2021 12:15:00 AM 3.54 38.372 0.277 8.13 21.93 12.65
3/20/2021 12:30:00 AM 3.47 38.246 0.277 8.13 22.52 12.66
3/20/2021 12:45:00 AM 3.39 38.102 0.277 8.12 22.27 12.69
3/20/2021 1:00:00 AM 3.32 37.976 0.277 8.12 22.87 12.7
3/20/2021 1:15:00 AM 3.23 37.814 0.277 8.12 22.69 12.73
3/20/2021 1:30:00 AM 3.15 37.67 0.278 8.11 22.57 12.75
3/20/2021 1:45:00 AM 3.05 37.49 0.278 8.11 21.63 12.78
3/20/2021 2:00:00 AM 2.96 37.328 0.279 8.1 22.34 12.83
3/20/2021 2:15:00 AM 2.86 37.148 0.279 8.09 22.13 12.86
3/20/2021 2:30:00 AM 2.76 36.968 0.279 8.09 22.1 12.89
3/20/2021 2:45:00 AM 2.65 36.77 0.279 8.09 22.12 12.92
3/20/2021 3:00:00 AM 2.55 36.59 0.28 8.07 20.41 12.97
3/20/2021 3:15:00 AM 2.45 36.41 0.28 8.07 18.7 13.01
3/20/2021 3:30:00 AM 2.35 36.23 0.28 8.07 20.89 13.05
3/20/2021 3:45:00 AM 2.24 36.032 0.281 8.07 20.57 13.1
3/20/2021 4:00:00 AM 2.14 35.852 0.281 8.05 20.88 13.13
3/20/2021 4:15:00 AM 2.03 35.654 0.282 8.06 21.52 13.17
3/20/2021 4:30:00 AM 1.93 35.474 0.282 8.04 20.98 13.2
3/20/2021 4:45:00 AM 1.83 35.294 0.282 8.03 21.23 13.25
3/20/2021 5:00:00 AM 1.74 35.132 0.282 8.02 20.74 13.29
3/20/2021 5:15:00 AM 1.65 34.97 0.283 8 20.33 13.32
3/20/2021 5:30:00 AM 1.56 34.808 0.283 8 19.91 13.37
3/20/2021 5:45:00 AM 1.46 34.628 0.283 7.98 21.26 13.4
3/20/2021 6:00:00 AM 1.38 34.484 0.284 7.97 20.49 13.42
3/20/2021 6:15:00 AM 1.3 34.34 0.284 7.9 19.55 13.47
3/20/2021 6:30:00 AM 1.22 34.196 0.285 7.89 19.98 13.49
3/20/2021 6:45:00 AM 1.14 34.052 0.285 7.9 20.4 13.52
3/20/2021 7:00:00 AM 1.07 33.926 0.286 7.88 20.6 13.56
3/20/2021 7:15:00 AM 0.99 33.782 0.286 7.84 20.98 13.59
3/20/2021 7:30:00 AM 0.93 33.674 0.287 7.81 20.4 13.62
3/20/2021 7:45:00 AM 0.87 33.566 0.287 7.82 20.39 13.64
3/20/2021 8:00:00 AM 0.81 33.458 0.288 7.77 20.2 13.67
3/20/2021 8:15:00 AM 0.76 33.368 0.287 7.77 19.91 13.71
3/20/2021 8:30:00 AM 0.71 33.278 0.288 7.68 18.97 13.74
3/20/2021 8:45:00 AM 0.67 33.206 0.288 7.63 19.01 13.76
3/20/2021 9:00:00 AM 0.63 33.134 0.289 7.61 19.02 13.79
3/20/2021 9:15:00 AM 0.6 33.08 0.288 7.6 163.03 13.82
3/20/2021 9:30:00 AM 0.57 33.026 0.29 7.61 18.9 13.86
3/20/2021 9:45:00 AM 0.56 33.008 0.291 7.6 18.85 13.89
3/20/2021 10:00:00 AM 0.57 33.026 0.29 7.6 18.94 13.92
3/20/2021 10:15:00 AM 0.59 33.062 0.291 7.57 18.63 13.94
3/20/2021 10:30:00 AM 0.62 33.116 0.291 7.6 18.27 13.98
3/20/2021 10:45:00 AM 0.64 33.152 0.291 7.6 18.93 14.02
3/20/2021 11:00:00 AM 0.74 33.332 0.292 7.6 18.52 14.05
3/20/2021 11:15:00 AM 0.89 33.602 0.294 7.59 18.4 14.08
3/20/2021 11:30:00 AM 1.06 33.908 0.293 7.63 18.9 14.11
3/20/2021 11:45:00 AM 1.26 34.268 0.293 7.66 18.93 14.12
3/20/2021 12:00:00 PM 1.48 34.664 0.294 7.69 18.49 14.15
3/20/2021 12:15:00 PM 1.7 35.06 0.294 7.67 18.44 14.14
3/20/2021 12:30:00 PM 1.95 35.51 0.293 7.73 18.46 14.14
3/20/2021 12:45:00 PM 2.21 35.978 0.294 7.78 18.64 14.14
3/20/2021 1:00:00 PM 2.47 36.446 0.293 7.83 18.76 14.13
3/20/2021 1:15:00 PM 2.73 36.914 0.293 7.93 18.39 14.12
3/20/2021 1:30:00 PM 3 37.4 0.294 8.02 18.08 14.1
3/20/2021 1:45:00 PM 3.26 37.868 0.295 8.09 17.77 14.06
3/20/2021 2:00:00 PM 3.51 38.318 0.297 8.15 17.52 14.04
3/20/2021 2:15:00 PM 3.77 38.786 0.298 8.16 17.76 14
3/20/2021 2:30:00 PM 4.01 39.218 0.3 8.22 17.98 13.94
3/20/2021 2:45:00 PM 4.24 39.632 0.301 8.24 17.98 13.9
3/20/2021 3:00:00 PM 4.46 40.028 0.302 8.29 17.46 13.86
3/20/2021 3:15:00 PM 4.67 40.406 0.301 8.31 17.28 13.81
3/20/2021 3:30:00 PM 4.85 40.73 0.301 8.32 18.05 13.77
3/20/2021 3:45:00 PM 5.02 41.036 0.298 8.3 16.7 13.74
3/20/2021 4:00:00 PM 5.16 41.288 0.295 8.33 16.79 13.69
3/20/2021 4:15:00 PM 5.27 41.486 0.293 8.36 16.69 13.64
3/20/2021 4:30:00 PM 5.37 41.666 0.292 8.36 17.01 13.58
3/20/2021 4:45:00 PM 5.47 41.846 0.292 8.38 17.11 13.53
3/20/2021 5:00:00 PM 5.56 42.008 0.293 8.39 17.07 13.47
3/20/2021 5:15:00 PM 5.64 42.152 0.294 8.4 16.84 13.4
3/20/2021 5:30:00 PM 5.71 42.278 0.295 8.4 17.13 13.32
3/20/2021 5:45:00 PM 5.76 42.368 0.295 8.43 17.25 13.25
3/20/2021 6:00:00 PM 5.81 42.458 0.295 8.43 16.67 13.17
3/20/2021 6:15:00 PM 5.85 42.53 0.293 8.43 16.46 13.1
3/20/2021 6:30:00 PM 5.86 42.548 0.291 8.44 25.7 12.98
3/20/2021 6:45:00 PM 5.87 42.566 0.289 8.43 20.12 12.96
3/20/2021 7:00:00 PM 5.86 42.548 0.288 8.43 19.09 12.89
3/20/2021 7:15:00 PM 5.85 42.53 0.287 8.41 19.62 12.8
3/20/2021 7:30:00 PM 5.83 42.494 0.286 8.4 19.53 12.73
3/20/2021 7:45:00 PM 5.82 42.476 0.284 8.41 19.29 12.66
3/20/2021 8:00:00 PM 5.8 42.44 0.284 8.4 19.34 12.59
3/20/2021 8:15:00 PM 5.79 42.422 0.285 8.4 19.63 12.53
3/20/2021 8:30:00 PM 5.77 42.386 0.284 8.37 19.62 12.46
3/20/2021 8:45:00 PM 5.76 42.368 0.285 8.39 19.46 12.4
3/20/2021 9:00:00 PM 5.76 42.368 0.285 8.38 19.3 12.33
3/20/2021 9:15:00 PM 5.75 42.35 0.286 8.39 19.8 12.27
3/20/2021 9:30:00 PM 5.74 42.332 0.287 8.39 19.4 12.23
3/20/2021 9:45:00 PM 5.73 42.314 0.286 8.35 19.72 12.18
3/20/2021 10:00:00 PM 5.71 42.278 0.287 8.39 19.72 12.14
3/20/2021 10:15:00 PM 5.68 42.224 0.287 8.38 19.42 12.11
3/20/2021 10:30:00 PM 5.65 42.17 0.287 8.38 19.31 12.07
3/20/2021 10:45:00 PM 5.62 42.116 0.288 8.37 19.93 12.05
3/20/2021 11:00:00 PM 5.58 42.044 0.288 8.37 20.25 12.03
3/20/2021 11:15:00 PM 5.53 41.954 0.288 8.36 19.73 12.01
3/20/2021 11:30:00 PM 5.48 41.864 0.288 8.35 20.87 12
3/20/2021 11:45:00 PM 5.43 41.774 0.287 8.34 20.57 12
3/21/2021 12:00:00 AM 5.37 41.666 0.287 8.36 19.98 11.99
3/21/2021 12:15:00 AM 5.31 41.558 0.287 8.35 20.13 11.99
3/21/2021 12:30:00 AM 5.25 41.45 0.286 8.35 20.25 12
3/21/2021 12:45:00 AM 5.2 41.36 0.286 8.35 20.94 11.99
3/21/2021 1:00:00 AM 5.14 41.252 0.286 8.31 20.37 12
3/21/2021 1:15:00 AM 5.08 41.144 0.286 8.32 20.58 12
3/21/2021 1:30:00 AM 5.02 41.036 0.286 8.34 21.44 12.02
3/21/2021 1:45:00 AM 4.96 40.928 0.287 8.33 20.93 12.03
3/21/2021 2:00:00 AM 4.89 40.802 0.287 8.32 20.73 12.03
3/21/2021 2:15:00 AM 4.82 40.676 0.287 8.33 20.46 12.06
3/21/2021 2:30:00 AM 4.75 40.55 0.286 8.32 21.04 12.06
3/21/2021 2:45:00 AM 4.68 40.424 0.288 8.32 21.44 12.08
3/21/2021 3:00:00 AM 4.6 40.28 0.287 8.32 20.73 12.11
3/21/2021 3:15:00 AM 4.51 40.118 0.287 8.29 21.69 12.13
3/21/2021 3:30:00 AM 4.43 39.974 0.287 8.3 21.16 12.16
3/21/2021 3:45:00 AM 4.34 39.812 0.287 8.32 21.52 12.2
3/21/2021 4:00:00 AM 4.25 39.65 0.288 8.32 20.75 12.23
3/21/2021 4:15:00 AM 4.16 39.488 0.288 8.31 21.28 12.27
3/21/2021 4:30:00 AM 4.06 39.308 0.289 8.31 22.12 12.31
3/21/2021 4:45:00 AM 3.95 39.11 0.288 8.31 21.92 12.35
3/21/2021 5:00:00 AM 3.84 38.912 0.289 8.3 21.81 12.37
3/21/2021 5:15:00 AM 3.74 38.732 0.289 8.25 22.52 12.42
3/21/2021 5:30:00 AM 3.62 38.516 0.289 8.29 27.21 12.45
3/21/2021 5:45:00 AM 3.51 38.318 0.291 8.26 19.86 12.51
3/21/2021 6:00:00 AM 3.4 38.12 0.291 8.27 20.34 12.54
3/21/2021 6:15:00 AM 3.28 37.904 0.291 8.25 19.23 12.58
3/21/2021 6:30:00 AM 3.17 37.706 0.291 8.2 19.72 12.61
3/21/2021 6:45:00 AM 3.05 37.49 0.291 8.22 19.57 12.67
3/21/2021 7:00:00 AM 2.95 37.31 0.291 8.16 19.78 12.71
3/21/2021 7:15:00 AM 2.83 37.094 0.293 8.2 19.56 12.77
3/21/2021 7:30:00 AM 2.73 36.914 0.292 8.17 20.31 12.81
3/21/2021 7:45:00 AM 2.63 36.734 0.292 8.17 19.18 12.84
3/21/2021 8:00:00 AM 2.53 36.554 0.293 8.16 20.33 12.9
3/21/2021 8:15:00 AM 2.44 36.392 0.294 8.14 19.75 12.95
3/21/2021 8:30:00 AM 2.36 36.248 0.294 8.11 19.79 13
3/21/2021 8:45:00 AM 2.27 36.086 0.295 8.14 19.05 13.05
3/21/2021 9:00:00 AM 2.19 35.942 0.295 8.13 18.92 13.11
3/21/2021 9:15:00 AM 2.13 35.834 0.296 8.13 18.69 13.15
3/21/2021 9:30:00 AM 2.06 35.708 0.295 8.13 18.25 13.21
3/21/2021 9:45:00 AM 2.02 35.636 0.295 8.1 18.15 13.27
3/21/2021 10:00:00 AM 2 35.6 0.295 8.12 18.15 13.31
3/21/2021 10:15:00 AM 2 35.6 0.297 8.11 18.39 13.36
3/21/2021 10:30:00 AM 2 35.6 0.296 8.13 17.84 13.41
3/21/2021 10:45:00 AM 2 35.6 0.296 8.11 18.01 13.47
3/21/2021 11:00:00 AM 2.06 35.708 0.297 8.14 17.81 13.51
3/21/2021 11:15:00 AM 2.17 35.906 0.297 8.11 17.57 13.58
3/21/2021 11:30:00 AM 2.32 36.176 0.297 8.14 17.45 13.63
3/21/2021 11:45:00 AM 2.49 36.482 0.297 8.17 17.34 13.67
3/21/2021 12:00:00 PM 2.69 36.842 0.298 8.16 17.16 13.71
3/21/2021 12:15:00 PM 2.9 37.22 0.298 8.19 16.99 13.75
3/21/2021 12:30:00 PM 3.14 37.652 0.298 8.22 17.04 13.76
3/21/2021 12:45:00 PM 3.39 38.102 0.297 8.21 17.03 13.78
3/21/2021 1:00:00 PM 3.66 38.588 0.299 8.25 16.88 13.79
3/21/2021 1:15:00 PM 3.92 39.056 0.299 8.29 16.7 13.78
3/21/2021 1:30:00 PM 4.19 39.542 0.299 8.31 16.71 13.77
3/21/2021 1:45:00 PM 4.46 40.028 0.299 8.36 16.71 13.76
3/21/2021 2:00:00 PM 4.74 40.532 0.297 8.39 16.66 13.74
3/21/2021 2:15:00 PM 4.98 40.964 0.298 8.38 16.37 13.71
3/21/2021 2:30:00 PM 5.23 41.414 0.297 8.43 16.82 13.68
3/21/2021 2:45:00 PM 5.45 41.81 0.299 8.46 16.43 13.67
3/21/2021 3:00:00 PM 5.67 42.206 0.297 8.45 16.39 13.61
3/21/2021 3:15:00 PM 5.87 42.566 0.298 8.5 15.98 13.57
3/21/2021 3:30:00 PM 6.05 42.89 0.297 8.52 16.58 13.56
3/21/2021 3:45:00 PM 6.21 43.178 0.297 8.51 16.18 13.49
3/21/2021 4:00:00 PM 6.36 43.448 0.297 8.53 16.33 13.43
3/21/2021 4:15:00 PM 6.48 43.664 0.297 8.56 16.22 13.41
3/21/2021 4:30:00 PM 6.59 43.862 0.3 8.56 16.07 13.36
3/21/2021 4:45:00 PM 6.69 44.042 0.297 8.57 16 13.3
3/21/2021 5:00:00 PM 6.77 44.186 0.298 8.59 16.27 13.23
3/21/2021 5:15:00 PM 6.84 44.312 0.297 8.59 16.22 13.16
3/21/2021 5:30:00 PM 6.89 44.402 0.299 8.59 16.19 13.09
3/21/2021 5:45:00 PM 6.95 44.51 0.298 8.6 16.03 13.02
3/21/2021 6:00:00 PM 6.99 44.582 0.299 8.61 16.12 12.96
3/21/2021 6:15:00 PM 7.03 44.654 0.3 8.61 16.16 12.87
3/21/2021 6:30:00 PM 7.05 44.69 0.299 8.61 16.43 12.78
3/21/2021 6:45:00 PM 7.07 44.726 0.3 8.61 16.28 12.68
3/21/2021 7:00:00 PM 7.08 44.744 0.3 8.61 16.13 12.6
3/21/2021 7:15:00 PM 7.08 44.744 0.299 8.59 16.18 12.51
3/21/2021 7:30:00 PM 7.06 44.708 0.301 8.59 15.85 12.42
3/21/2021 7:45:00 PM 7.05 44.69 0.301 8.6 16.24 12.33
3/21/2021 8:00:00 PM 7.02 44.636 0.301 8.59 16.03 12.25
3/21/2021 8:15:00 PM 7 44.6 0.301 8.59 16.02 12.18
3/21/2021 8:30:00 PM 6.97 44.546 0.301 8.58 16.18 12.1
3/21/2021 8:45:00 PM 6.94 44.492 0.301 8.55 16.42 12.04
3/21/2021 9:00:00 PM 6.91 44.438 0.301 8.57 16.55 11.98
3/21/2021 9:15:00 PM 6.87 44.366 0.302 8.57 16.36 11.91
3/21/2021 9:30:00 PM 6.84 44.312 0.301 8.56 16.22 11.87
3/21/2021 9:45:00 PM 6.81 44.258 0.301 8.56 16.35 11.82
3/21/2021 10:00:00 PM 6.77 44.186 0.301 8.55 15.34 11.77
3/21/2021 10:15:00 PM 6.73 44.114 0.302 8.55 16.32 11.73
3/21/2021 10:30:00 PM 6.69 44.042 0.302 8.52 16.89 11.69
3/21/2021 10:45:00 PM 6.65 43.97 0.301 8.53 16.87 11.64
3/21/2021 11:00:00 PM 6.6 43.88 0.301 8.53 16.5 11.63
3/21/2021 11:15:00 PM 6.55 43.79 0.302 8.48 16.77 11.59
3/21/2021 11:30:00 PM 6.51 43.718 0.301 8.52 16.69 11.57
3/21/2021 11:45:00 PM 6.45 43.61 0.3 8.49 16.92 11.55
3/22/2021 12:00:00 AM 6.4 43.52 0.301 8.49 16.66 11.55
3/22/2021 12:15:00 AM 6.34 43.412 0.3 8.51 16.73 11.56
3/22/2021 12:30:00 AM 6.28 43.304 0.299 8.5 16.71 11.55
3/22/2021 12:45:00 AM 6.22 43.196 0.299 8.49 16.14 11.55
3/22/2021 1:00:00 AM 6.16 43.088 0.301 8.49 16.74 11.56
3/22/2021 1:15:00 AM 6.1 42.98 0.301 8.46 16.74 11.56
3/22/2021 1:30:00 AM 6.04 42.872 0.299 8.47 16.86 11.56
3/22/2021 1:45:00 AM 5.97 42.746 0.3 8.48 16.57 11.57
3/22/2021 2:00:00 AM 5.91 42.638 0.3 8.46 16.55 11.57
3/22/2021 2:15:00 AM 5.86 42.548 0.299 8.47 16.83 11.57
3/22/2021 2:30:00 AM 5.8 42.44 0.301 8.46 17.4 11.57
3/22/2021 2:45:00 AM 5.73 42.314 0.3 8.46 17.17 11.59
3/22/2021 3:00:00 AM 5.67 42.206 0.3 8.46 16.98 11.6
3/22/2021 3:15:00 AM 5.6 42.08 0.3 8.45 17.1 11.62
3/22/2021 3:30:00 AM 5.53 41.954 0.3 8.44 17.09 11.63
3/22/2021 3:45:00 AM 5.46 41.828 0.301 8.45 16.98 11.63
3/22/2021 4:00:00 AM 5.39 41.702 0.301 8.42 17.16 11.67
3/22/2021 4:15:00 AM 5.31 41.558 0.301 8.46 17 11.7
3/22/2021 4:30:00 AM 5.23 41.414 0.302 8.45 17.24 11.71
3/22/2021 4:45:00 AM 5.14 41.252 0.301 8.45 17.27 11.75
3/22/2021 5:00:00 AM 5.05 41.09 0.301 8.45 17.46 11.78
3/22/2021 5:15:00 AM 4.97 40.946 0.303 8.45 17.13 11.81
3/22/2021 5:30:00 AM 4.87 40.766 0.304 8.44 17.1 11.84
3/22/2021 5:45:00 AM 4.77 40.586 0.303 8.44 17.49 11.89
3/22/2021 6:00:00 AM 4.67 40.406 0.303 8.44 17.84 11.93
3/22/2021 6:15:00 AM 4.57 40.226 0.303 8.42 17.69 11.94
3/22/2021 6:30:00 AM 4.46 40.028 0.304 8.42 17.64 11.98
3/22/2021 6:45:00 AM 4.36 39.848 0.304 8.42 17.79 12.02
3/22/2021 7:00:00 AM 4.25 39.65 0.304 8.41 17.82 12.06
3/22/2021 7:15:00 AM 4.14 39.452 0.304 8.41 17.91 12.12
3/22/2021 7:30:00 AM 4.03 39.254 0.307 8.4 17.59 12.16
3/22/2021 7:45:00 AM 3.92 39.056 0.305 8.36 16.98 12.2
3/22/2021 8:00:00 AM 3.83 38.894 0.306 8.39 17.02 12.27
3/22/2021 8:15:00 AM 3.73 38.714 0.305 8.38 16.73 12.32
3/22/2021 8:30:00 AM 3.63 38.534 0.304 8.34 16.44 12.39
3/22/2021 8:45:00 AM 3.54 38.372 0.306 8.36 17.09 12.44
3/22/2021 9:00:00 AM 3.45 38.21 0.305 8.36 17.12 12.51
3/22/2021 9:15:00 AM 3.37 38.066 0.306 8.36 16.74 12.56
3/22/2021 9:30:00 AM 3.29 37.922 0.306 8.35 16.81 12.63
3/22/2021 9:45:00 AM 3.23 37.814 0.309 8.35 16.66 12.71
3/22/2021 10:00:00 AM 3.19 37.742 0.307 8.35 16.27 12.76
3/22/2021 10:15:00 AM 3.18 37.724 0.307 8.32 16.55 12.84
3/22/2021 10:30:00 AM 3.17 37.706 0.307 8.34 16.22 12.89
3/22/2021 10:45:00 AM 3.16 37.688 0.307 8.33 16.34 12.97
3/22/2021 11:00:00 AM 3.19 37.742 0.308 8.33 16.37 13.05
3/22/2021 11:15:00 AM 3.29 37.922 0.308 8.29 15.78 13.11
3/22/2021 11:30:00 AM 3.42 38.156 0.308 8.35 15.93 13.18
3/22/2021 11:45:00 AM 3.58 38.444 0.308 8.34 15.8 13.26
3/22/2021 12:00:00 PM 3.77 38.786 0.306 8.38 15.72 13.31
3/22/2021 12:15:00 PM 3.97 39.146 0.308 8.36 15.64 13.36
3/22/2021 12:30:00 PM 4.19 39.542 0.307 8.41 15.76 13.4
3/22/2021 12:45:00 PM 4.43 39.974 0.308 8.44 15.59 13.43
3/22/2021 1:00:00 PM 4.7 40.46 0.308 8.48 15.3 13.45
3/22/2021 1:15:00 PM 4.95 40.91 0.307 8.5 15.05 13.47
3/22/2021 1:30:00 PM 5.23 41.414 0.308 8.53 15.22 13.46
3/22/2021 1:45:00 PM 5.5 41.9 0.308 8.56 15.22 13.46
3/22/2021 2:00:00 PM 5.78 42.404 0.308 8.58 15.34 13.47
3/22/2021 2:15:00 PM 6.03 42.854 0.308 8.6 15.48 13.45
3/22/2021 2:30:00 PM 6.28 43.304 0.309 8.62 14.71 13.44
3/22/2021 2:45:00 PM 6.5 43.7 0.309 8.63 15.17 13.4
3/22/2021 3:00:00 PM 6.7 44.06 0.309 8.65 15.23 13.38
3/22/2021 3:15:00 PM 6.91 44.438 0.309 8.68 14.61 13.36
3/22/2021 3:30:00 PM 7.1 44.78 0.308 8.7 14.89 13.32
3/22/2021 3:45:00 PM 7.26 45.068 0.308 8.68 14.63 13.29
3/22/2021 4:00:00 PM 7.4 45.32 0.308 8.73 14.72 13.24
3/22/2021 4:15:00 PM 7.52 45.536 0.309 8.74 15.03 13.2
3/22/2021 4:30:00 PM 7.62 45.716 0.309 8.73 14.71 13.16
3/22/2021 4:45:00 PM 7.71 45.878 0.309 8.76 14.76 13.09
3/22/2021 5:00:00 PM 7.78 46.004 0.309 8.78 14.77 13.03
3/22/2021 5:15:00 PM 7.83 46.094 0.31 8.78 14.73 12.97
3/22/2021 5:30:00 PM 7.88 46.184 0.309 8.79 15.22 12.91
3/22/2021 5:45:00 PM 7.92 46.256 0.31 8.8 15.11 12.85
3/22/2021 6:00:00 PM 7.94 46.292 0.31 8.8 14.76 12.76
3/22/2021 6:15:00 PM 7.97 46.346 0.31 8.79 14.83 12.69
3/22/2021 6:30:00 PM 7.99 46.382 0.31 8.8 14.79 12.6
3/22/2021 6:45:00 PM 7.99 46.382 0.312 8.78 14.74 12.51
3/22/2021 7:00:00 PM 7.99 46.382 0.311 8.8 14.65 12.4
3/22/2021 7:15:00 PM 7.99 46.382 0.312 8.8 14.95 12.32
3/22/2021 7:30:00 PM 7.97 46.346 0.311 8.77 15.17 12.22
3/22/2021 7:45:00 PM 7.95 46.31 0.312 8.77 15.59 12.12
3/22/2021 8:00:00 PM 7.92 46.256 0.312 8.78 15.5 12.03
3/22/2021 8:15:00 PM 7.89 46.202 0.312 8.74 15.21 11.94
3/22/2021 8:30:00 PM 7.85 46.13 0.313 8.74 15.49 11.87
3/22/2021 8:45:00 PM 7.81 46.058 0.314 8.75 15.53 11.79
3/22/2021 9:00:00 PM 7.77 45.986 0.313 8.72 15.21 11.72
3/22/2021 9:15:00 PM 7.73 45.914 0.314 8.73 15.54 11.66
3/22/2021 9:30:00 PM 7.7 45.86 0.314 8.72 15.5 11.6
3/22/2021 9:45:00 PM 7.66 45.788 0.314 8.71 15.84 11.54
3/22/2021 10:00:00 PM 7.62 45.716 0.314 8.7 15.39 11.49
3/22/2021 10:15:00 PM 7.59 45.662 0.314 8.7 15.44 11.45
3/22/2021 10:30:00 PM 7.56 45.608 0.314 8.67 16.2 11.39
3/22/2021 10:45:00 PM 7.51 45.518 0.314 8.69 15.5 11.36
3/22/2021 11:00:00 PM 7.47 45.446 0.314 8.67 15.91 11.3
3/22/2021 11:15:00 PM 7.42 45.356 0.314 8.67 15.6 11.28
3/22/2021 11:30:00 PM 7.37 45.266 0.315 8.64 15.54 11.26
3/22/2021 11:45:00 PM 7.31 45.158 0.315 8.66 15.49 11.24
3/23/2021 12:00:00 AM 7.25 45.05 0.314 8.65 15.46 11.22
3/23/2021 12:15:00 AM 7.19 44.942 0.315 8.63 15.82 11.2
3/23/2021 12:30:00 AM 7.13 44.834 0.315 8.62 15.9 11.19
3/23/2021 12:45:00 AM 7.06 44.708 0.315 8.63 16.07 11.18
3/23/2021 1:00:00 AM 7 44.6 0.314 8.62 16.04 11.18
3/23/2021 1:15:00 AM 6.94 44.492 0.314 8.62 15.82 11.18
3/23/2021 1:30:00 AM 6.87 44.366 0.314 8.62 15.83 11.19
3/23/2021 1:45:00 AM 6.81 44.258 0.314 8.6 15.8 11.19
3/23/2021 2:00:00 AM 6.74 44.132 0.314 8.61 15.9 11.2
3/23/2021 2:15:00 AM 6.67 44.006 0.314 8.6 15.83 11.21
3/23/2021 2:30:00 AM 6.6 43.88 0.315 8.58 16.17 11.2
3/23/2021 2:45:00 AM 6.53 43.754 0.313 8.6 15.6 11.22
3/23/2021 3:00:00 AM 6.47 43.646 0.315 8.59 15.7 11.23
3/23/2021 3:15:00 AM 6.41 43.538 0.316 8.59 15.89 11.23
3/23/2021 3:30:00 AM 6.34 43.412 0.314 8.59 16.56 11.26
3/23/2021 3:45:00 AM 6.28 43.304 0.315 8.55 15.78 11.27
3/23/2021 4:00:00 AM 6.21 43.178 0.315 8.57 15.91 11.29
3/23/2021 4:15:00 AM 6.15 43.07 0.315 8.59 15.96 11.3
3/23/2021 4:30:00 AM 6.07 42.926 0.314 8.56 15.97 11.32
3/23/2021 4:45:00 AM 6.01 42.818 0.315 8.58 16.03 11.34
3/23/2021 5:00:00 AM 5.93 42.674 0.315 8.58 16.01 11.36
3/23/2021 5:15:00 AM 5.86 42.548 0.316 8.57 15.96 11.38
3/23/2021 5:30:00 AM 5.77 42.386 0.316 8.53 15.89 11.41
3/23/2021 5:45:00 AM 5.69 42.242 0.316 8.58 16.24 11.44
3/23/2021 6:00:00 AM 5.6 42.08 0.315 8.57 16.22 11.48
3/23/2021 6:15:00 AM 5.52 41.936 0.315 8.56 16.19 11.51
3/23/2021 6:30:00 AM 5.43 41.774 0.317 8.57 16.23 11.53
3/23/2021 6:45:00 AM 5.34 41.612 0.316 8.53 16.23 11.56
3/23/2021 7:00:00 AM 5.25 41.45 0.317 8.54 16.34 11.58
3/23/2021 7:15:00 AM 5.16 41.288 0.317 8.57 16.49 11.61
3/23/2021 7:30:00 AM 5.06 41.108 0.317 8.56 16.42 11.66
3/23/2021 7:45:00 AM 4.97 40.946 0.317 8.56 16.64 11.72
3/23/2021 8:00:00 AM 4.89 40.802 0.318 8.55 18.32 11.76
3/23/2021 8:15:00 AM 4.8 40.64 0.318 8.56 16.97 11.82
3/23/2021 8:30:00 AM 4.71 40.478 0.319 8.56 16.72 11.89
3/23/2021 8:45:00 AM 4.62 40.316 0.318 8.56 17.97 11.95
3/23/2021 9:00:00 AM 4.54 40.172 0.319 8.55 20.86 11.99
3/23/2021 9:15:00 AM 4.46 40.028 0.32 8.56 16.62 12.08
3/23/2021 9:30:00 AM 4.4 39.92 0.32 8.51 16.3 12.17
3/23/2021 9:45:00 AM 4.34 39.812 0.319 8.55 16.23 12.25
3/23/2021 10:00:00 AM 4.31 39.758 0.318 8.5 16.52 12.33
3/23/2021 10:15:00 AM 4.3 39.74 0.32 8.55 16.27 12.41
3/23/2021 10:30:00 AM 4.29 39.722 0.32 8.54 16.18 12.5
3/23/2021 10:45:00 AM 4.3 39.74 0.32 8.55 16.02 12.57
3/23/2021 11:00:00 AM 4.32 39.776 0.321 8.55 16.19 12.65
3/23/2021 11:15:00 AM 4.39 39.902 0.32 8.53 16.29 12.73
3/23/2021 11:30:00 AM 4.49 40.082 0.32 8.58 15.91 12.83
3/23/2021 11:45:00 AM 4.64 40.352 0.321 8.59 15.87 12.92
3/23/2021 12:00:00 PM 4.8 40.64 0.32 8.6 15.67 13
3/23/2021 12:15:00 PM 4.97 40.946 0.321 8.63 15.5 13.06
3/23/2021 12:30:00 PM 5.18 41.324 0.32 8.64 15.75 13.12
3/23/2021 12:45:00 PM 5.4 41.72 0.32 8.62 15.81 13.19
3/23/2021 1:00:00 PM 5.63 42.134 0.32 8.69 15.59 13.23
3/23/2021 1:15:00 PM 5.84 42.512 0.319 8.7 15.85 13.24
3/23/2021 1:30:00 PM 6.05 42.89 0.32 8.72 15.5 13.27
3/23/2021 1:45:00 PM 6.3 43.34 0.319 8.73 15.29 13.3
3/23/2021 2:00:00 PM 6.53 43.754 0.319 8.76 15.29 13.31
3/23/2021 2:15:00 PM 6.73 44.114 0.32 8.77 15.29 13.32
3/23/2021 2:30:00 PM 6.92 44.456 0.319 8.79 15.23 13.32
3/23/2021 2:45:00 PM 7.08 44.744 0.32 8.8 14.78 13.28
3/23/2021 3:00:00 PM 7.25 45.05 0.32 8.8 15.01 13.28
3/23/2021 3:15:00 PM 7.43 45.374 0.32 8.84 15.22 13.27
3/23/2021 3:30:00 PM 7.55 45.59 0.32 8.85 14.91 13.25
3/23/2021 3:45:00 PM 7.68 45.824 0.321 8.84 17.5 13.21
3/23/2021 4:00:00 PM 7.78 46.004 0.32 8.89 15.21 13.17
3/23/2021 4:15:00 PM 7.86 46.148 0.32 8.86 15.06 13.15
3/23/2021 4:30:00 PM 7.93 46.274 0.322 8.9 15.13 13.12
3/23/2021 4:45:00 PM 7.98 46.364 0.322 8.9 15.07 13.07
3/23/2021 5:00:00 PM 8.02 46.436 0.321 8.92 15.01 13.03
3/23/2021 5:15:00 PM 8.07 46.526 0.322 8.91 15.01 12.97
3/23/2021 5:30:00 PM 8.1 46.58 0.321 8.92 14.96 12.91
3/23/2021 5:45:00 PM 8.12 46.616 0.321 8.92 15 12.86
3/23/2021 6:00:00 PM 8.14 46.652 0.321 8.92 14.89 12.8
3/23/2021 6:15:00 PM 8.17 46.706 0.321 8.94 14.98 12.74
3/23/2021 6:30:00 PM 8.17 46.706 0.323 8.93 14.86 12.67
3/23/2021 6:45:00 PM 8.17 46.706 0.323 8.92 14.78 12.56
3/23/2021 7:00:00 PM 8.18 46.724 0.323 8.91 14.92 12.46
3/23/2021 7:15:00 PM 8.17 46.706 0.325 8.9 15.47 12.35
3/23/2021 7:30:00 PM 8.17 46.706 0.323 8.89 16.41 12.26
3/23/2021 7:45:00 PM 8.16 46.688 0.324 8.88 15.39 12.14
3/23/2021 8:00:00 PM 8.14 46.652 0.323 8.87 15.12 12.07
3/23/2021 8:15:00 PM 8.12 46.616 0.323 8.83 15.02 11.99
3/23/2021 8:30:00 PM 8.09 46.562 0.324 8.84 15.26 11.88
3/23/2021 8:45:00 PM 8.07 46.526 0.324 8.82 13.74 11.81
3/23/2021 9:00:00 PM 8.04 46.472 0.324 8.8 13.52 11.72
3/23/2021 9:15:00 PM 8.01 46.418 0.325 8.81 13.42 11.67
3/23/2021 9:30:00 PM 7.98 46.364 0.325 8.77 13.38 11.58
3/23/2021 9:45:00 PM 7.95 46.31 0.324 8.78 13.45 11.51
3/23/2021 10:00:00 PM 7.92 46.256 0.325 8.78 13.44 11.45
3/23/2021 10:15:00 PM 7.9 46.22 0.324 8.77 13.66 11.39
3/23/2021 10:30:00 PM 7.88 46.184 0.325 8.76 13.42 11.33
3/23/2021 10:45:00 PM 7.85 46.13 0.327 8.75 13.56 11.28
3/23/2021 11:00:00 PM 7.82 46.076 0.325 8.74 13.4 11.22
3/23/2021 11:15:00 PM 7.79 46.022 0.326 8.72 13.84 11.2
3/23/2021 11:30:00 PM 7.76 45.968 0.327 8.7 13.52 11.14
3/23/2021 11:45:00 PM 7.73 45.914 0.326 8.72 13.49 11.1
3/24/2021 12:00:00 AM 7.69 45.842 0.327 8.71 13.57 11.08
3/24/2021 12:15:00 AM 7.66 45.788 0.326 8.7 13.44 11.06
3/24/2021 12:30:00 AM 7.62 45.716 0.326 8.7 13.54 11.04
3/24/2021 12:45:00 AM 7.58 45.644 0.326 8.69 13.47 11
3/24/2021 1:00:00 AM 7.54 45.572 0.326 8.69 13.64 11.01
3/24/2021 1:15:00 AM 7.51 45.518 0.328 8.65 13.53 11
3/24/2021 1:30:00 AM 7.49 45.482 0.326 8.67 13.59 10.99
3/24/2021 1:45:00 AM 7.46 45.428 0.327 8.66 13.55 10.98
3/24/2021 2:00:00 AM 7.44 45.392 0.327 8.67 13.5 10.97
3/24/2021 2:15:00 AM 7.41 45.338 0.326 8.63 13.59 10.98
3/24/2021 2:30:00 AM 7.39 45.302 0.326 8.67 13.4 10.97
3/24/2021 2:45:00 AM 7.37 45.266 0.327 8.66 13.43 10.97
3/24/2021 3:00:00 AM 7.35 45.23 0.328 8.66 13.37 10.96
3/24/2021 3:15:00 AM 7.34 45.212 0.327 8.63 13.61 10.97
3/24/2021 3:30:00 AM 7.31 45.158 0.327 8.66 13.28 10.97
3/24/2021 3:45:00 AM 7.3 45.14 0.327 8.66 13.76 10.97
3/24/2021 4:00:00 AM 7.29 45.122 0.327 8.66 13.63 10.97
3/24/2021 4:15:00 AM 7.27 45.086 0.328 8.63 16.1 10.95
3/24/2021 4:30:00 AM 7.26 45.068 0.328 8.65 13.89 10.97
3/24/2021 4:45:00 AM 7.25 45.05 0.328 8.65 13.69 10.96
3/24/2021 5:00:00 AM 7.23 45.014 0.328 8.65 13.63 10.97
3/24/2021 5:15:00 AM 7.22 44.996 0.329 8.65 13.46 10.97
3/24/2021 5:30:00 AM 7.21 44.978 0.327 8.65 13.67 10.97
3/24/2021 5:45:00 AM 7.2 44.96 0.329 8.63 13.68 10.96
3/24/2021 6:00:00 AM 7.19 44.942 0.327 8.65 13.69 10.99
3/24/2021 6:15:00 AM 7.17 44.906 0.329 8.65 13.53 11
3/24/2021 6:30:00 AM 7.16 44.888 0.328 8.65 13.5 11
3/24/2021 6:45:00 AM 7.15 44.87 0.331 8.64 13.68 11
3/24/2021 7:00:00 AM 7.13 44.834 0.329 8.65 13.81 11
3/24/2021 7:15:00 AM 7.12 44.816 0.329 8.65 14.18 11.02
3/24/2021 7:30:00 AM 7.1 44.78 0.329 8.65 13.2 11.03
3/24/2021 7:45:00 AM 7.07 44.726 0.329 8.64 13.48 11.03
3/24/2021 8:00:00 AM 7.05 44.69 0.329 8.65 14.89 11.05
3/24/2021 8:15:00 AM 7.03 44.654 0.329 8.65 13.56 11.07
3/24/2021 8:30:00 AM 7 44.6 0.329 8.65 13.73 11.11
3/24/2021 8:45:00 AM 6.98 44.564 0.329 8.64 13.44 11.14
3/24/2021 9:00:00 AM 6.96 44.528 0.329 8.65 13.41 11.16
3/24/2021 9:15:00 AM 6.94 44.492 0.329 8.64 13.71 11.21
3/24/2021 9:30:00 AM 6.91 44.438 0.331 8.66 13.36 11.21
3/24/2021 9:45:00 AM 6.89 44.402 0.328 8.67 13.21 11.33
3/24/2021 10:00:00 AM 6.87 44.366 0.329 8.63 13.32 11.36
3/24/2021 10:15:00 AM 6.86 44.348 0.329 8.68 13.32 11.45
3/24/2021 10:30:00 AM 6.84 44.312 0.328 8.67 13.47 11.48
3/24/2021 10:45:00 AM 6.83 44.294 0.328 8.66 13.73 11.56
3/24/2021 11:00:00 AM 6.82 44.276 0.329 8.69 13.59 11.63
3/24/2021 11:15:00 AM 6.81 44.258 0.332 8.7 13.71 11.68
3/24/2021 11:30:00 AM 6.8 44.24 0.334 8.68 14.59 11.76
3/24/2021 11:45:00 AM 6.81 44.258 0.329 8.72 13.87 11.85
3/24/2021 12:00:00 PM 6.82 44.276 0.334 8.73 14.73 11.92
3/24/2021 12:15:00 PM 6.82 44.276 0.331 8.73 14.34 11.99
3/24/2021 12:30:00 PM 6.85 44.33 0.328 8.75 14.57 12.07
3/24/2021 12:45:00 PM 6.88 44.384 0.327 8.73 14.91 12.15
3/24/2021 1:00:00 PM 6.91 44.438 0.326 8.77 14.5 12.2
3/24/2021 1:15:00 PM 6.92 44.456 0.327 8.78 14.88 12.27
3/24/2021 1:30:00 PM 6.94 44.492 0.327 8.79 15.33 12.33
3/24/2021 1:45:00 PM 6.95 44.51 0.326 8.78 15.04 12.37
3/24/2021 2:00:00 PM 6.96 44.528 0.325 8.81 15 12.41
3/24/2021 2:15:00 PM 6.98 44.564 0.325 8.81 14.83 12.45
3/24/2021 2:30:00 PM 7 44.6 0.322 8.8 14.59 12.47
3/24/2021 2:45:00 PM 7.05 44.69 0.321 8.85 14.65 12.52
3/24/2021 3:00:00 PM 7.1 44.78 0.321 8.85 14.57 12.53
3/24/2021 3:15:00 PM 7.15 44.87 0.321 8.86 14.66 12.57
3/24/2021 3:30:00 PM 7.19 44.942 0.321 8.86 14.89 12.59
3/24/2021 3:45:00 PM 7.25 45.05 0.322 8.87 15.2 12.6
3/24/2021 4:00:00 PM 7.33 45.194 0.322 8.89 14.96 12.63
3/24/2021 4:15:00 PM 7.37 45.266 0.324 8.88 14.63 12.6
3/24/2021 4:30:00 PM 7.41 45.338 0.326 8.9 15.91 12.57
3/24/2021 4:45:00 PM 7.46 45.428 0.33 8.89 15.51 12.53
3/24/2021 5:00:00 PM 7.51 45.518 0.333 8.89 16.99 12.5
3/24/2021 5:15:00 PM 7.56 45.608 0.333 8.9 16 12.46
3/24/2021 5:30:00 PM 7.62 45.716 0.33 8.87 16.02 12.42
3/24/2021 5:45:00 PM 7.65 45.77 0.329 8.89 14.94 12.38
3/24/2021 6:00:00 PM 7.67 45.806 0.328 8.86 16.01 12.35
3/24/2021 6:15:00 PM 7.68 45.824 0.33 8.88 16.75 12.34
3/24/2021 6:30:00 PM 7.68 45.824 0.335 8.84 16.76 12.28
3/24/2021 6:45:00 PM 7.68 45.824 0.341 8.82 16.71 12.23
3/24/2021 7:00:00 PM 7.67 45.806 0.348 8.8 18.09 12.15
3/24/2021 7:15:00 PM 7.68 45.824 0.351 8.8 19.12 12.05
3/24/2021 7:30:00 PM 7.7 45.86 0.356 8.79 18.93 11.97
3/24/2021 7:45:00 PM 7.74 45.932 0.359 8.79 19.8 11.89
3/24/2021 8:00:00 PM 7.76 45.968 0.357 8.76 20 11.77
3/24/2021 8:15:00 PM 7.79 46.022 0.35 8.74 21.16 11.7
3/24/2021 8:30:00 PM 7.81 46.058 0.343 8.74 21.31 11.63
3/24/2021 8:45:00 PM 7.82 46.076 0.329 8.72 21.45 11.58
3/24/2021 9:00:00 PM 7.81 46.058 0.318 8.67 25.22 11.54
3/24/2021 9:15:00 PM 7.79 46.022 0.309 8.68 18.85 11.5
3/24/2021 9:30:00 PM 7.75 45.95 0.302 8.63 22.02 11.48
3/24/2021 9:45:00 PM 7.71 45.878 0.295 8.65 22.14 11.45
3/24/2021 10:00:00 PM 7.66 45.788 0.289 8.59 21.55 11.43
3/24/2021 10:15:00 PM 7.61 45.698 0.283 8.6 21.6 11.42
3/24/2021 10:30:00 PM 7.57 45.626 0.279 8.6 22.45 11.38
3/24/2021 10:45:00 PM 7.54 45.572 0.275 8.59 23.57 11.36
3/24/2021 11:00:00 PM 7.5 45.5 0.271 8.54 22.83 11.34
3/24/2021 11:15:00 PM 7.47 45.446 0.269 8.56 24.83 11.33
3/24/2021 11:30:00 PM 7.43 45.374 0.267 8.56 24.12 11.32
3/24/2021 11:45:00 PM 7.4 45.32 0.265 8.53 23.63 11.3
3/25/2021 12:00:00 AM 7.37 45.266 0.266 8.55 23.08 11.29
3/25/2021 12:15:00 AM 7.35 45.23 0.266 8.55 24.35 11.27
3/25/2021 12:30:00 AM 7.33 45.194 0.267 8.55 24.69 11.26
3/25/2021 12:45:00 AM 7.32 45.176 0.27 8.52 23.94 11.25
3/25/2021 1:00:00 AM 7.3 45.14 0.272 8.53 24.46 11.25
3/25/2021 1:15:00 AM 7.29 45.122 0.274 8.54 24.21 11.24
3/25/2021 1:30:00 AM 7.28 45.104 0.276 8.56 23.09 11.22
3/25/2021 1:45:00 AM 7.27 45.086 0.279 8.56 21.88 11.22
3/25/2021 2:00:00 AM 7.26 45.068 0.28 8.57 22.26 11.2
3/25/2021 2:15:00 AM 7.25 45.05 0.283 8.54 22.1 11.19
3/25/2021 2:30:00 AM 7.23 45.014 0.282 8.57 21.92 11.2
3/25/2021 2:45:00 AM 7.22 44.996 0.284 8.57 20.99 11.18
3/25/2021 3:00:00 AM 7.2 44.96 0.285 8.56 21.79 11.19
3/25/2021 3:15:00 AM 7.18 44.924 0.285 8.57 20.82 11.18
3/25/2021 3:30:00 AM 7.15 44.87 0.286 8.57 21.18 11.18
3/25/2021 3:45:00 AM 7.13 44.834 0.287 8.57 20.86 11.18
3/25/2021 4:00:00 AM 7.11 44.798 0.288 8.55 20.56 11.18
3/25/2021 4:15:00 AM 7.09 44.762 0.288 8.57 20.83 11.18
3/25/2021 4:30:00 AM 7.07 44.726 0.289 8.55 20.4 11.18
3/25/2021 4:45:00 AM 7.06 44.708 0.29 8.55 19.83 11.18
3/25/2021 5:00:00 AM 7.04 44.672 0.292 8.54 18.81 11.18
3/25/2021 5:15:00 AM 7.01 44.618 0.29 8.51 20.13 11.18
3/25/2021 5:30:00 AM 6.99 44.582 0.292 8.54 19.39 11.19
3/25/2021 5:45:00 AM 6.96 44.528 0.292 8.51 19.27 11.19
3/25/2021 6:00:00 AM 6.93 44.474 0.292 8.55 19.05 11.21
3/25/2021 6:15:00 AM 6.9 44.42 0.294 8.54 19.38 11.2
3/25/2021 6:30:00 AM 6.87 44.366 0.294 8.5 19.35 11.21
3/25/2021 6:45:00 AM 6.84 44.312 0.294 8.53 19.7 11.21
3/25/2021 7:00:00 AM 6.81 44.258 0.295 8.51 20.88 11.23
3/25/2021 7:15:00 AM 6.78 44.204 0.298 8.52 19.59 11.2
3/25/2021 7:30:00 AM 6.76 44.168 0.296 8.54 19.96 11.24
3/25/2021 7:45:00 AM 6.73 44.114 0.298 8.52 1.52 11.2
3/25/2021 8:00:00 AM 6.71 44.078 0.264 8.53 17.87 11.26
3/25/2021 8:15:00 AM 6.69 44.042 0.286 8.53 17.28 11.27
3/25/2021 8:30:00 AM 6.67 44.006 0.261 8.51 17.21 11.29
3/25/2021 8:45:00 AM 6.65 43.97 0.26 8.52 17.05 11.36
3/25/2021 9:00:00 AM 6.63 43.934 0.283 8.53 17.05 11.38
3/25/2021 9:15:00 AM 6.62 43.916 0.281 8.55 16.37 11.43
3/25/2021 9:30:00 AM 6.62 43.916 0.294 8.55 16.89 11.48
3/25/2021 9:45:00 AM 6.62 43.916 0.295 8.57 17.31 11.54
3/25/2021 10:00:00 AM 6.66 43.988 0.296 8.56 16.02 11.58
3/25/2021 10:15:00 AM 6.7 44.06 0.299 8.57 15.87 11.67
3/25/2021 10:30:00 AM 6.73 44.114 0.297 8.59 15.67 11.73
3/25/2021 10:45:00 AM 6.79 44.222 0.296 8.58 15.33 11.81
3/25/2021 11:00:00 AM 6.9 44.42 0.281 8.62 15.29 11.91
3/25/2021 11:15:00 AM 7.05 44.69 0.291 8.59 16.66 11.98
3/25/2021 11:30:00 AM 7.2 44.96 0.307 8.63 16.01 12.05
3/25/2021 11:45:00 AM 7.37 45.266 0.305 8.65 14.89 12.14
3/25/2021 12:00:00 PM 7.57 45.626 0.301 8.67 15.27 12.25
3/25/2021 12:15:00 PM 7.78 46.004 0.303 8.7 19.12 12.3
3/25/2021 12:30:00 PM 8.02 46.436 0.303 8.72 14.87 12.35
3/25/2021 12:45:00 PM 8.27 46.886 0.304 8.75 15.08 12.41
3/25/2021 1:00:00 PM 8.53 47.354 0.302 8.77 14.85 12.44
3/25/2021 1:15:00 PM 8.76 47.768 0.304 8.8 14.38 12.47
3/25/2021 1:30:00 PM 9.02 48.236 0.302 8.83 14.68 12.51
3/25/2021 1:45:00 PM 9.25 48.65 0.305 8.84 14.48 12.5
3/25/2021 2:00:00 PM 9.5 49.1 0.305 8.87 15.1 12.54
3/25/2021 2:15:00 PM 9.7 49.46 0.304 8.9 14.71 12.56
3/25/2021 2:30:00 PM 9.93 49.874 0.304 8.92 14.68 12.58
3/25/2021 2:45:00 PM 10.15 50.27 0.304 8.93 14.21 12.57
3/25/2021 3:00:00 PM 10.33 50.594 0.305 8.93 53.14 12.47
3/25/2021 3:15:00 PM 10.51 50.918 0.303 8.96 22.74 12.5
3/25/2021 3:30:00 PM 10.65 51.17 0.305 8.97 14.22 12.53
3/25/2021 3:45:00 PM 10.79 51.422 0.304 9 14.21 12.47
3/25/2021 4:00:00 PM 10.9 51.62 0.304 8.99 14.61 12.43
3/25/2021 4:15:00 PM 11.01 51.818 0.305 9.01 14.51 12.41
3/25/2021 4:30:00 PM 11.08 51.944 0.305 9.03 13.97 12.38
3/25/2021 4:45:00 PM 11.16 52.088 0.304 9.06 13.77 12.36
3/25/2021 5:00:00 PM 11.21 52.178 0.305 9.04 13.98 12.29
3/25/2021 5:15:00 PM 11.26 52.268 0.305 9.07 13.76 12.23
3/25/2021 5:30:00 PM 11.3 52.34 0.305 9.05 13.65 12.12
3/25/2021 5:45:00 PM 11.33 52.394 0.307 9.05 13.86 12.05
3/25/2021 6:00:00 PM 11.36 52.448 0.305 9.06 13.54 11.98
3/25/2021 6:15:00 PM 11.38 52.484 0.307 9.05 13.66 11.85
3/25/2021 6:30:00 PM 11.4 52.52 0.308 9.04 13.64 11.75
3/25/2021 6:45:00 PM 11.42 52.556 0.309 9.03 14.4 11.64
3/25/2021 7:00:00 PM 11.44 52.592 0.309 9.03 13.88 11.55
3/25/2021 7:15:00 PM 11.43 52.574 0.309 9.02 13.76 11.43
3/25/2021 7:30:00 PM 11.42 52.556 0.309 9 13.91 11.32
3/25/2021 7:45:00 PM 11.41 52.538 0.309 8.99 13.75 11.2
3/25/2021 8:00:00 PM 11.4 52.52 0.311 8.97 13.92 11.08
3/25/2021 8:15:00 PM 11.38 52.484 0.31 8.96 13.72 11
3/25/2021 8:30:00 PM 11.36 52.448 0.31 8.94 14.09 10.88
3/25/2021 8:45:00 PM 11.35 52.43 0.311 8.91 13.88 10.79
3/25/2021 9:00:00 PM 11.34 52.412 0.312 8.91 13.86 10.71
3/25/2021 9:15:00 PM 11.33 52.394 0.312 8.91 14.02 10.62
3/25/2021 9:30:00 PM 11.31 52.358 0.311 8.89 14.2 10.55
3/25/2021 9:45:00 PM 11.3 52.34 0.313 8.88 14.41 10.46
3/25/2021 10:00:00 PM 11.3 52.34 0.312 8.86 14.47 10.39
3/25/2021 10:15:00 PM 11.29 52.322 0.313 8.84 14.6 10.32
3/25/2021 10:30:00 PM 11.27 52.286 0.313 8.83 14.37 10.27
3/25/2021 10:45:00 PM 11.26 52.268 0.312 8.84 14.16 10.21
3/25/2021 11:00:00 PM 11.25 52.25 0.312 8.82 14.04 10.16
3/25/2021 11:15:00 PM 11.25 52.25 0.312 8.82 14.18 10.11
3/25/2021 11:30:00 PM 11.25 52.25 0.313 8.81 13.96 10.07
3/25/2021 11:45:00 PM 11.25 52.25 0.313 8.82 14.21 10.03
3/26/2021 12:00:00 AM 11.24 52.232 0.314 8.81 15.58 10.01
3/26/2021 12:15:00 AM 11.25 52.25 0.313 8.81 14.18 9.96
3/26/2021 12:30:00 AM 11.25 52.25 0.314 8.8 14.16 9.94
3/26/2021 12:45:00 AM 11.25 52.25 0.313 8.79 14.51 9.92
3/26/2021 1:00:00 AM 11.25 52.25 0.314 8.8 14.28 9.91
3/26/2021 1:15:00 AM 11.25 52.25 0.314 8.79 13.36 9.88
3/26/2021 1:30:00 AM 11.25 52.25 0.314 8.79 13.97 9.86
3/26/2021 1:45:00 AM 11.24 52.232 0.316 8.78 14.04 9.84
3/26/2021 2:00:00 AM 11.24 52.232 0.314 8.76 14 9.83
3/26/2021 2:15:00 AM 11.22 52.196 0.315 8.76 13.64 9.81
3/26/2021 2:30:00 AM 11.21 52.178 0.316 8.76 13.78 9.79
3/26/2021 2:45:00 AM 11.2 52.16 0.316 8.77 14.07 9.79
3/26/2021 3:00:00 AM 11.19 52.142 0.317 8.76 15.89 9.79
3/26/2021 3:15:00 AM 11.18 52.124 0.318 8.76 13.96 9.78
3/26/2021 3:30:00 AM 11.17 52.106 0.317 8.76 14.12 9.76
3/26/2021 3:45:00 AM 11.15 52.07 0.317 8.76 14.21 9.77
3/26/2021 4:00:00 AM 11.12 52.016 0.317 8.76 14.09 9.76
3/26/2021 4:15:00 AM 11.1 51.98 0.318 8.75 13.87 9.76
3/26/2021 4:30:00 AM 11.07 51.926 0.318 8.76 14.14 9.77
3/26/2021 4:45:00 AM 11.03 51.854 0.319 8.75 13.79 9.77
3/26/2021 5:00:00 AM 11 51.8 0.32 8.75 13.67 9.77
3/26/2021 5:15:00 AM 10.96 51.728 0.32 8.75 13.81 9.76
3/26/2021 5:30:00 AM 10.92 51.656 0.321 8.75 13.86 9.77
3/26/2021 5:45:00 AM 10.87 51.566 0.321 8.75 14.12 9.79
3/26/2021 6:00:00 AM 10.82 51.476 0.322 8.74 14.06 9.8
3/26/2021 6:15:00 AM 10.76 51.368 0.322 8.76 13.94 9.81
3/26/2021 6:30:00 AM 10.71 51.278 0.322 8.75 13.98 9.83
3/26/2021 6:45:00 AM 10.66 51.188 0.324 8.75 14.14 9.83
3/26/2021 7:00:00 AM 10.62 51.116 0.324 8.76 13.94 9.86
3/26/2021 7:15:00 AM 10.56 51.008 0.327 8.74 14.53 9.88
3/26/2021 7:30:00 AM 10.51 50.918 0.331 8.76 15.24 9.87
3/26/2021 7:45:00 AM 10.48 50.864 0.333 8.76 14.14 9.9
3/26/2021 8:00:00 AM 10.44 50.792 0.333 8.76 13.25 9.94
3/26/2021 8:15:00 AM 10.42 50.756 0.331 8.76 15.82 9.95
3/26/2021 8:30:00 AM 10.39 50.702 0.329 8.77 13.3 10.03
3/26/2021 8:45:00 AM 10.35 50.63 0.33 8.76 20.65 10.02
3/26/2021 9:00:00 AM 10.32 50.576 0.326 8.78 13.55 10.16
3/26/2021 9:15:00 AM 10.3 50.54 0.327 8.78 12.74 10.2
3/26/2021 9:30:00 AM 10.3 50.54 0.326 8.77 12.67 10.28
3/26/2021 9:45:00 AM 10.28 50.504 0.324 8.79 13.05 10.34
3/26/2021 10:00:00 AM 10.3 50.54 0.324 8.82 12.7 10.45
3/26/2021 10:15:00 AM 10.35 50.63 0.323 8.84 12.06 10.55
3/26/2021 10:30:00 AM 10.37 50.666 0.325 8.82 12.12 10.6
3/26/2021 10:45:00 AM 10.4 50.72 0.323 8.84 12.65 10.68
3/26/2021 11:00:00 AM 10.39 50.702 0.324 8.86 12.54 10.75
3/26/2021 11:15:00 AM 10.48 50.864 0.325 8.88 12.64 10.85
3/26/2021 11:30:00 AM 10.63 51.134 0.324 8.91 13.07 10.97
3/26/2021 11:45:00 AM 10.74 51.332 0.325 8.91 12.59 11.05
3/26/2021 12:00:00 PM 10.82 51.476 0.325 8.92 12.6 11.18
3/26/2021 12:15:00 PM 10.92 51.656 0.326 8.95 12.49 11.23
3/26/2021 12:30:00 PM 10.98 51.764 0.327 8.97 12.62 11.3
3/26/2021 12:45:00 PM 11.01 51.818 0.324 8.98 12.9 11.34
3/26/2021 1:00:00 PM 11.08 51.944 0.325 9.01 12.82 11.39
3/26/2021 1:15:00 PM 11.2 52.16 0.326 9.02 12.59 11.47
3/26/2021 1:30:00 PM 11.28 52.304 0.325 9.06 12.38 11.56
3/26/2021 1:45:00 PM 11.36 52.448 0.325 9.07 14.06 11.57
3/26/2021 2:00:00 PM 11.43 52.574 0.325 9.09 11.77 11.62
3/26/2021 2:15:00 PM 11.46 52.628 0.325 9.11 11.39 11.65
3/26/2021 2:30:00 PM 11.49 52.682 0.326 9.13 10.78 11.67
3/26/2021 2:45:00 PM 11.53 52.754 0.326 9.14 12.76 11.68
3/26/2021 3:00:00 PM 11.57 52.826 0.326 9.15 11.8 11.72
3/26/2021 3:15:00 PM 11.56 52.808 0.327 9.18 11.82 11.74
3/26/2021 3:30:00 PM 11.52 52.736 0.328 9.19 11.6 11.73
3/26/2021 3:45:00 PM 11.47 52.646 0.33 9.17 12.64 11.7
3/26/2021 4:00:00 PM 11.42 52.556 0.332 9.18 11.97 11.66
3/26/2021 4:15:00 PM 11.39 52.502 0.332 9.19 12.28 11.71
3/26/2021 4:30:00 PM 11.39 52.502 0.331 9.2 12.69 11.71
3/26/2021 4:45:00 PM 11.38 52.484 0.331 9.2 11 11.69
3/26/2021 5:00:00 PM 11.33 52.394 0.329 9.19 10.97 11.65
3/26/2021 5:15:00 PM 11.27 52.286 0.329 9.19 11.15 11.57
3/26/2021 5:30:00 PM 11.22 52.196 0.328 9.16 11.15 11.52
3/26/2021 5:45:00 PM 11.17 52.106 0.325 9.14 10.78 11.46
3/26/2021 6:00:00 PM 11.12 52.016 0.324 9.14 11.12 11.41
3/26/2021 6:15:00 PM 11.06 51.908 0.323 9.12 11.11 11.34
3/26/2021 6:30:00 PM 11 51.8 0.322 9.12 11.08 11.28
3/26/2021 6:45:00 PM 10.93 51.674 0.321 9.1 11.4 11.21
3/26/2021 7:00:00 PM 10.87 51.566 0.321 9.07 11.29 11.12
3/26/2021 7:15:00 PM 10.82 51.476 0.32 9.07 13.24 11.07
3/26/2021 7:30:00 PM 10.78 51.404 0.32 9.04 11.47 11
3/26/2021 7:45:00 PM 10.73 51.314 0.318 9.04 11.23 10.96
3/26/2021 8:00:00 PM 10.69 51.242 0.319 9.02 12.86 10.88
3/26/2021 8:15:00 PM 10.65 51.17 0.318 9 11.56 10.82
3/26/2021 8:30:00 PM 10.61 51.098 0.318 8.98 18.32 10.76
3/26/2021 8:45:00 PM 10.57 51.026 0.317 8.98 11.75 10.71
3/26/2021 9:00:00 PM 10.53 50.954 0.317 8.96 11.84 10.66
3/26/2021 9:15:00 PM 10.49 50.882 0.317 8.94 11.4 10.61
3/26/2021 9:30:00 PM 10.45 50.81 0.317 8.94 11.68 10.56
3/26/2021 9:45:00 PM 10.4 50.72 0.318 8.91 11.53 10.51
3/26/2021 10:00:00 PM 10.36 50.648 0.318 8.91 11.85 10.47
3/26/2021 10:15:00 PM 10.32 50.576 0.319 8.9 11.96 10.43
3/26/2021 10:30:00 PM 10.27 50.486 0.32 8.87 11.95 10.4
3/26/2021 10:45:00 PM 10.22 50.396 0.319 8.89 12.2 10.37
3/26/2021 11:00:00 PM 10.15 50.27 0.321 8.87 11.66 10.33
3/26/2021 11:15:00 PM 10.08 50.144 0.32 8.87 11.7 10.31
3/26/2021 11:30:00 PM 10.01 50.018 0.32 8.86 11.64 10.3
3/26/2021 11:45:00 PM 9.94 49.892 0.321 8.85 11.82 10.28
3/27/2021 12:00:00 AM 9.87 49.766 0.322 8.85 11.84 10.27
3/27/2021 12:15:00 AM 9.8 49.64 0.322 8.86 11.87 10.27
3/27/2021 12:30:00 AM 9.73 49.514 0.323 8.85 11.95 10.26
3/27/2021 12:45:00 AM 9.67 49.406 0.323 8.84 11.78 10.25
3/27/2021 1:00:00 AM 9.61 49.298 0.325 8.84 11.81 10.25
3/27/2021 1:15:00 AM 9.54 49.172 0.325 8.84 11.86 10.25
3/27/2021 1:30:00 AM 9.5 49.1 0.325 8.83 11.86 10.25
3/27/2021 1:45:00 AM 9.45 49.01 0.326 8.84 11.6 10.26
3/27/2021 2:00:00 AM 9.41 48.938 0.327 8.83 11.52 10.27
3/27/2021 2:15:00 AM 9.36 48.848 0.328 8.82 11.66 10.26
3/27/2021 2:30:00 AM 9.32 48.776 0.328 8.84 11.83 10.27
3/27/2021 2:45:00 AM 9.28 48.704 0.329 8.83 11.82 10.29
3/27/2021 3:00:00 AM 9.24 48.632 0.329 8.82 11.5 10.28
3/27/2021 3:15:00 AM 9.19 48.542 0.329 8.83 11.32 10.29
3/27/2021 3:30:00 AM 9.16 48.488 0.329 8.82 11.49 10.29
3/27/2021 3:45:00 AM 9.12 48.416 0.33 8.81 12.08 10.3
3/27/2021 4:00:00 AM 9.08 48.344 0.331 8.82 12.79 10.29
3/27/2021 4:15:00 AM 9.03 48.254 0.33 8.82 12.03 10.3
3/27/2021 4:30:00 AM 8.99 48.182 0.331 8.81 11.49 10.3
3/27/2021 4:45:00 AM 8.95 48.11 0.331 8.81 11.57 10.32
3/27/2021 5:00:00 AM 8.91 48.038 0.332 8.82 11.47 10.34
3/27/2021 5:15:00 AM 8.87 47.966 0.332 8.81 11.56 10.35
3/27/2021 5:30:00 AM 8.83 47.894 0.332 8.81 11.22 10.36
3/27/2021 5:45:00 AM 8.78 47.804 0.332 8.81 11.42 10.38
3/27/2021 6:00:00 AM 8.74 47.732 0.333 8.79 11.48 10.38
3/27/2021 6:15:00 AM 8.7 47.66 0.333 8.8 11.91 10.4
3/27/2021 6:30:00 AM 8.65 47.57 0.333 8.8 11.41 10.41
3/27/2021 6:45:00 AM 8.61 47.498 0.333 8.81 11.35 10.45
3/27/2021 7:00:00 AM 8.57 47.426 0.333 8.79 11.79 10.45
3/27/2021 7:15:00 AM 8.52 47.336 0.335 8.79 12.61 10.48
3/27/2021 7:30:00 AM 8.48 47.264 0.336 8.82 11.36 10.5
3/27/2021 7:45:00 AM 8.44 47.192 0.335 8.81 12.58 10.52
3/27/2021 8:00:00 AM 8.4 47.12 0.336 8.8 12.18 10.52
3/27/2021 8:15:00 AM 8.36 47.048 0.337 8.8 14.42 10.55
3/27/2021 8:30:00 AM 8.33 46.994 0.336 8.83 12.61 10.66
3/27/2021 8:45:00 AM 8.29 46.922 0.337 8.83 13.33 10.72
3/27/2021 9:00:00 AM 8.27 46.886 0.338 8.84 12.36 10.82
3/27/2021 9:15:00 AM 8.24 46.832 0.338 8.85 11.95 10.88
3/27/2021 9:30:00 AM 8.22 46.796 0.338 8.84 11.87 10.95
3/27/2021 9:45:00 AM 8.19 46.742 0.338 8.87 11.65 11.03
3/27/2021 10:00:00 AM 8.19 46.742 0.338 8.87 11.83 11.13
3/27/2021 10:15:00 AM 8.19 46.742 0.338 8.88 11.77 11.24
3/27/2021 10:30:00 AM 8.22 46.796 0.339 8.9 11.67 11.38
3/27/2021 10:45:00 AM 8.24 46.832 0.338 8.92 11.59 11.5
3/27/2021 11:00:00 AM 8.32 46.976 0.339 8.92 11.78 11.55
3/27/2021 11:15:00 AM 8.42 47.156 0.339 8.92 11.47 11.6
3/27/2021 11:30:00 AM 8.5 47.3 0.34 8.93 11.57 11.72
3/27/2021 11:45:00 AM 8.62 47.516 0.339 8.97 11.19 11.84
3/27/2021 12:00:00 PM 8.73 47.714 0.339 8.98 11.19 11.94
3/27/2021 12:15:00 PM 8.77 47.786 0.34 8.99 11.06 12.04
3/27/2021 12:30:00 PM 8.8 47.84 0.34 9 10.98 12.11
3/27/2021 12:45:00 PM 8.89 48.002 0.34 9.01 11.6 12.19
3/27/2021 1:00:00 PM 9.12 48.416 0.339 9.04 11.21 12.27
3/27/2021 1:15:00 PM 9.25 48.65 0.339 9.07 11.25 12.32
3/27/2021 1:30:00 PM 9.4 48.92 0.339 9.09 11.11 12.41
3/27/2021 1:45:00 PM 9.6 49.28 0.338 9.13 11 12.52
3/27/2021 2:00:00 PM 9.81 49.658 0.338 9.13 10.88 12.57
3/27/2021 2:15:00 PM 9.97 49.946 0.339 9.14 10.94 12.6
3/27/2021 2:30:00 PM 10.14 50.252 0.339 9.16 11.39 12.64
3/27/2021 2:45:00 PM 10.33 50.594 0.339 9.17 11.22 12.65
3/27/2021 3:00:00 PM 10.47 50.846 0.339 9.2 11.2 12.66
3/27/2021 3:15:00 PM 10.61 51.098 0.339 9.2 11.21 12.67
3/27/2021 3:30:00 PM 10.75 51.35 0.341 9.21 10.75 12.65
3/27/2021 3:45:00 PM 10.86 51.548 0.34 9.21 11.72 12.65
3/27/2021 4:00:00 PM 10.94 51.692 0.34 9.25 10.28 12.66
3/27/2021 4:15:00 PM 11 51.8 0.34 9.25 11.02 12.63
3/27/2021 4:30:00 PM 11.05 51.89 0.34 9.26 10.22 12.63
3/27/2021 4:45:00 PM 11.08 51.944 0.341 9.27 10.35 12.6
3/27/2021 5:00:00 PM 11.11 51.998 0.341 9.26 10.53 12.55
3/27/2021 5:15:00 PM 11.14 52.052 0.341 9.29 11 12.52
3/27/2021 5:30:00 PM 11.19 52.142 0.341 9.29 10.69 12.48
3/27/2021 5:45:00 PM 11.23 52.214 0.341 9.29 10.62 12.42
3/27/2021 6:00:00 PM 11.25 52.25 0.341 9.3 10.53 12.34
3/27/2021 6:15:00 PM 11.25 52.25 0.342 9.27 9.97 12.24
3/27/2021 6:30:00 PM 11.26 52.268 0.342 9.24 10 12.14
3/27/2021 6:45:00 PM 11.26 52.268 0.343 9.24 10.09 12.04
3/27/2021 7:00:00 PM 11.25 52.25 0.343 9.23 10.08 11.92
3/27/2021 7:15:00 PM 11.23 52.214 0.343 9.22 9.96 11.83
3/27/2021 7:30:00 PM 11.21 52.178 0.344 9.2 10.33 11.7
3/27/2021 7:45:00 PM 11.18 52.124 0.344 9.16 10.15 11.57
3/27/2021 8:00:00 PM 11.14 52.052 0.345 9.15 9.84 11.45
3/27/2021 8:15:00 PM 11.1 51.98 0.343 9.14 9.96 11.35
3/27/2021 8:30:00 PM 11.05 51.89 0.344 9.11 9.99 11.25
3/27/2021 8:45:00 PM 11.01 51.818 0.344 9.09 10.37 11.11
3/27/2021 9:00:00 PM 10.96 51.728 0.345 9.05 10.37 11.01
3/27/2021 9:15:00 PM 10.9 51.62 0.345 9.06 10.65 10.92
3/27/2021 9:30:00 PM 10.85 51.53 0.345 9.02 10.57 10.83
3/27/2021 9:45:00 PM 10.79 51.422 0.346 9.01 10.9 10.73
3/27/2021 10:00:00 PM 10.74 51.332 0.346 8.98 10.77 10.64
3/27/2021 10:15:00 PM 10.69 51.242 0.346 8.97 10.9 10.56
3/27/2021 10:30:00 PM 10.63 51.134 0.346 8.93 10.83 10.5
3/27/2021 10:45:00 PM 10.58 51.044 0.347 8.93 11.25 10.41
3/27/2021 11:00:00 PM 10.53 50.954 0.347 8.93 10.9 10.36
3/27/2021 11:15:00 PM 10.47 50.846 0.347 8.9 10.67 10.29
3/27/2021 11:30:00 PM 10.41 50.738 0.347 8.9 10.71 10.25
3/27/2021 11:45:00 PM 10.35 50.63 0.347 8.87 10.97 10.19
3/28/2021 12:00:00 AM 10.29 50.522 0.347 8.86 10.88 10.15
3/28/2021 12:15:00 AM 10.22 50.396 0.347 8.86 10.84 10.12
3/28/2021 12:30:00 AM 10.16 50.288 0.348 8.84 10.84 10.08
3/28/2021 12:45:00 AM 10.1 50.18 0.348 8.84 10.99 10.06
3/28/2021 1:00:00 AM 10.04 50.072 0.348 8.82 10.65 10.05
3/28/2021 1:15:00 AM 9.97 49.946 0.349 8.83 10.85 10.04
3/28/2021 1:30:00 AM 9.91 49.838 0.351 8.83 10.65 10.03
3/28/2021 1:45:00 AM 9.85 49.73 0.349 8.81 10.76 10
3/28/2021 2:00:00 AM 9.79 49.622 0.349 8.82 10.76 10
3/28/2021 2:15:00 AM 9.72 49.496 0.349 8.8 10.6 9.99
3/28/2021 2:30:00 AM 9.66 49.388 0.351 8.81 10.79 9.99
3/28/2021 2:45:00 AM 9.59 49.262 0.351 8.81 10.72 9.99
3/28/2021 3:00:00 AM 9.53 49.154 0.351 8.8 10.85 9.99
3/28/2021 3:15:00 AM 9.46 49.028 0.351 8.8 10.87 9.99
3/28/2021 3:30:00 AM 9.39 48.902 0.351 8.8 10.51 10.02
3/28/2021 3:45:00 AM 9.32 48.776 0.352 8.8 10.56 10.02
3/28/2021 4:00:00 AM 9.25 48.65 0.352 8.79 10.63 10.03
3/28/2021 4:15:00 AM 9.18 48.524 0.353 8.78 10.48 10.04
3/28/2021 4:30:00 AM 9.12 48.416 0.353 8.8 10.62 10.05
3/28/2021 4:45:00 AM 9.05 48.29 0.353 8.8 10.76 10.05
3/28/2021 5:00:00 AM 8.99 48.182 0.353 8.8 10.65 10.08
3/28/2021 5:15:00 AM 8.93 48.074 0.354 8.78 10.35 10.08
3/28/2021 5:30:00 AM 8.88 47.984 0.353 8.8 10.61 10.11
3/28/2021 5:45:00 AM 8.82 47.876 0.354 8.8 10.52 10.12
3/28/2021 6:00:00 AM 8.76 47.768 0.354 8.8 10.63 10.15
3/28/2021 6:15:00 AM 8.71 47.678 0.354 8.8 10.62 10.15
3/28/2021 6:30:00 AM 8.66 47.588 0.354 8.81 10.63 10.17
3/28/2021 6:45:00 AM 8.61 47.498 0.355 8.79 10.84 10.17
3/28/2021 7:00:00 AM 8.58 47.444 0.355 8.81 10.78 10.18
3/28/2021 7:15:00 AM 8.56 47.408 0.356 8.78 11.01 10.2
3/28/2021 7:30:00 AM 8.54 47.372 0.356 8.82 11.01 10.24
3/28/2021 7:45:00 AM 8.52 47.336 0.356 8.79 10.92 10.23
3/28/2021 8:00:00 AM 8.51 47.318 0.356 8.8 37.2 10.19
3/28/2021 8:15:00 AM 8.51 47.318 0.356 8.8 13.05 10.27
3/28/2021 8:30:00 AM 8.51 47.318 0.357 8.8 57.52 10.19
3/28/2021 8:45:00 AM 8.5 47.3 0.357 8.8 12.03 10.29
3/28/2021 9:00:00 AM 8.51 47.318 0.357 8.81 15.57 10.23
3/28/2021 9:15:00 AM 8.51 47.318 0.357 8.82 36.92 10.38
3/28/2021 9:30:00 AM 8.51 47.318 0.358 8.83 10.66 10.48
3/28/2021 9:45:00 AM 8.51 47.318 0.359 8.83 10.12 10.49
3/28/2021 10:00:00 AM 8.51 47.318 0.359 8.83 13.69 10.55
3/28/2021 10:15:00 AM 8.51 47.318 0.359 8.83 9.72 10.61
3/28/2021 10:30:00 AM 8.53 47.354 0.358 8.85 9.73 10.7
3/28/2021 10:45:00 AM 8.54 47.372 0.358 8.86 9.7 10.79
3/28/2021 11:00:00 AM 8.55 47.39 0.359 8.86 9.56 10.84
3/28/2021 11:15:00 AM 8.56 47.408 0.358 8.86 9.84 10.91
3/28/2021 11:30:00 AM 8.59 47.462 0.358 8.86 9.81 10.99
3/28/2021 11:45:00 AM 8.62 47.516 0.358 8.88 15.52 11.03
3/28/2021 12:00:00 PM 8.64 47.552 0.358 8.9 9.63 11.17
3/28/2021 12:15:00 PM 8.67 47.606 0.357 8.92 9.32 11.27
3/28/2021 12:30:00 PM 8.71 47.678 0.357 8.94 9.33 11.36
3/28/2021 12:45:00 PM 8.76 47.768 0.357 8.94 9.36 11.47
3/28/2021 1:00:00 PM 8.8 47.84 0.357 8.98 9.49 11.55
3/28/2021 1:15:00 PM 8.84 47.912 0.357 8.95 9.51 11.61
3/28/2021 1:30:00 PM 8.89 48.002 0.358 8.98 9.55 11.67
3/28/2021 1:45:00 PM 8.94 48.092 0.357 8.99 9.51 11.78
3/28/2021 2:00:00 PM 8.99 48.182 0.357 9 9.53 11.84
3/28/2021 2:15:00 PM 9.07 48.326 0.357 9.04 9.43 11.93
3/28/2021 2:30:00 PM 9.16 48.488 0.357 9.06 9.66 12.03
3/28/2021 2:45:00 PM 9.29 48.722 0.357 9.07 9.48 12.12
3/28/2021 3:00:00 PM 9.36 48.848 0.358 9.1 9.71 12.15
3/28/2021 3:15:00 PM 9.39 48.902 0.358 9.09 9.48 12.13
3/28/2021 3:30:00 PM 9.41 48.938 0.355 9.12 9.92 12.13
3/28/2021 3:45:00 PM 9.44 48.992 0.355 9.1 9.82 12.16
3/28/2021 4:00:00 PM 9.47 49.046 0.355 9.12 9.63 12.15
3/28/2021 4:15:00 PM 9.49 49.082 0.354 9.14 9.96 12.13
3/28/2021 4:30:00 PM 9.52 49.136 0.353 9.14 10.1 12.06
3/28/2021 4:45:00 PM 9.54 49.172 0.353 9.13 10.4 11.98
3/28/2021 5:00:00 PM 9.55 49.19 0.357 9.13 10.55 11.94
3/28/2021 5:15:00 PM 9.55 49.19 0.359 9.09 10.43 11.85
3/28/2021 5:30:00 PM 9.56 49.208 0.361 9.1 10.31 11.86
3/28/2021 5:45:00 PM 9.57 49.226 0.361 9.11 10.47 11.87
3/28/2021 6:00:00 PM 9.57 49.226 0.366 9.08 10.19 11.77
3/28/2021 6:15:00 PM 9.57 49.226 0.363 9.1 10.61 11.77
3/28/2021 6:30:00 PM 9.55 49.19 0.364 9.09 10.33 11.74
3/28/2021 6:45:00 PM 9.53 49.154 0.36 9.07 10.43 11.69
3/28/2021 7:00:00 PM 9.49 49.082 0.356 9.12 10.36 11.7
3/28/2021 7:15:00 PM 9.44 48.992 0.353 9.1 10.45 11.6
3/28/2021 7:30:00 PM 9.39 48.902 0.351 9.09 11.4 11.52
3/28/2021 7:45:00 PM 9.34 48.812 0.35 9.05 10.74 11.42
3/28/2021 8:00:00 PM 9.27 48.686 0.348 9.03 10.78 11.33
3/28/2021 8:15:00 PM 9.2 48.56 0.348 9.03 10.26 11.26
3/28/2021 8:30:00 PM 9.13 48.434 0.346 8.99 10.51 11.19
3/28/2021 8:45:00 PM 9.07 48.326 0.346 9 10.63 11.14
3/28/2021 9:00:00 PM 9.02 48.236 0.346 8.99 10.49 11.09
3/28/2021 9:15:00 PM 8.95 48.11 0.346 8.96 10.61 11.04
3/28/2021 9:30:00 PM 8.89 48.002 0.346 8.96 10.95 11
3/28/2021 9:45:00 PM 8.81 47.858 0.348 8.96 10.86 10.96
3/28/2021 10:00:00 PM 8.74 47.732 0.354 8.94 11.34 10.91
3/28/2021 10:15:00 PM 8.68 47.624 0.363 8.93 11.93 10.86
3/28/2021 10:30:00 PM 8.63 47.534 0.371 8.93 11.84 10.79
3/28/2021 10:45:00 PM 8.57 47.426 0.376 8.91 12.06 10.75
3/28/2021 11:00:00 PM 8.51 47.318 0.376 8.89 11.99 10.7
3/28/2021 11:15:00 PM 8.43 47.174 0.37 8.88 11.94 10.65
3/28/2021 11:30:00 PM 8.36 47.048 0.362 8.86 12.29 10.62
3/28/2021 11:45:00 PM 8.28 46.904 0.354 8.87 11.76 10.62
3/29/2021 12:00:00 AM 8.19 46.742 0.347 8.85 11.78 10.63
3/29/2021 12:15:00 AM 8.1 46.58 0.341 8.83 12.04 10.63
3/29/2021 12:30:00 AM 8 46.4 0.337 8.82 11.79 10.64
3/29/2021 12:45:00 AM 7.88 46.184 0.336 8.81 12.12 10.67
3/29/2021 1:00:00 AM 7.8 46.04 0.337 8.82 12.66 10.66
3/29/2021 1:15:00 AM 7.72 45.896 0.343 8.81 13.08 10.66
3/29/2021 1:30:00 AM 7.64 45.752 0.353 8.81 13.83 10.65
3/29/2021 1:45:00 AM 7.58 45.644 0.363 8.81 14.45 10.64
3/29/2021 2:00:00 AM 7.51 45.518 0.37 8.82 15.4 10.62
3/29/2021 2:15:00 AM 7.46 45.428 0.374 8.82 15.51 10.62
3/29/2021 2:30:00 AM 7.39 45.302 0.374 8.79 15.89 10.61
3/29/2021 2:45:00 AM 7.33 45.194 0.37 8.81 15.92 10.63
3/29/2021 3:00:00 AM 7.25 45.05 0.364 8.81 15.13 10.65
3/29/2021 3:15:00 AM 7.19 44.942 0.358 8.8 14.78 10.67
3/29/2021 3:30:00 AM 7.12 44.816 0.351 8.78 14.28 10.7
3/29/2021 3:45:00 AM 7.03 44.654 0.343 8.79 14.25 10.75
3/29/2021 4:00:00 AM 6.95 44.51 0.335 8.78 13.61 10.81
3/29/2021 4:15:00 AM 6.86 44.348 0.329 8.76 12.7 10.85
3/29/2021 4:30:00 AM 6.77 44.186 0.323 8.77 13.05 10.89
3/29/2021 4:45:00 AM 6.67 44.006 0.317 8.76 13.28 10.96
3/29/2021 5:00:00 AM 6.57 43.826 0.313 8.77 13.32 11.02
3/29/2021 5:15:00 AM 6.5 43.7 0.311 8.74 15.54 11.01
3/29/2021 5:30:00 AM 6.4 43.52 0.308 8.76 14.25 11.08
3/29/2021 5:45:00 AM 6.31 43.358 0.307 8.77 14.1 11.13
3/29/2021 6:00:00 AM 6.23 43.214 0.307 8.76 14.1 11.15
3/29/2021 6:15:00 AM 6.16 43.088 0.306 8.75 14.22 11.18
3/29/2021 6:30:00 AM 6.09 42.962 0.307 8.75 14.26 11.2
3/29/2021 6:45:00 AM 6.03 42.854 0.306 8.76 14.23 11.21
3/29/2021 7:00:00 AM 5.97 42.746 0.305 8.75 14.39 11.24
3/29/2021 7:15:00 AM 5.89 42.602 0.304 8.76 14.35 11.27
3/29/2021 7:30:00 AM 5.82 42.476 0.304 8.77 14.66 11.29
3/29/2021 7:45:00 AM 5.77 42.386 0.304 8.77 13.91 11.32
3/29/2021 8:00:00 AM 5.71 42.278 0.304 8.77 13.81 11.37
3/29/2021 8:15:00 AM 5.65 42.17 0.305 8.78 13.54 11.4
3/29/2021 8:30:00 AM 5.61 42.098 0.306 8.77 13.53 11.43
3/29/2021 8:45:00 AM 5.56 42.008 0.307 8.78 13.98 11.48
3/29/2021 9:00:00 AM 5.52 41.936 0.309 8.78 13.44 11.53
3/29/2021 9:15:00 AM 5.48 41.864 0.31 8.81 13.69 11.59
3/29/2021 9:30:00 AM 5.45 41.81 0.311 8.81 140.79 11.65
3/29/2021 9:45:00 AM 5.42 41.756 0.312 8.82 15.38 11.71
3/29/2021 10:00:00 AM 5.41 41.738 0.313 8.82 13.38 11.81
3/29/2021 10:15:00 AM 5.4 41.72 0.314 8.84 13.77 11.89
3/29/2021 10:30:00 AM 5.39 41.702 0.315 8.82 13.27 11.98
3/29/2021 10:45:00 AM 5.39 41.702 0.316 8.84 13.45 12.07
3/29/2021 11:00:00 AM 5.44 41.792 0.317 8.86 13.26 12.16
3/29/2021 11:15:00 AM 5.52 41.936 0.318 8.87 12.89 12.25
3/29/2021 11:30:00 AM 5.77 42.386 0.327 7.67 4.73 12.16
3/29/2021 11:45:00 AM 5.81 42.458 0.327 7.7 4.51 12.24
3/29/2021 12:00:00 PM 5.92 42.656 0.328 7.7 6.9 12.3
3/29/2021 12:15:00 PM 6.04 42.872 0.328 7.72 4.95 12.4
3/29/2021 12:30:00 PM 6.18 43.124 0.329 7.73 4.32 12.47
3/29/2021 12:45:00 PM 6.32 43.376 0.329 7.75 4.37 12.54
3/29/2021 1:00:00 PM 6.5 43.7 0.328 7.77 4.15 12.62
3/29/2021 1:15:00 PM 6.7 44.06 0.329 7.78 3.93 12.67
3/29/2021 1:30:00 PM 6.91 44.438 0.329 7.8 3.89 12.74
3/29/2021 1:45:00 PM 7.09 44.762 0.33 7.81 3.88 12.79
3/29/2021 2:00:00 PM 7.29 45.122 0.33 7.84 3.86 12.85
3/29/2021 2:15:00 PM 7.46 45.428 0.33 7.85 3.52 12.89
3/29/2021 2:30:00 PM 7.63 45.734 0.331 7.88 3.7 12.94
3/29/2021 2:45:00 PM 7.81 46.058 0.331 7.89 3.63 12.96
3/29/2021 3:00:00 PM 8.01 46.418 0.332 7.92 3.86 12.98
3/29/2021 3:15:00 PM 8.16 46.688 0.331 7.94 3.95 12.99
3/29/2021 3:30:00 PM 8.33 46.994 0.333 7.95 3.89 12.98
3/29/2021 3:45:00 PM 8.47 47.246 0.332 7.97 3.66 12.99
3/29/2021 4:00:00 PM 8.6 47.48 0.333 7.98 3.49 12.97
3/29/2021 4:15:00 PM 8.7 47.66 0.334 7.99 3.41 12.98
3/29/2021 4:30:00 PM 8.79 47.822 0.334 8.01 3.5 12.95
3/29/2021 4:45:00 PM 8.84 47.912 0.333 8.02 3.39 12.93
3/29/2021 5:00:00 PM 8.85 47.93 0.335 8.02 3.79 12.88
3/29/2021 5:15:00 PM 8.86 47.948 0.335 8.03 3.28 12.86
3/29/2021 5:30:00 PM 8.86 47.948 0.336 8.05 3.32 12.82
3/29/2021 5:45:00 PM 8.86 47.948 0.335 8.05 3.21 12.77
3/29/2021 6:00:00 PM 8.84 47.912 0.336 8.04 3.39 12.69
3/29/2021 6:15:00 PM 8.81 47.858 0.337 8.04 3.22 12.62
3/29/2021 6:30:00 PM 8.79 47.822 0.336 8.04 3.31 12.56
3/29/2021 6:45:00 PM 8.75 47.75 0.338 8.02 3.15 12.48
3/29/2021 7:00:00 PM 8.7 47.66 0.339 8.02 3.26 12.4
3/29/2021 7:15:00 PM 8.65 47.57 0.338 8.01 3.18 12.33
3/29/2021 7:30:00 PM 8.6 47.48 0.339 8 3.21 12.23
3/29/2021 7:45:00 PM 8.54 47.372 0.339 7.98 3.15 12.13
3/29/2021 8:00:00 PM 8.48 47.264 0.34 7.96 4.17 12
3/29/2021 8:15:00 PM 8.44 47.192 0.342 7.94 3.09 11.89
3/29/2021 8:30:00 PM 8.39 47.102 0.343 7.91 3.52 11.79
3/29/2021 8:45:00 PM 8.33 46.994 0.343 7.9 3.23 11.72
3/29/2021 9:00:00 PM 8.28 46.904 0.344 7.88 3.09 11.62
3/29/2021 9:15:00 PM 8.23 46.814 0.345 7.86 3.41 11.55
3/29/2021 9:30:00 PM 8.17 46.706 0.345 7.85 3.36 11.46
3/29/2021 9:45:00 PM 8.11 46.598 0.347 7.83 3.38 11.39
3/29/2021 10:00:00 PM 8.05 46.49 0.347 7.82 3.55 11.33
3/29/2021 10:15:00 PM 8 46.4 0.349 7.8 3.65 11.26
3/29/2021 10:30:00 PM 7.94 46.292 0.348 7.8 3.45 11.2
3/29/2021 10:45:00 PM 7.89 46.202 0.349 7.78 3.33 11.12
3/29/2021 11:00:00 PM 7.84 46.112 0.35 7.75 3.64 11.06
3/29/2021 11:15:00 PM 7.78 46.004 0.349 7.76 3.64 11.02
3/29/2021 11:30:00 PM 7.73 45.914 0.349 7.75 3.49 10.99
3/29/2021 11:45:00 PM 7.68 45.824 0.35 7.73 3.26 10.94
3/30/2021 12:00:00 AM 7.63 45.734 0.349 7.72 3.4 10.9
3/30/2021 12:15:00 AM 7.58 45.644 0.349 7.72 3.22 10.87
3/30/2021 12:30:00 AM 7.52 45.536 0.35 7.71 3.17 10.85
3/30/2021 12:45:00 AM 7.46 45.428 0.349 7.7 3.13 10.84
3/30/2021 1:00:00 AM 7.4 45.32 0.351 7.7 3.18 10.82
3/30/2021 1:15:00 AM 7.34 45.212 0.353 7.69 3.15 10.8
3/30/2021 1:30:00 AM 7.27 45.086 0.351 7.69 3.18 10.82
3/30/2021 1:45:00 AM 7.2 44.96 0.352 7.69 3.28 10.83
3/30/2021 2:00:00 AM 7.13 44.834 0.353 7.68 3.25 10.81
3/30/2021 2:15:00 AM 7.06 44.708 0.352 7.68 3.17 10.82
3/30/2021 2:30:00 AM 7 44.6 0.354 7.68 3.18 10.82
3/30/2021 2:45:00 AM 6.94 44.492 0.354 7.67 3.19 10.82
3/30/2021 3:00:00 AM 6.87 44.366 0.353 7.68 3.12 10.85
3/30/2021 3:15:00 AM 6.8 44.24 0.355 7.67 3.15 10.85
3/30/2021 3:30:00 AM 6.74 44.132 0.357 7.67 3.1 10.84
3/30/2021 3:45:00 AM 6.67 44.006 0.355 7.67 3.18 10.86
3/30/2021 4:00:00 AM 6.61 43.898 0.357 7.67 3.26 10.88
3/30/2021 4:15:00 AM 6.54 43.772 0.358 7.66 3.12 10.9
3/30/2021 4:30:00 AM 6.48 43.664 0.359 7.66 3.03 10.89
3/30/2021 4:45:00 AM 6.42 43.556 0.358 7.66 3.07 10.9
3/30/2021 5:00:00 AM 6.35 43.43 0.359 7.66 2.94 10.93
3/30/2021 5:15:00 AM 6.28 43.304 0.359 7.66 2.95 10.94
3/30/2021 5:30:00 AM 6.22 43.196 0.361 7.66 3.2 10.95
3/30/2021 5:45:00 AM 6.15 43.07 0.36 7.66 3.01 10.96
3/30/2021 6:00:00 AM 6.08 42.944 0.36 7.67 2.99 11.01
3/30/2021 6:15:00 AM 6.02 42.836 0.361 7.66 3.03 11.02
3/30/2021 6:30:00 AM 5.95 42.71 0.362 7.66 3.05 11.02
3/30/2021 6:45:00 AM 5.88 42.584 0.364 7.66 3.21 11.05
3/30/2021 7:00:00 AM 5.82 42.476 0.363 7.66 3.31 11.07
3/30/2021 7:15:00 AM 5.76 42.368 0.364 7.66 3.36 11.1
3/30/2021 7:30:00 AM 5.68 42.224 0.363 7.66 3.23 11.14
3/30/2021 7:45:00 AM 5.62 42.116 0.364 7.66 3.43 11.16
3/30/2021 8:00:00 AM 5.55 41.99 0.368 7.67 3.6 11.21
3/30/2021 8:15:00 AM 5.48 41.864 0.365 7.67 3.33 11.27
3/30/2021 8:30:00 AM 5.41 41.738 0.366 7.68 3.21 11.35
3/30/2021 8:45:00 AM 5.35 41.63 0.364 7.69 3.24 11.39
3/30/2021 9:00:00 AM 5.29 41.522 0.366 7.69 3.05 11.45
3/30/2021 9:15:00 AM 5.25 41.45 0.366 7.69 3.17 11.51
3/30/2021 9:30:00 AM 5.21 41.378 0.367 7.7 2.89 11.6
3/30/2021 9:45:00 AM 5.18 41.324 0.367 7.7 2.93 11.7
3/30/2021 10:00:00 AM 5.19 41.342 0.367 7.71 3.14 11.79
3/30/2021 10:15:00 AM 5.2 41.36 0.366 7.73 3.17 11.88
3/30/2021 10:30:00 AM 5.23 41.414 0.366 7.73 3.18 11.94
3/30/2021 10:45:00 AM 5.26 41.468 0.368 7.74 2.74 12.01
3/30/2021 11:00:00 AM 5.33 41.594 0.367 7.75 2.76 12.11
3/30/2021 11:15:00 AM 5.44 41.792 0.367 7.77 3.02 12.24
3/30/2021 11:30:00 AM 5.59 42.062 0.366 7.78 2.81 12.35
3/30/2021 11:45:00 AM 5.77 42.386 0.366 7.8 2.87 12.46
3/30/2021 12:00:00 PM 5.96 42.728 0.368 7.81 2.65 12.56
3/30/2021 12:15:00 PM 6.16 43.088 0.367 7.82 2.82 12.67
3/30/2021 12:30:00 PM 6.39 43.502 0.366 7.84 2.83 12.75
3/30/2021 12:45:00 PM 6.63 43.934 0.367 7.84 2.85 12.81
3/30/2021 1:00:00 PM 6.9 44.42 0.367 7.88 2.8 12.91
3/30/2021 1:15:00 PM 7.18 44.924 0.367 7.9 2.74 12.98
3/30/2021 1:30:00 PM 7.47 45.446 0.366 7.92 2.74 13.04
3/30/2021 1:45:00 PM 7.76 45.968 0.367 7.93 2.77 13.07
3/30/2021 2:00:00 PM 8.04 46.472 0.367 7.93 2.79 13.11
3/30/2021 2:15:00 PM 8.34 47.012 0.367 7.97 2.76 13.14
3/30/2021 2:30:00 PM 8.59 47.462 0.369 7.98 2.67 13.13
3/30/2021 2:45:00 PM 8.85 47.93 0.367 7.99 2.99 13.11
3/30/2021 3:00:00 PM 9.07 48.326 0.367 8 2.64 13.09
3/30/2021 3:15:00 PM 9.32 48.776 0.366 8.04 2.62 13.13
3/30/2021 3:30:00 PM 9.5 49.1 0.366 8.05 2.7 13.11
3/30/2021 3:45:00 PM 9.7 49.46 0.366 8.07 2.85 13.07
3/30/2021 4:00:00 PM 9.87 49.766 0.367 8.09 2.76 13.06
3/30/2021 4:15:00 PM 10.01 50.018 0.366 8.1 2.92 13.02
3/30/2021 4:30:00 PM 10.11 50.198 0.367 8.11 2.73 12.94
3/30/2021 4:45:00 PM 10.19 50.342 0.367 8.11 2.72 12.88
3/30/2021 5:00:00 PM 10.25 50.45 0.367 8.11 2.85 12.83
3/30/2021 5:15:00 PM 10.31 50.558 0.368 8.11 2.96 12.78
3/30/2021 5:30:00 PM 10.38 50.684 0.367 8.15 2.82 12.72
3/30/2021 5:45:00 PM 10.39 50.702 0.367 8.15 2.91 12.63
3/30/2021 6:00:00 PM 10.4 50.72 0.368 8.14 2.81 12.55
3/30/2021 6:15:00 PM 10.39 50.702 0.368 8.15 2.77 12.47
3/30/2021 6:30:00 PM 10.38 50.684 0.368 8.14 2.76 12.36
3/30/2021 6:45:00 PM 10.37 50.666 0.369 8.13 2.89 12.25
3/30/2021 7:00:00 PM 10.37 50.666 0.368 8.12 2.91 12.18
3/30/2021 7:15:00 PM 10.35 50.63 0.369 8.1 2.94 12.06
3/30/2021 7:30:00 PM 10.32 50.576 0.37 8.05 3.81 11.91
3/30/2021 7:45:00 PM 10.31 50.558 0.369 8.07 3.73 11.8
3/30/2021 8:00:00 PM 10.28 50.504 0.37 8.03 2.86 11.69
3/30/2021 8:15:00 PM 10.25 50.45 0.37 8.02 2.7 11.56
3/30/2021 8:30:00 PM 10.22 50.396 0.37 8.01 3.26 11.48
3/30/2021 8:45:00 PM 10.19 50.342 0.37 7.99 2.68 11.36
3/30/2021 9:00:00 PM 10.16 50.288 0.371 7.95 2.83 11.24
3/30/2021 9:15:00 PM 10.13 50.234 0.37 7.95 2.82 11.16
3/30/2021 9:30:00 PM 10.09 50.162 0.371 7.92 2.9 11.07
3/30/2021 9:45:00 PM 10.06 50.108 0.371 7.91 3.1 10.98
3/30/2021 10:00:00 PM 10.02 50.036 0.371 7.89 3.3 10.89
3/30/2021 10:15:00 PM 9.98 49.964 0.371 7.87 3.2 10.8
3/30/2021 10:30:00 PM 9.94 49.892 0.372 7.85 3.12 10.71
3/30/2021 10:45:00 PM 9.91 49.838 0.372 7.84 2.99 10.63
3/30/2021 11:00:00 PM 9.88 49.784 0.373 7.81 3.19 10.55
3/30/2021 11:15:00 PM 9.85 49.73 0.373 7.81 3.33 10.47
3/30/2021 11:30:00 PM 9.82 49.676 0.373 7.78 3.37 10.4
3/30/2021 11:45:00 PM 9.79 49.622 0.373 7.78 3.07 10.36
3/31/2021 12:00:00 AM 9.76 49.568 0.374 7.76 3.42 10.3
3/31/2021 12:15:00 AM 9.73 49.514 0.374 7.75 2.96 10.24
3/31/2021 12:30:00 AM 9.7 49.46 0.374 7.74 3.05 10.18
3/31/2021 12:45:00 AM 9.68 49.424 0.375 7.73 3.03 10.15
3/31/2021 1:00:00 AM 9.65 49.37 0.374 7.72 3.1 10.11
3/31/2021 1:15:00 AM 9.62 49.316 0.376 7.7 2.97 10.08
3/31/2021 1:30:00 AM 9.59 49.262 0.375 7.7 2.94 10.06
3/31/2021 1:45:00 AM 9.56 49.208 0.376 7.69 2.94 10.02
3/31/2021 2:00:00 AM 9.53 49.154 0.376 7.67 2.99 10
3/31/2021 2:15:00 AM 9.5 49.1 0.376 7.67 2.84 10
3/31/2021 2:30:00 AM 9.48 49.064 0.376 7.67 2.99 9.98
3/31/2021 2:45:00 AM 9.45 49.01 0.377 7.66 3.01 9.96
3/31/2021 3:00:00 AM 9.42 48.956 0.377 7.66 3.21 9.96
3/31/2021 3:15:00 AM 9.39 48.902 0.377 7.64 3.13 9.94
3/31/2021 3:30:00 AM 9.36 48.848 0.378 7.65 3.05 9.94
3/31/2021 3:45:00 AM 9.32 48.776 0.378 7.65 3.07 9.93
3/31/2021 4:00:00 AM 9.29 48.722 0.378 7.65 2.92 9.92
3/31/2021 4:15:00 AM 9.27 48.686 0.38 7.64 3.08 9.94
3/31/2021 4:30:00 AM 9.24 48.632 0.38 7.64 3.08 9.92
3/31/2021 4:45:00 AM 9.22 48.596 0.379 7.64 2.97 9.94
3/31/2021 5:00:00 AM 9.19 48.542 0.379 7.64 3.12 9.95
3/31/2021 5:15:00 AM 9.16 48.488 0.379 7.64 3.07 9.95
3/31/2021 5:30:00 AM 9.14 48.452 0.38 7.65 3.08 9.94
3/31/2021 5:45:00 AM 9.11 48.398 0.38 7.64 3.08 9.93
3/31/2021 6:00:00 AM 9.08 48.344 0.379 7.64 3.18 9.97
3/31/2021 6:15:00 AM 9.06 48.308 0.382 7.63 3.3 9.96
3/31/2021 6:30:00 AM 9.04 48.272 0.38 7.64 3.31 9.96
3/31/2021 6:45:00 AM 9.02 48.236 0.383 7.62 3.88 9.94
3/31/2021 7:00:00 AM 9 48.2 0.381 7.63 3.67 9.93
3/31/2021 7:15:00 AM 8.98 48.164 0.383 7.61 2.98 9.95
3/31/2021 7:30:00 AM 8.96 48.128 0.383 7.62 2.95 9.97
3/31/2021 7:45:00 AM 8.95 48.11 0.382 7.64 3.13 10.02
3/31/2021 8:00:00 AM 8.94 48.092 0.383 7.65 3.32 10.06
3/31/2021 8:15:00 AM 8.93 48.074 0.384 7.64 3.25 10.09
3/31/2021 8:30:00 AM 8.92 48.056 0.383 7.65 3.26 10.15
3/31/2021 8:45:00 AM 8.91 48.038 0.384 7.64 8.94 10.17
3/31/2021 9:00:00 AM 8.9 48.02 0.383 7.66 10.01 10.2
3/31/2021 9:15:00 AM 8.89 48.002 0.383 7.66 2.66 10.27
3/31/2021 9:30:00 AM 8.89 48.002 0.385 7.66 3.5 10.31
3/31/2021 9:45:00 AM 8.89 48.002 0.385 7.65 3.18 10.35
3/31/2021 10:00:00 AM 8.88 47.984 0.387 7.69 2.89 10.46
3/31/2021 10:15:00 AM 8.88 47.984 0.385 7.7 2.63 10.56
3/31/2021 10:30:00 AM 8.88 47.984 0.386 7.7 2.67 10.6
3/31/2021 10:45:00 AM 8.87 47.966 0.386 7.71 2.65 10.67
3/31/2021 11:00:00 AM 8.86 47.948 0.385 7.73 2.62 10.76
3/31/2021 11:15:00 AM 8.86 47.948 0.385 7.73 2.48 10.83
3/31/2021 11:30:00 AM 8.86 47.948 0.384